<?xml version="1.0" encoding="UTF-8" standalone="no" ?>
<gpx xmlns="http://www.topografix.com/GPX/1/1" xmlns:xsi="http://www.w3.org/2001/XMLSchema-instance" xsi:schemaLocation="http://www.topografix.com/GPX/1/1 http://www.topografix.com/GPX/1/1/gpx.xsd" version="1.1" creator="VisuGPX - https://www.visugpx.com">
  <metadata>
    <name>2009 LAGAHL</name>
    <desc><![CDATA[Lozère-Aveyron-Gard-Ardèche-Haute Loire]]></desc>
  </metadata>
  <trk>
    <name><![CDATA[G01]]></name>
    <trkseg>
      <trkpt lat="44.89126" lon="3.7885">
        <ele>1213</ele>
        <time>2009-07-12T06:20:04Z</time>
      </trkpt>
      <trkpt lat="44.89126" lon="3.7885">
        <ele>1212</ele>
        <time>2009-07-12T06:20:08Z</time>
      </trkpt>
      <trkpt lat="44.89126" lon="3.7885">
        <ele>1214</ele>
        <time>2009-07-12T06:20:14Z</time>
      </trkpt>
      <trkpt lat="44.89126" lon="3.78851">
        <ele>1217</ele>
        <time>2009-07-12T06:20:19Z</time>
      </trkpt>
      <trkpt lat="44.89126" lon="3.78851">
        <ele>1220</ele>
        <time>2009-07-12T06:20:28Z</time>
      </trkpt>
      <trkpt lat="44.89127" lon="3.78851">
        <ele>1221</ele>
        <time>2009-07-12T06:20:30Z</time>
      </trkpt>
      <trkpt lat="44.89128" lon="3.78852">
        <ele>1225</ele>
        <time>2009-07-12T06:20:37Z</time>
      </trkpt>
      <trkpt lat="44.89126" lon="3.78843">
        <ele>1230</ele>
        <time>2009-07-12T06:21:03Z</time>
      </trkpt>
      <trkpt lat="44.89126" lon="3.78843">
        <ele>1228</ele>
        <time>2009-07-12T06:21:04Z</time>
      </trkpt>
      <trkpt lat="44.89126" lon="3.78842">
        <ele>1225</ele>
        <time>2009-07-12T06:21:05Z</time>
      </trkpt>
      <trkpt lat="44.89126" lon="3.7884">
        <ele>1230</ele>
        <time>2009-07-12T06:21:06Z</time>
      </trkpt>
      <trkpt lat="44.89126" lon="3.7884">
        <ele>1226</ele>
        <time>2009-07-12T06:21:07Z</time>
      </trkpt>
      <trkpt lat="44.89125" lon="3.78834">
        <ele>1227</ele>
        <time>2009-07-12T06:21:17Z</time>
      </trkpt>
      <trkpt lat="44.89126" lon="3.78833">
        <ele>1228</ele>
        <time>2009-07-12T06:21:22Z</time>
      </trkpt>
      <trkpt lat="44.89127" lon="3.78845">
        <ele>1227</ele>
        <time>2009-07-12T06:22:11Z</time>
      </trkpt>
      <trkpt lat="44.89125" lon="3.78847">
        <ele>1227</ele>
        <time>2009-07-12T06:22:33Z</time>
      </trkpt>
      <trkpt lat="44.89124" lon="3.78851">
        <ele>1228</ele>
        <time>2009-07-12T06:22:36Z</time>
      </trkpt>
      <trkpt lat="44.89125" lon="3.78871">
        <ele>1228</ele>
        <time>2009-07-12T06:22:53Z</time>
      </trkpt>
      <trkpt lat="44.89127" lon="3.78872">
        <ele>1232</ele>
        <time>2009-07-12T06:24:51Z</time>
      </trkpt>
      <trkpt lat="44.89127" lon="3.78872">
        <ele>1229</ele>
        <time>2009-07-12T06:24:52Z</time>
      </trkpt>
      <trkpt lat="44.89127" lon="3.78872">
        <ele>1225</ele>
        <time>2009-07-12T06:24:53Z</time>
      </trkpt>
      <trkpt lat="44.89127" lon="3.78872">
        <ele>1229</ele>
        <time>2009-07-12T06:24:54Z</time>
      </trkpt>
      <trkpt lat="44.89127" lon="3.78873">
        <ele>1225</ele>
        <time>2009-07-12T06:25:09Z</time>
      </trkpt>
      <trkpt lat="44.89127" lon="3.78873">
        <ele>1229</ele>
        <time>2009-07-12T06:25:10Z</time>
      </trkpt>
      <trkpt lat="44.89127" lon="3.78873">
        <ele>1230</ele>
        <time>2009-07-12T06:25:28Z</time>
      </trkpt>
      <trkpt lat="44.89127" lon="3.78873">
        <ele>1228</ele>
        <time>2009-07-12T06:25:30Z</time>
      </trkpt>
      <trkpt lat="44.89127" lon="3.78875">
        <ele>1229</ele>
        <time>2009-07-12T06:26:37Z</time>
      </trkpt>
      <trkpt lat="44.89127" lon="3.78872">
        <ele>1230</ele>
        <time>2009-07-12T06:26:56Z</time>
      </trkpt>
      <trkpt lat="44.89127" lon="3.78872">
        <ele>1229</ele>
        <time>2009-07-12T06:27:02Z</time>
      </trkpt>
      <trkpt lat="44.89121" lon="3.78882">
        <ele>1230</ele>
        <time>2009-07-12T06:27:13Z</time>
      </trkpt>
      <trkpt lat="44.89121" lon="3.78882">
        <ele>1231</ele>
        <time>2009-07-12T06:27:34Z</time>
      </trkpt>
      <trkpt lat="44.89123" lon="3.78885">
        <ele>1231</ele>
        <time>2009-07-12T06:27:37Z</time>
      </trkpt>
      <trkpt lat="44.8914" lon="3.78862">
        <ele>1230</ele>
        <time>2009-07-12T06:27:48Z</time>
      </trkpt>
      <trkpt lat="44.89145" lon="3.78857">
        <ele>1230</ele>
        <time>2009-07-12T06:27:51Z</time>
      </trkpt>
      <trkpt lat="44.89173" lon="3.78824">
        <ele>1230</ele>
        <time>2009-07-12T06:28:07Z</time>
      </trkpt>
      <trkpt lat="44.89189" lon="3.78806">
        <ele>1230</ele>
        <time>2009-07-12T06:28:18Z</time>
      </trkpt>
      <trkpt lat="44.89186" lon="3.78804">
        <ele>1229</ele>
        <time>2009-07-12T06:28:22Z</time>
      </trkpt>
      <trkpt lat="44.8916" lon="3.78839">
        <ele>1228</ele>
        <time>2009-07-12T06:28:38Z</time>
      </trkpt>
      <trkpt lat="44.89131" lon="3.78873">
        <ele>1230</ele>
        <time>2009-07-12T06:28:51Z</time>
      </trkpt>
      <trkpt lat="44.89106" lon="3.78911">
        <ele>1230</ele>
        <time>2009-07-12T06:29:05Z</time>
      </trkpt>
      <trkpt lat="44.89119" lon="3.78915">
        <ele>1230</ele>
        <time>2009-07-12T06:29:12Z</time>
      </trkpt>
      <trkpt lat="44.8915" lon="3.78931">
        <ele>1230</ele>
        <time>2009-07-12T06:29:25Z</time>
      </trkpt>
      <trkpt lat="44.89151" lon="3.78931">
        <ele>1230</ele>
        <time>2009-07-12T06:29:33Z</time>
      </trkpt>
      <trkpt lat="44.89163" lon="3.7894">
        <ele>1229</ele>
        <time>2009-07-12T06:29:39Z</time>
      </trkpt>
      <trkpt lat="44.89188" lon="3.7897">
        <ele>1228</ele>
        <time>2009-07-12T06:29:48Z</time>
      </trkpt>
      <trkpt lat="44.89178" lon="3.79017">
        <ele>1226</ele>
        <time>2009-07-12T06:29:57Z</time>
      </trkpt>
      <trkpt lat="44.8917" lon="3.79038">
        <ele>1226</ele>
        <time>2009-07-12T06:30:01Z</time>
      </trkpt>
      <trkpt lat="44.89183" lon="3.79081">
        <ele>1224</ele>
        <time>2009-07-12T06:30:09Z</time>
      </trkpt>
      <trkpt lat="44.89188" lon="3.79082">
        <ele>1225</ele>
        <time>2009-07-12T06:30:10Z</time>
      </trkpt>
      <trkpt lat="44.89258" lon="3.79103">
        <ele>1225</ele>
        <time>2009-07-12T06:30:29Z</time>
      </trkpt>
      <trkpt lat="44.89273" lon="3.79108">
        <ele>1225</ele>
        <time>2009-07-12T06:30:33Z</time>
      </trkpt>
      <trkpt lat="44.89346" lon="3.79136">
        <ele>1227</ele>
        <time>2009-07-12T06:30:52Z</time>
      </trkpt>
      <trkpt lat="44.89419" lon="3.79172">
        <ele>1230</ele>
        <time>2009-07-12T06:31:12Z</time>
      </trkpt>
      <trkpt lat="44.89493" lon="3.79223">
        <ele>1232</ele>
        <time>2009-07-12T06:31:35Z</time>
      </trkpt>
      <trkpt lat="44.89559" lon="3.79254">
        <ele>1233</ele>
        <time>2009-07-12T06:31:55Z</time>
      </trkpt>
      <trkpt lat="44.89634" lon="3.79276">
        <ele>1233</ele>
        <time>2009-07-12T06:32:17Z</time>
      </trkpt>
      <trkpt lat="44.897" lon="3.79289">
        <ele>1236</ele>
        <time>2009-07-12T06:32:38Z</time>
      </trkpt>
      <trkpt lat="44.8976" lon="3.79289">
        <ele>1237</ele>
        <time>2009-07-12T06:32:57Z</time>
      </trkpt>
      <trkpt lat="44.89836" lon="3.79294">
        <ele>1239</ele>
        <time>2009-07-12T06:33:19Z</time>
      </trkpt>
      <trkpt lat="44.89904" lon="3.79329">
        <ele>1241</ele>
        <time>2009-07-12T06:33:40Z</time>
      </trkpt>
      <trkpt lat="44.89976" lon="3.7938">
        <ele>1243</ele>
        <time>2009-07-12T06:34:02Z</time>
      </trkpt>
      <trkpt lat="44.90047" lon="3.79405">
        <ele>1246</ele>
        <time>2009-07-12T06:34:23Z</time>
      </trkpt>
      <trkpt lat="44.90088" lon="3.79417">
        <ele>1249</ele>
        <time>2009-07-12T06:34:37Z</time>
      </trkpt>
      <trkpt lat="44.90131" lon="3.79433">
        <ele>1252</ele>
        <time>2009-07-12T06:34:52Z</time>
      </trkpt>
      <trkpt lat="44.90187" lon="3.79443">
        <ele>1254</ele>
        <time>2009-07-12T06:35:14Z</time>
      </trkpt>
      <trkpt lat="44.90213" lon="3.79444">
        <ele>1257</ele>
        <time>2009-07-12T06:35:25Z</time>
      </trkpt>
      <trkpt lat="44.90215" lon="3.79444">
        <ele>1257</ele>
        <time>2009-07-12T06:35:26Z</time>
      </trkpt>
      <trkpt lat="44.90243" lon="3.79445">
        <ele>1261</ele>
        <time>2009-07-12T06:35:39Z</time>
      </trkpt>
      <trkpt lat="44.90272" lon="3.79442">
        <ele>1264</ele>
        <time>2009-07-12T06:35:54Z</time>
      </trkpt>
      <trkpt lat="44.90304" lon="3.79434">
        <ele>1268</ele>
        <time>2009-07-12T06:36:13Z</time>
      </trkpt>
      <trkpt lat="44.90308" lon="3.79442">
        <ele>1267</ele>
        <time>2009-07-12T06:36:32Z</time>
      </trkpt>
      <trkpt lat="44.90308" lon="3.79439">
        <ele>1267</ele>
        <time>2009-07-12T06:36:53Z</time>
      </trkpt>
      <trkpt lat="44.90308" lon="3.79437">
        <ele>1268</ele>
        <time>2009-07-12T06:37:28Z</time>
      </trkpt>
      <trkpt lat="44.90305" lon="3.79433">
        <ele>1268</ele>
        <time>2009-07-12T06:38:05Z</time>
      </trkpt>
      <trkpt lat="44.90306" lon="3.79432">
        <ele>1268</ele>
        <time>2009-07-12T06:38:13Z</time>
      </trkpt>
      <trkpt lat="44.90311" lon="3.79414">
        <ele>1267</ele>
        <time>2009-07-12T06:38:23Z</time>
      </trkpt>
      <trkpt lat="44.90318" lon="3.79416">
        <ele>1265</ele>
        <time>2009-07-12T06:38:25Z</time>
      </trkpt>
      <trkpt lat="44.90326" lon="3.79421">
        <ele>1265</ele>
        <time>2009-07-12T06:38:27Z</time>
      </trkpt>
      <trkpt lat="44.90339" lon="3.7943">
        <ele>1261</ele>
        <time>2009-07-12T06:38:30Z</time>
      </trkpt>
      <trkpt lat="44.90344" lon="3.79433">
        <ele>1261</ele>
        <time>2009-07-12T06:38:31Z</time>
      </trkpt>
      <trkpt lat="44.90372" lon="3.7942">
        <ele>1256</ele>
        <time>2009-07-12T06:38:37Z</time>
      </trkpt>
      <trkpt lat="44.90369" lon="3.79386">
        <ele>1253</ele>
        <time>2009-07-12T06:38:41Z</time>
      </trkpt>
      <trkpt lat="44.90358" lon="3.79323">
        <ele>1251</ele>
        <time>2009-07-12T06:38:48Z</time>
      </trkpt>
      <trkpt lat="44.90361" lon="3.79289">
        <ele>1247</ele>
        <time>2009-07-12T06:38:51Z</time>
      </trkpt>
      <trkpt lat="44.90365" lon="3.79248">
        <ele>1242</ele>
        <time>2009-07-12T06:38:54Z</time>
      </trkpt>
      <trkpt lat="44.90378" lon="3.7917">
        <ele>1239</ele>
        <time>2009-07-12T06:39:02Z</time>
      </trkpt>
      <trkpt lat="44.90387" lon="3.79158">
        <ele>1239</ele>
        <time>2009-07-12T06:39:09Z</time>
      </trkpt>
      <trkpt lat="44.90385" lon="3.79168">
        <ele>1239</ele>
        <time>2009-07-12T06:39:16Z</time>
      </trkpt>
      <trkpt lat="44.90392" lon="3.79181">
        <ele>1237</ele>
        <time>2009-07-12T06:39:19Z</time>
      </trkpt>
      <trkpt lat="44.90399" lon="3.79208">
        <ele>1236</ele>
        <time>2009-07-12T06:39:23Z</time>
      </trkpt>
      <trkpt lat="44.90402" lon="3.79222">
        <ele>1235</ele>
        <time>2009-07-12T06:39:25Z</time>
      </trkpt>
      <trkpt lat="44.90417" lon="3.79268">
        <ele>1233</ele>
        <time>2009-07-12T06:39:31Z</time>
      </trkpt>
      <trkpt lat="44.90419" lon="3.79276">
        <ele>1233</ele>
        <time>2009-07-12T06:39:32Z</time>
      </trkpt>
      <trkpt lat="44.90459" lon="3.79363">
        <ele>1233</ele>
        <time>2009-07-12T06:39:47Z</time>
      </trkpt>
      <trkpt lat="44.90461" lon="3.79367">
        <ele>1233</ele>
        <time>2009-07-12T06:39:48Z</time>
      </trkpt>
      <trkpt lat="44.90477" lon="3.79364">
        <ele>1232</ele>
        <time>2009-07-12T06:39:52Z</time>
      </trkpt>
      <trkpt lat="44.905" lon="3.79354">
        <ele>1230</ele>
        <time>2009-07-12T06:39:57Z</time>
      </trkpt>
      <trkpt lat="44.90526" lon="3.79358">
        <ele>1225</ele>
        <time>2009-07-12T06:40:02Z</time>
      </trkpt>
      <trkpt lat="44.90537" lon="3.79344">
        <ele>1225</ele>
        <time>2009-07-12T06:40:05Z</time>
      </trkpt>
      <trkpt lat="44.90543" lon="3.79327">
        <ele>1224</ele>
        <time>2009-07-12T06:40:07Z</time>
      </trkpt>
      <trkpt lat="44.90554" lon="3.79295">
        <ele>1223</ele>
        <time>2009-07-12T06:40:11Z</time>
      </trkpt>
      <trkpt lat="44.90561" lon="3.79273">
        <ele>1222</ele>
        <time>2009-07-12T06:40:14Z</time>
      </trkpt>
      <trkpt lat="44.90563" lon="3.79266">
        <ele>1221</ele>
        <time>2009-07-12T06:40:15Z</time>
      </trkpt>
      <trkpt lat="44.90572" lon="3.79239">
        <ele>1218</ele>
        <time>2009-07-12T06:40:18Z</time>
      </trkpt>
      <trkpt lat="44.90588" lon="3.79213">
        <ele>1216</ele>
        <time>2009-07-12T06:40:22Z</time>
      </trkpt>
      <trkpt lat="44.9061" lon="3.79219">
        <ele>1213</ele>
        <time>2009-07-12T06:40:26Z</time>
      </trkpt>
      <trkpt lat="44.90616" lon="3.79229">
        <ele>1213</ele>
        <time>2009-07-12T06:40:28Z</time>
      </trkpt>
      <trkpt lat="44.90632" lon="3.79281">
        <ele>1213</ele>
        <time>2009-07-12T06:40:40Z</time>
      </trkpt>
      <trkpt lat="44.90644" lon="3.79325">
        <ele>1211</ele>
        <time>2009-07-12T06:40:49Z</time>
      </trkpt>
      <trkpt lat="44.90663" lon="3.79381">
        <ele>1212</ele>
        <time>2009-07-12T06:41:00Z</time>
      </trkpt>
      <trkpt lat="44.90671" lon="3.79396">
        <ele>1212</ele>
        <time>2009-07-12T06:41:03Z</time>
      </trkpt>
      <trkpt lat="44.9069" lon="3.79431">
        <ele>1212</ele>
        <time>2009-07-12T06:41:10Z</time>
      </trkpt>
      <trkpt lat="44.907" lon="3.79443">
        <ele>1213</ele>
        <time>2009-07-12T06:41:13Z</time>
      </trkpt>
      <trkpt lat="44.90708" lon="3.7945">
        <ele>1212</ele>
        <time>2009-07-12T06:41:15Z</time>
      </trkpt>
      <trkpt lat="44.90741" lon="3.79469">
        <ele>1212</ele>
        <time>2009-07-12T06:41:22Z</time>
      </trkpt>
      <trkpt lat="44.90799" lon="3.79497">
        <ele>1211</ele>
        <time>2009-07-12T06:41:32Z</time>
      </trkpt>
      <trkpt lat="44.90884" lon="3.79522">
        <ele>1212</ele>
        <time>2009-07-12T06:41:45Z</time>
      </trkpt>
      <trkpt lat="44.90913" lon="3.79533">
        <ele>1212</ele>
        <time>2009-07-12T06:41:50Z</time>
      </trkpt>
      <trkpt lat="44.90936" lon="3.79536">
        <ele>1211</ele>
        <time>2009-07-12T06:41:54Z</time>
      </trkpt>
      <trkpt lat="44.90988" lon="3.79526">
        <ele>1210</ele>
        <time>2009-07-12T06:42:03Z</time>
      </trkpt>
      <trkpt lat="44.91001" lon="3.79522">
        <ele>1212</ele>
        <time>2009-07-12T06:42:06Z</time>
      </trkpt>
      <trkpt lat="44.91016" lon="3.79516">
        <ele>1212</ele>
        <time>2009-07-12T06:42:18Z</time>
      </trkpt>
      <trkpt lat="44.91013" lon="3.79508">
        <ele>1212</ele>
        <time>2009-07-12T06:42:41Z</time>
      </trkpt>
      <trkpt lat="44.91023" lon="3.79505">
        <ele>1212</ele>
        <time>2009-07-12T06:42:47Z</time>
      </trkpt>
      <trkpt lat="44.91059" lon="3.79497">
        <ele>1212</ele>
        <time>2009-07-12T06:42:58Z</time>
      </trkpt>
      <trkpt lat="44.91097" lon="3.79477">
        <ele>1212</ele>
        <time>2009-07-12T06:43:08Z</time>
      </trkpt>
      <trkpt lat="44.91114" lon="3.79464">
        <ele>1212</ele>
        <time>2009-07-12T06:43:12Z</time>
      </trkpt>
      <trkpt lat="44.91135" lon="3.79445">
        <ele>1211</ele>
        <time>2009-07-12T06:43:17Z</time>
      </trkpt>
      <trkpt lat="44.91146" lon="3.79436">
        <ele>1212</ele>
        <time>2009-07-12T06:43:20Z</time>
      </trkpt>
      <trkpt lat="44.91171" lon="3.79401">
        <ele>1211</ele>
        <time>2009-07-12T06:43:28Z</time>
      </trkpt>
      <trkpt lat="44.91197" lon="3.79339">
        <ele>1213</ele>
        <time>2009-07-12T06:43:42Z</time>
      </trkpt>
      <trkpt lat="44.91208" lon="3.79315">
        <ele>1214</ele>
        <time>2009-07-12T06:43:53Z</time>
      </trkpt>
      <trkpt lat="44.91203" lon="3.79271">
        <ele>1212</ele>
        <time>2009-07-12T06:44:04Z</time>
      </trkpt>
      <trkpt lat="44.91199" lon="3.79262">
        <ele>1213</ele>
        <time>2009-07-12T06:44:15Z</time>
      </trkpt>
      <trkpt lat="44.91197" lon="3.79261">
        <ele>1212</ele>
        <time>2009-07-12T06:44:41Z</time>
      </trkpt>
      <trkpt lat="44.91198" lon="3.79264">
        <ele>1212</ele>
        <time>2009-07-12T06:44:50Z</time>
      </trkpt>
      <trkpt lat="44.91205" lon="3.79298">
        <ele>1214</ele>
        <time>2009-07-12T06:45:02Z</time>
      </trkpt>
      <trkpt lat="44.91201" lon="3.79325">
        <ele>1214</ele>
        <time>2009-07-12T06:45:10Z</time>
      </trkpt>
      <trkpt lat="44.91205" lon="3.79325">
        <ele>1213</ele>
        <time>2009-07-12T06:45:14Z</time>
      </trkpt>
      <trkpt lat="44.91213" lon="3.79312">
        <ele>1217</ele>
        <time>2009-07-12T06:45:20Z</time>
      </trkpt>
      <trkpt lat="44.91214" lon="3.7931">
        <ele>1217</ele>
        <time>2009-07-12T06:45:21Z</time>
      </trkpt>
      <trkpt lat="44.91223" lon="3.79268">
        <ele>1218</ele>
        <time>2009-07-12T06:45:35Z</time>
      </trkpt>
      <trkpt lat="44.91237" lon="3.79218">
        <ele>1220</ele>
        <time>2009-07-12T06:45:51Z</time>
      </trkpt>
      <trkpt lat="44.91257" lon="3.79169">
        <ele>1223</ele>
        <time>2009-07-12T06:46:07Z</time>
      </trkpt>
      <trkpt lat="44.91273" lon="3.79127">
        <ele>1224</ele>
        <time>2009-07-12T06:46:21Z</time>
      </trkpt>
      <trkpt lat="44.91291" lon="3.7908">
        <ele>1227</ele>
        <time>2009-07-12T06:46:38Z</time>
      </trkpt>
      <trkpt lat="44.91302" lon="3.79052">
        <ele>1230</ele>
        <time>2009-07-12T06:46:49Z</time>
      </trkpt>
      <trkpt lat="44.91316" lon="3.79028">
        <ele>1233</ele>
        <time>2009-07-12T06:47:02Z</time>
      </trkpt>
      <trkpt lat="44.91332" lon="3.7901">
        <ele>1236</ele>
        <time>2009-07-12T06:47:15Z</time>
      </trkpt>
      <trkpt lat="44.91348" lon="3.78995">
        <ele>1239</ele>
        <time>2009-07-12T06:47:28Z</time>
      </trkpt>
      <trkpt lat="44.91371" lon="3.7898">
        <ele>1240</ele>
        <time>2009-07-12T06:47:44Z</time>
      </trkpt>
      <trkpt lat="44.91372" lon="3.78977">
        <ele>1240</ele>
        <time>2009-07-12T06:47:46Z</time>
      </trkpt>
      <trkpt lat="44.91373" lon="3.78969">
        <ele>1241</ele>
        <time>2009-07-12T06:47:50Z</time>
      </trkpt>
      <trkpt lat="44.91376" lon="3.78958">
        <ele>1241</ele>
        <time>2009-07-12T06:47:57Z</time>
      </trkpt>
      <trkpt lat="44.91392" lon="3.7896">
        <ele>1241</ele>
        <time>2009-07-12T06:48:09Z</time>
      </trkpt>
      <trkpt lat="44.91398" lon="3.78954">
        <ele>1241</ele>
        <time>2009-07-12T06:48:16Z</time>
      </trkpt>
      <trkpt lat="44.91405" lon="3.78932">
        <ele>1241</ele>
        <time>2009-07-12T06:48:29Z</time>
      </trkpt>
      <trkpt lat="44.91418" lon="3.78911">
        <ele>1240</ele>
        <time>2009-07-12T06:48:57Z</time>
      </trkpt>
      <trkpt lat="44.91437" lon="3.78856">
        <ele>1238</ele>
        <time>2009-07-12T06:49:09Z</time>
      </trkpt>
      <trkpt lat="44.91451" lon="3.78795">
        <ele>1237</ele>
        <time>2009-07-12T06:49:21Z</time>
      </trkpt>
      <trkpt lat="44.91468" lon="3.78721">
        <ele>1237</ele>
        <time>2009-07-12T06:49:35Z</time>
      </trkpt>
      <trkpt lat="44.91485" lon="3.78677">
        <ele>1237</ele>
        <time>2009-07-12T06:49:44Z</time>
      </trkpt>
      <trkpt lat="44.91515" lon="3.78598">
        <ele>1235</ele>
        <time>2009-07-12T06:50:00Z</time>
      </trkpt>
      <trkpt lat="44.91532" lon="3.78559">
        <ele>1235</ele>
        <time>2009-07-12T06:50:08Z</time>
      </trkpt>
      <trkpt lat="44.91554" lon="3.7848">
        <ele>1233</ele>
        <time>2009-07-12T06:50:22Z</time>
      </trkpt>
      <trkpt lat="44.91565" lon="3.7844">
        <ele>1233</ele>
        <time>2009-07-12T06:50:30Z</time>
      </trkpt>
      <trkpt lat="44.91579" lon="3.78378">
        <ele>1234</ele>
        <time>2009-07-12T06:50:42Z</time>
      </trkpt>
      <trkpt lat="44.91593" lon="3.78337">
        <ele>1235</ele>
        <time>2009-07-12T06:50:51Z</time>
      </trkpt>
      <trkpt lat="44.91605" lon="3.7828">
        <ele>1238</ele>
        <time>2009-07-12T06:51:04Z</time>
      </trkpt>
      <trkpt lat="44.91619" lon="3.78225">
        <ele>1239</ele>
        <time>2009-07-12T06:51:17Z</time>
      </trkpt>
      <trkpt lat="44.91635" lon="3.78169">
        <ele>1241</ele>
        <time>2009-07-12T06:51:31Z</time>
      </trkpt>
      <trkpt lat="44.91651" lon="3.78109">
        <ele>1240</ele>
        <time>2009-07-12T06:51:45Z</time>
      </trkpt>
      <trkpt lat="44.91654" lon="3.78094">
        <ele>1241</ele>
        <time>2009-07-12T06:51:48Z</time>
      </trkpt>
      <trkpt lat="44.9166" lon="3.78052">
        <ele>1240</ele>
        <time>2009-07-12T06:51:55Z</time>
      </trkpt>
      <trkpt lat="44.91664" lon="3.77981">
        <ele>1240</ele>
        <time>2009-07-12T06:52:08Z</time>
      </trkpt>
      <trkpt lat="44.91663" lon="3.77906">
        <ele>1241</ele>
        <time>2009-07-12T06:52:21Z</time>
      </trkpt>
      <trkpt lat="44.91665" lon="3.77846">
        <ele>1241</ele>
        <time>2009-07-12T06:52:32Z</time>
      </trkpt>
      <trkpt lat="44.91667" lon="3.77775">
        <ele>1240</ele>
        <time>2009-07-12T06:52:44Z</time>
      </trkpt>
      <trkpt lat="44.91672" lon="3.77696">
        <ele>1239</ele>
        <time>2009-07-12T06:52:59Z</time>
      </trkpt>
      <trkpt lat="44.91675" lon="3.77671">
        <ele>1239</ele>
        <time>2009-07-12T06:53:04Z</time>
      </trkpt>
      <trkpt lat="44.91698" lon="3.77615">
        <ele>1237</ele>
        <time>2009-07-12T06:53:15Z</time>
      </trkpt>
      <trkpt lat="44.91703" lon="3.77572">
        <ele>1238</ele>
        <time>2009-07-12T06:53:23Z</time>
      </trkpt>
      <trkpt lat="44.91712" lon="3.77544">
        <ele>1238</ele>
        <time>2009-07-12T06:53:28Z</time>
      </trkpt>
      <trkpt lat="44.9172" lon="3.7752">
        <ele>1238</ele>
        <time>2009-07-12T06:53:33Z</time>
      </trkpt>
      <trkpt lat="44.91738" lon="3.77474">
        <ele>1238</ele>
        <time>2009-07-12T06:53:44Z</time>
      </trkpt>
      <trkpt lat="44.9175" lon="3.77418">
        <ele>1240</ele>
        <time>2009-07-12T06:53:57Z</time>
      </trkpt>
      <trkpt lat="44.91773" lon="3.77385">
        <ele>1241</ele>
        <time>2009-07-12T06:54:08Z</time>
      </trkpt>
      <trkpt lat="44.918" lon="3.77356">
        <ele>1243</ele>
        <time>2009-07-12T06:54:20Z</time>
      </trkpt>
      <trkpt lat="44.91805" lon="3.77321">
        <ele>1244</ele>
        <time>2009-07-12T06:54:30Z</time>
      </trkpt>
      <trkpt lat="44.91805" lon="3.77316">
        <ele>1244</ele>
        <time>2009-07-12T06:54:32Z</time>
      </trkpt>
      <trkpt lat="44.91807" lon="3.77309">
        <ele>1245</ele>
        <time>2009-07-12T06:54:36Z</time>
      </trkpt>
      <trkpt lat="44.91806" lon="3.77303">
        <ele>1245</ele>
        <time>2009-07-12T06:54:50Z</time>
      </trkpt>
      <trkpt lat="44.91806" lon="3.77303">
        <ele>1245</ele>
        <time>2009-07-12T06:55:45Z</time>
      </trkpt>
      <trkpt lat="44.91805" lon="3.77303">
        <ele>1243</ele>
        <time>2009-07-12T06:56:27Z</time>
      </trkpt>
      <trkpt lat="44.91799" lon="3.77287">
        <ele>1243</ele>
        <time>2009-07-12T06:56:34Z</time>
      </trkpt>
      <trkpt lat="44.91799" lon="3.7723">
        <ele>1246</ele>
        <time>2009-07-12T06:56:50Z</time>
      </trkpt>
      <trkpt lat="44.91798" lon="3.77179">
        <ele>1249</ele>
        <time>2009-07-12T06:57:06Z</time>
      </trkpt>
      <trkpt lat="44.918" lon="3.77147">
        <ele>1252</ele>
        <time>2009-07-12T06:57:17Z</time>
      </trkpt>
      <trkpt lat="44.91799" lon="3.77104">
        <ele>1254</ele>
        <time>2009-07-12T06:57:33Z</time>
      </trkpt>
      <trkpt lat="44.91802" lon="3.77065">
        <ele>1258</ele>
        <time>2009-07-12T06:57:48Z</time>
      </trkpt>
      <trkpt lat="44.91802" lon="3.77057">
        <ele>1259</ele>
        <time>2009-07-12T06:57:51Z</time>
      </trkpt>
      <trkpt lat="44.91803" lon="3.77042">
        <ele>1261</ele>
        <time>2009-07-12T06:57:57Z</time>
      </trkpt>
      <trkpt lat="44.91809" lon="3.77001">
        <ele>1261</ele>
        <time>2009-07-12T06:58:13Z</time>
      </trkpt>
      <trkpt lat="44.91813" lon="3.76955">
        <ele>1263</ele>
        <time>2009-07-12T06:58:31Z</time>
      </trkpt>
      <trkpt lat="44.91812" lon="3.76953">
        <ele>1264</ele>
        <time>2009-07-12T06:58:32Z</time>
      </trkpt>
      <trkpt lat="44.91799" lon="3.76932">
        <ele>1267</ele>
        <time>2009-07-12T06:58:46Z</time>
      </trkpt>
      <trkpt lat="44.918" lon="3.7693">
        <ele>1267</ele>
        <time>2009-07-12T06:58:47Z</time>
      </trkpt>
      <trkpt lat="44.91803" lon="3.7691">
        <ele>1267</ele>
        <time>2009-07-12T06:58:56Z</time>
      </trkpt>
      <trkpt lat="44.91797" lon="3.76886">
        <ele>1267</ele>
        <time>2009-07-12T06:59:11Z</time>
      </trkpt>
      <trkpt lat="44.91793" lon="3.76876">
        <ele>1267</ele>
        <time>2009-07-12T06:59:16Z</time>
      </trkpt>
      <trkpt lat="44.91781" lon="3.7684">
        <ele>1269</ele>
        <time>2009-07-12T06:59:33Z</time>
      </trkpt>
      <trkpt lat="44.91777" lon="3.76827">
        <ele>1269</ele>
        <time>2009-07-12T06:59:50Z</time>
      </trkpt>
      <trkpt lat="44.9177" lon="3.76803">
        <ele>1266</ele>
        <time>2009-07-12T07:00:11Z</time>
      </trkpt>
      <trkpt lat="44.91762" lon="3.76738">
        <ele>1266</ele>
        <time>2009-07-12T07:00:26Z</time>
      </trkpt>
      <trkpt lat="44.91759" lon="3.76708">
        <ele>1264</ele>
        <time>2009-07-12T07:00:31Z</time>
      </trkpt>
      <trkpt lat="44.9176" lon="3.76693">
        <ele>1263</ele>
        <time>2009-07-12T07:00:33Z</time>
      </trkpt>
      <trkpt lat="44.91759" lon="3.76676">
        <ele>1261</ele>
        <time>2009-07-12T07:00:35Z</time>
      </trkpt>
      <trkpt lat="44.91757" lon="3.76631">
        <ele>1258</ele>
        <time>2009-07-12T07:00:40Z</time>
      </trkpt>
      <trkpt lat="44.91756" lon="3.76612">
        <ele>1257</ele>
        <time>2009-07-12T07:00:42Z</time>
      </trkpt>
      <trkpt lat="44.91756" lon="3.76541">
        <ele>1256</ele>
        <time>2009-07-12T07:00:49Z</time>
      </trkpt>
      <trkpt lat="44.91767" lon="3.76499">
        <ele>1256</ele>
        <time>2009-07-12T07:00:55Z</time>
      </trkpt>
      <trkpt lat="44.91775" lon="3.76494">
        <ele>1256</ele>
        <time>2009-07-12T07:01:07Z</time>
      </trkpt>
      <trkpt lat="44.91775" lon="3.76497">
        <ele>1257</ele>
        <time>2009-07-12T07:01:40Z</time>
      </trkpt>
      <trkpt lat="44.91777" lon="3.76498">
        <ele>1258</ele>
        <time>2009-07-12T07:03:01Z</time>
      </trkpt>
      <trkpt lat="44.91777" lon="3.76498">
        <ele>1258</ele>
        <time>2009-07-12T07:03:07Z</time>
      </trkpt>
      <trkpt lat="44.91806" lon="3.76497">
        <ele>1258</ele>
        <time>2009-07-12T07:03:19Z</time>
      </trkpt>
      <trkpt lat="44.91878" lon="3.76473">
        <ele>1260</ele>
        <time>2009-07-12T07:03:41Z</time>
      </trkpt>
      <trkpt lat="44.91933" lon="3.76448">
        <ele>1262</ele>
        <time>2009-07-12T07:03:58Z</time>
      </trkpt>
      <trkpt lat="44.91963" lon="3.76437">
        <ele>1262</ele>
        <time>2009-07-12T07:04:10Z</time>
      </trkpt>
      <trkpt lat="44.92015" lon="3.76417">
        <ele>1263</ele>
        <time>2009-07-12T07:04:28Z</time>
      </trkpt>
      <trkpt lat="44.92048" lon="3.76406">
        <ele>1266</ele>
        <time>2009-07-12T07:04:39Z</time>
      </trkpt>
      <trkpt lat="44.92087" lon="3.76394">
        <ele>1268</ele>
        <time>2009-07-12T07:04:52Z</time>
      </trkpt>
      <trkpt lat="44.9215" lon="3.76379">
        <ele>1269</ele>
        <time>2009-07-12T07:05:13Z</time>
      </trkpt>
      <trkpt lat="44.92192" lon="3.76367">
        <ele>1270</ele>
        <time>2009-07-12T07:05:27Z</time>
      </trkpt>
      <trkpt lat="44.9225" lon="3.76347">
        <ele>1273</ele>
        <time>2009-07-12T07:05:47Z</time>
      </trkpt>
      <trkpt lat="44.92272" lon="3.7634">
        <ele>1274</ele>
        <time>2009-07-12T07:05:58Z</time>
      </trkpt>
      <trkpt lat="44.92331" lon="3.76322">
        <ele>1277</ele>
        <time>2009-07-12T07:06:20Z</time>
      </trkpt>
      <trkpt lat="44.92354" lon="3.76316">
        <ele>1281</ele>
        <time>2009-07-12T07:06:29Z</time>
      </trkpt>
      <trkpt lat="44.92357" lon="3.76315">
        <ele>1280</ele>
        <time>2009-07-12T07:06:30Z</time>
      </trkpt>
      <trkpt lat="44.92399" lon="3.763">
        <ele>1284</ele>
        <time>2009-07-12T07:06:47Z</time>
      </trkpt>
      <trkpt lat="44.9244" lon="3.76282">
        <ele>1287</ele>
        <time>2009-07-12T07:07:04Z</time>
      </trkpt>
      <trkpt lat="44.92476" lon="3.76269">
        <ele>1290</ele>
        <time>2009-07-12T07:07:19Z</time>
      </trkpt>
      <trkpt lat="44.92527" lon="3.76243">
        <ele>1292</ele>
        <time>2009-07-12T07:07:40Z</time>
      </trkpt>
      <trkpt lat="44.92574" lon="3.76216">
        <ele>1295</ele>
        <time>2009-07-12T07:07:58Z</time>
      </trkpt>
      <trkpt lat="44.92634" lon="3.76181">
        <ele>1297</ele>
        <time>2009-07-12T07:08:20Z</time>
      </trkpt>
      <trkpt lat="44.92691" lon="3.7616">
        <ele>1298</ele>
        <time>2009-07-12T07:08:40Z</time>
      </trkpt>
      <trkpt lat="44.9276" lon="3.76135">
        <ele>1300</ele>
        <time>2009-07-12T07:09:04Z</time>
      </trkpt>
      <trkpt lat="44.92828" lon="3.76113">
        <ele>1301</ele>
        <time>2009-07-12T07:09:25Z</time>
      </trkpt>
      <trkpt lat="44.92876" lon="3.76096">
        <ele>1300</ele>
        <time>2009-07-12T07:09:40Z</time>
      </trkpt>
      <trkpt lat="44.92916" lon="3.76082">
        <ele>1300</ele>
        <time>2009-07-12T07:09:53Z</time>
      </trkpt>
      <trkpt lat="44.92977" lon="3.76061">
        <ele>1299</ele>
        <time>2009-07-12T07:10:11Z</time>
      </trkpt>
      <trkpt lat="44.93039" lon="3.7604">
        <ele>1299</ele>
        <time>2009-07-12T07:10:27Z</time>
      </trkpt>
      <trkpt lat="44.93123" lon="3.76011">
        <ele>1299</ele>
        <time>2009-07-12T07:10:46Z</time>
      </trkpt>
      <trkpt lat="44.93168" lon="3.75995">
        <ele>1298</ele>
        <time>2009-07-12T07:10:56Z</time>
      </trkpt>
      <trkpt lat="44.93231" lon="3.75974">
        <ele>1297</ele>
        <time>2009-07-12T07:11:10Z</time>
      </trkpt>
      <trkpt lat="44.93315" lon="3.75946">
        <ele>1294</ele>
        <time>2009-07-12T07:11:27Z</time>
      </trkpt>
      <trkpt lat="44.93374" lon="3.75929">
        <ele>1293</ele>
        <time>2009-07-12T07:11:42Z</time>
      </trkpt>
      <trkpt lat="44.9341" lon="3.75918">
        <ele>1293</ele>
        <time>2009-07-12T07:11:54Z</time>
      </trkpt>
      <trkpt lat="44.93459" lon="3.759">
        <ele>1294</ele>
        <time>2009-07-12T07:12:09Z</time>
      </trkpt>
      <trkpt lat="44.93474" lon="3.75895">
        <ele>1294</ele>
        <time>2009-07-12T07:12:13Z</time>
      </trkpt>
      <trkpt lat="44.93536" lon="3.75871">
        <ele>1295</ele>
        <time>2009-07-12T07:12:30Z</time>
      </trkpt>
      <trkpt lat="44.93607" lon="3.75846">
        <ele>1295</ele>
        <time>2009-07-12T07:12:49Z</time>
      </trkpt>
      <trkpt lat="44.93682" lon="3.75822">
        <ele>1295</ele>
        <time>2009-07-12T07:13:07Z</time>
      </trkpt>
      <trkpt lat="44.93759" lon="3.75794">
        <ele>1296</ele>
        <time>2009-07-12T07:13:25Z</time>
      </trkpt>
      <trkpt lat="44.93805" lon="3.75775">
        <ele>1296</ele>
        <time>2009-07-12T07:13:36Z</time>
      </trkpt>
      <trkpt lat="44.93823" lon="3.7577">
        <ele>1295</ele>
        <time>2009-07-12T07:13:40Z</time>
      </trkpt>
      <trkpt lat="44.93842" lon="3.75762">
        <ele>1294</ele>
        <time>2009-07-12T07:13:44Z</time>
      </trkpt>
      <trkpt lat="44.93901" lon="3.75747">
        <ele>1290</ele>
        <time>2009-07-12T07:13:55Z</time>
      </trkpt>
      <trkpt lat="44.93928" lon="3.75741">
        <ele>1290</ele>
        <time>2009-07-12T07:14:00Z</time>
      </trkpt>
      <trkpt lat="44.93938" lon="3.75737">
        <ele>1289</ele>
        <time>2009-07-12T07:14:02Z</time>
      </trkpt>
      <trkpt lat="44.94023" lon="3.75705">
        <ele>1286</ele>
        <time>2009-07-12T07:14:17Z</time>
      </trkpt>
      <trkpt lat="44.94133" lon="3.75671">
        <ele>1284</ele>
        <time>2009-07-12T07:14:35Z</time>
      </trkpt>
      <trkpt lat="44.94139" lon="3.75669">
        <ele>1283</ele>
        <time>2009-07-12T07:14:36Z</time>
      </trkpt>
      <trkpt lat="44.94183" lon="3.75652">
        <ele>1283</ele>
        <time>2009-07-12T07:14:43Z</time>
      </trkpt>
      <trkpt lat="44.94281" lon="3.75622">
        <ele>1282</ele>
        <time>2009-07-12T07:14:59Z</time>
      </trkpt>
      <trkpt lat="44.94387" lon="3.75584">
        <ele>1282</ele>
        <time>2009-07-12T07:15:18Z</time>
      </trkpt>
      <trkpt lat="44.94471" lon="3.75555">
        <ele>1279</ele>
        <time>2009-07-12T07:15:33Z</time>
      </trkpt>
      <trkpt lat="44.94477" lon="3.75553">
        <ele>1279</ele>
        <time>2009-07-12T07:15:34Z</time>
      </trkpt>
      <trkpt lat="44.94552" lon="3.75529">
        <ele>1277</ele>
        <time>2009-07-12T07:15:47Z</time>
      </trkpt>
      <trkpt lat="44.9461" lon="3.7551">
        <ele>1275</ele>
        <time>2009-07-12T07:15:57Z</time>
      </trkpt>
      <trkpt lat="44.94679" lon="3.75485">
        <ele>1273</ele>
        <time>2009-07-12T07:16:08Z</time>
      </trkpt>
      <trkpt lat="44.94776" lon="3.75451">
        <ele>1272</ele>
        <time>2009-07-12T07:16:24Z</time>
      </trkpt>
      <trkpt lat="44.94796" lon="3.75443">
        <ele>1270</ele>
        <time>2009-07-12T07:16:27Z</time>
      </trkpt>
      <trkpt lat="44.94951" lon="3.75395">
        <ele>1267</ele>
        <time>2009-07-12T07:16:51Z</time>
      </trkpt>
      <trkpt lat="44.94982" lon="3.75383">
        <ele>1267</ele>
        <time>2009-07-12T07:16:56Z</time>
      </trkpt>
      <trkpt lat="44.95059" lon="3.75355">
        <ele>1269</ele>
        <time>2009-07-12T07:17:10Z</time>
      </trkpt>
      <trkpt lat="44.95101" lon="3.7534">
        <ele>1270</ele>
        <time>2009-07-12T07:17:19Z</time>
      </trkpt>
      <trkpt lat="44.95109" lon="3.75337">
        <ele>1269</ele>
        <time>2009-07-12T07:17:21Z</time>
      </trkpt>
      <trkpt lat="44.95127" lon="3.75332">
        <ele>1270</ele>
        <time>2009-07-12T07:17:25Z</time>
      </trkpt>
      <trkpt lat="44.95191" lon="3.75311">
        <ele>1270</ele>
        <time>2009-07-12T07:17:41Z</time>
      </trkpt>
      <trkpt lat="44.95262" lon="3.75286">
        <ele>1270</ele>
        <time>2009-07-12T07:17:58Z</time>
      </trkpt>
      <trkpt lat="44.95364" lon="3.75251">
        <ele>1271</ele>
        <time>2009-07-12T07:18:18Z</time>
      </trkpt>
      <trkpt lat="44.95437" lon="3.75227">
        <ele>1273</ele>
        <time>2009-07-12T07:18:33Z</time>
      </trkpt>
      <trkpt lat="44.95461" lon="3.75216">
        <ele>1273</ele>
        <time>2009-07-12T07:18:38Z</time>
      </trkpt>
      <trkpt lat="44.95482" lon="3.75211">
        <ele>1273</ele>
        <time>2009-07-12T07:18:42Z</time>
      </trkpt>
      <trkpt lat="44.95571" lon="3.75175">
        <ele>1274</ele>
        <time>2009-07-12T07:19:00Z</time>
      </trkpt>
      <trkpt lat="44.95597" lon="3.75164">
        <ele>1274</ele>
        <time>2009-07-12T07:19:05Z</time>
      </trkpt>
      <trkpt lat="44.95611" lon="3.75156">
        <ele>1274</ele>
        <time>2009-07-12T07:19:08Z</time>
      </trkpt>
      <trkpt lat="44.95678" lon="3.75138">
        <ele>1275</ele>
        <time>2009-07-12T07:19:24Z</time>
      </trkpt>
      <trkpt lat="44.95719" lon="3.75129">
        <ele>1275</ele>
        <time>2009-07-12T07:19:35Z</time>
      </trkpt>
      <trkpt lat="44.95731" lon="3.75128">
        <ele>1274</ele>
        <time>2009-07-12T07:19:38Z</time>
      </trkpt>
      <trkpt lat="44.95772" lon="3.75119">
        <ele>1275</ele>
        <time>2009-07-12T07:19:47Z</time>
      </trkpt>
      <trkpt lat="44.95781" lon="3.75118">
        <ele>1274</ele>
        <time>2009-07-12T07:19:49Z</time>
      </trkpt>
      <trkpt lat="44.95805" lon="3.75115">
        <ele>1275</ele>
        <time>2009-07-12T07:19:54Z</time>
      </trkpt>
      <trkpt lat="44.95859" lon="3.75104">
        <ele>1275</ele>
        <time>2009-07-12T07:20:06Z</time>
      </trkpt>
      <trkpt lat="44.95904" lon="3.7508">
        <ele>1274</ele>
        <time>2009-07-12T07:20:16Z</time>
      </trkpt>
      <trkpt lat="44.95952" lon="3.75047">
        <ele>1273</ele>
        <time>2009-07-12T07:20:26Z</time>
      </trkpt>
      <trkpt lat="44.95973" lon="3.75036">
        <ele>1273</ele>
        <time>2009-07-12T07:20:30Z</time>
      </trkpt>
      <trkpt lat="44.95992" lon="3.75024">
        <ele>1270</ele>
        <time>2009-07-12T07:20:34Z</time>
      </trkpt>
      <trkpt lat="44.96028" lon="3.74995">
        <ele>1269</ele>
        <time>2009-07-12T07:20:43Z</time>
      </trkpt>
      <trkpt lat="44.96031" lon="3.74985">
        <ele>1269</ele>
        <time>2009-07-12T07:20:52Z</time>
      </trkpt>
      <trkpt lat="44.96034" lon="3.74979">
        <ele>1269</ele>
        <time>2009-07-12T07:21:04Z</time>
      </trkpt>
      <trkpt lat="44.96039" lon="3.74973">
        <ele>1269</ele>
        <time>2009-07-12T07:21:14Z</time>
      </trkpt>
      <trkpt lat="44.96036" lon="3.74968">
        <ele>1268</ele>
        <time>2009-07-12T07:21:38Z</time>
      </trkpt>
      <trkpt lat="44.96034" lon="3.74966">
        <ele>1269</ele>
        <time>2009-07-12T07:21:50Z</time>
      </trkpt>
      <trkpt lat="44.96036" lon="3.74973">
        <ele>1270</ele>
        <time>2009-07-12T07:22:22Z</time>
      </trkpt>
      <trkpt lat="44.96036" lon="3.74974">
        <ele>1270</ele>
        <time>2009-07-12T07:22:56Z</time>
      </trkpt>
      <trkpt lat="44.96047" lon="3.74969">
        <ele>1271</ele>
        <time>2009-07-12T07:24:47Z</time>
      </trkpt>
      <trkpt lat="44.96081" lon="3.7494">
        <ele>1270</ele>
        <time>2009-07-12T07:24:59Z</time>
      </trkpt>
      <trkpt lat="44.96095" lon="3.74934">
        <ele>1270</ele>
        <time>2009-07-12T07:25:08Z</time>
      </trkpt>
      <trkpt lat="44.96116" lon="3.74918">
        <ele>1270</ele>
        <time>2009-07-12T07:25:18Z</time>
      </trkpt>
      <trkpt lat="44.9614" lon="3.74898">
        <ele>1268</ele>
        <time>2009-07-12T07:25:25Z</time>
      </trkpt>
      <trkpt lat="44.96165" lon="3.74872">
        <ele>1266</ele>
        <time>2009-07-12T07:25:32Z</time>
      </trkpt>
      <trkpt lat="44.96213" lon="3.74828">
        <ele>1263</ele>
        <time>2009-07-12T07:25:44Z</time>
      </trkpt>
      <trkpt lat="44.96217" lon="3.74824">
        <ele>1263</ele>
        <time>2009-07-12T07:25:45Z</time>
      </trkpt>
      <trkpt lat="44.96261" lon="3.74782">
        <ele>1259</ele>
        <time>2009-07-12T07:25:55Z</time>
      </trkpt>
      <trkpt lat="44.9631" lon="3.74732">
        <ele>1255</ele>
        <time>2009-07-12T07:26:04Z</time>
      </trkpt>
      <trkpt lat="44.96325" lon="3.74716">
        <ele>1255</ele>
        <time>2009-07-12T07:26:07Z</time>
      </trkpt>
      <trkpt lat="44.96342" lon="3.74697">
        <ele>1253</ele>
        <time>2009-07-12T07:26:10Z</time>
      </trkpt>
      <trkpt lat="44.96359" lon="3.74677">
        <ele>1251</ele>
        <time>2009-07-12T07:26:13Z</time>
      </trkpt>
      <trkpt lat="44.96377" lon="3.74657">
        <ele>1248</ele>
        <time>2009-07-12T07:26:16Z</time>
      </trkpt>
      <trkpt lat="44.96407" lon="3.74619">
        <ele>1243</ele>
        <time>2009-07-12T07:26:21Z</time>
      </trkpt>
      <trkpt lat="44.96413" lon="3.74612">
        <ele>1243</ele>
        <time>2009-07-12T07:26:22Z</time>
      </trkpt>
      <trkpt lat="44.96449" lon="3.74586">
        <ele>1242</ele>
        <time>2009-07-12T07:26:27Z</time>
      </trkpt>
      <trkpt lat="44.9648" lon="3.74551">
        <ele>1238</ele>
        <time>2009-07-12T07:26:31Z</time>
      </trkpt>
      <trkpt lat="44.96505" lon="3.74523">
        <ele>1235</ele>
        <time>2009-07-12T07:26:35Z</time>
      </trkpt>
      <trkpt lat="44.96532" lon="3.74499">
        <ele>1232</ele>
        <time>2009-07-12T07:26:39Z</time>
      </trkpt>
      <trkpt lat="44.96548" lon="3.74487">
        <ele>1230</ele>
        <time>2009-07-12T07:26:41Z</time>
      </trkpt>
      <trkpt lat="44.96564" lon="3.74473">
        <ele>1229</ele>
        <time>2009-07-12T07:26:43Z</time>
      </trkpt>
      <trkpt lat="44.96597" lon="3.74456">
        <ele>1226</ele>
        <time>2009-07-12T07:26:47Z</time>
      </trkpt>
      <trkpt lat="44.96614" lon="3.74447">
        <ele>1225</ele>
        <time>2009-07-12T07:26:49Z</time>
      </trkpt>
      <trkpt lat="44.96656" lon="3.74415">
        <ele>1221</ele>
        <time>2009-07-12T07:26:54Z</time>
      </trkpt>
      <trkpt lat="44.9669" lon="3.74388">
        <ele>1218</ele>
        <time>2009-07-12T07:26:58Z</time>
      </trkpt>
      <trkpt lat="44.96716" lon="3.74367">
        <ele>1217</ele>
        <time>2009-07-12T07:27:01Z</time>
      </trkpt>
      <trkpt lat="44.96766" lon="3.74323">
        <ele>1214</ele>
        <time>2009-07-12T07:27:07Z</time>
      </trkpt>
      <trkpt lat="44.96774" lon="3.74316">
        <ele>1213</ele>
        <time>2009-07-12T07:27:08Z</time>
      </trkpt>
      <trkpt lat="44.96844" lon="3.74256">
        <ele>1212</ele>
        <time>2009-07-12T07:27:17Z</time>
      </trkpt>
      <trkpt lat="44.96925" lon="3.74205">
        <ele>1210</ele>
        <time>2009-07-12T07:27:27Z</time>
      </trkpt>
      <trkpt lat="44.96997" lon="3.74156">
        <ele>1209</ele>
        <time>2009-07-12T07:27:37Z</time>
      </trkpt>
      <trkpt lat="44.97014" lon="3.74138">
        <ele>1209</ele>
        <time>2009-07-12T07:27:40Z</time>
      </trkpt>
      <trkpt lat="44.97095" lon="3.741">
        <ele>1208</ele>
        <time>2009-07-12T07:27:53Z</time>
      </trkpt>
      <trkpt lat="44.97157" lon="3.74075">
        <ele>1204</ele>
        <time>2009-07-12T07:28:02Z</time>
      </trkpt>
      <trkpt lat="44.97229" lon="3.74053">
        <ele>1200</ele>
        <time>2009-07-12T07:28:11Z</time>
      </trkpt>
      <trkpt lat="44.97254" lon="3.7405">
        <ele>1196</ele>
        <time>2009-07-12T07:28:14Z</time>
      </trkpt>
      <trkpt lat="44.97292" lon="3.74054">
        <ele>1193</ele>
        <time>2009-07-12T07:28:18Z</time>
      </trkpt>
      <trkpt lat="44.97323" lon="3.7406">
        <ele>1190</ele>
        <time>2009-07-12T07:28:21Z</time>
      </trkpt>
      <trkpt lat="44.97365" lon="3.74064">
        <ele>1185</ele>
        <time>2009-07-12T07:28:25Z</time>
      </trkpt>
      <trkpt lat="44.97397" lon="3.74063">
        <ele>1183</ele>
        <time>2009-07-12T07:28:28Z</time>
      </trkpt>
      <trkpt lat="44.97441" lon="3.74059">
        <ele>1179</ele>
        <time>2009-07-12T07:28:32Z</time>
      </trkpt>
      <trkpt lat="44.9751" lon="3.74057">
        <ele>1175</ele>
        <time>2009-07-12T07:28:38Z</time>
      </trkpt>
      <trkpt lat="44.97521" lon="3.74057">
        <ele>1175</ele>
        <time>2009-07-12T07:28:39Z</time>
      </trkpt>
      <trkpt lat="44.97539" lon="3.74056">
        <ele>1177</ele>
        <time>2009-07-12T07:28:41Z</time>
      </trkpt>
      <trkpt lat="44.9755" lon="3.74056">
        <ele>1178</ele>
        <time>2009-07-12T07:28:47Z</time>
      </trkpt>
      <trkpt lat="44.97547" lon="3.74057">
        <ele>1177</ele>
        <time>2009-07-12T07:29:13Z</time>
      </trkpt>
      <trkpt lat="44.97545" lon="3.74057">
        <ele>1178</ele>
        <time>2009-07-12T07:29:23Z</time>
      </trkpt>
      <trkpt lat="44.9754" lon="3.74057">
        <ele>1178</ele>
        <time>2009-07-12T07:29:27Z</time>
      </trkpt>
      <trkpt lat="44.9753" lon="3.74058">
        <ele>1177</ele>
        <time>2009-07-12T07:29:46Z</time>
      </trkpt>
      <trkpt lat="44.9753" lon="3.74057">
        <ele>1178</ele>
        <time>2009-07-12T07:29:54Z</time>
      </trkpt>
      <trkpt lat="44.9753" lon="3.74057">
        <ele>1177</ele>
        <time>2009-07-12T07:30:03Z</time>
      </trkpt>
      <trkpt lat="44.97514" lon="3.74058">
        <ele>1178</ele>
        <time>2009-07-12T07:30:16Z</time>
      </trkpt>
      <trkpt lat="44.97493" lon="3.74058">
        <ele>1179</ele>
        <time>2009-07-12T07:30:25Z</time>
      </trkpt>
      <trkpt lat="44.97445" lon="3.74061">
        <ele>1182</ele>
        <time>2009-07-12T07:30:42Z</time>
      </trkpt>
      <trkpt lat="44.97426" lon="3.74061">
        <ele>1184</ele>
        <time>2009-07-12T07:30:49Z</time>
      </trkpt>
      <trkpt lat="44.97396" lon="3.74064">
        <ele>1187</ele>
        <time>2009-07-12T07:31:01Z</time>
      </trkpt>
      <trkpt lat="44.9735" lon="3.74066">
        <ele>1188</ele>
        <time>2009-07-12T07:31:19Z</time>
      </trkpt>
      <trkpt lat="44.97325" lon="3.74064">
        <ele>1192</ele>
        <time>2009-07-12T07:31:29Z</time>
      </trkpt>
      <trkpt lat="44.9729" lon="3.74058">
        <ele>1195</ele>
        <time>2009-07-12T07:31:44Z</time>
      </trkpt>
      <trkpt lat="44.97258" lon="3.74057">
        <ele>1198</ele>
        <time>2009-07-12T07:31:59Z</time>
      </trkpt>
      <trkpt lat="44.97254" lon="3.74057">
        <ele>1199</ele>
        <time>2009-07-12T07:32:01Z</time>
      </trkpt>
      <trkpt lat="44.97247" lon="3.74055">
        <ele>1200</ele>
        <time>2009-07-12T07:32:05Z</time>
      </trkpt>
      <trkpt lat="44.97238" lon="3.74051">
        <ele>1201</ele>
        <time>2009-07-12T07:32:12Z</time>
      </trkpt>
      <trkpt lat="44.97245" lon="3.74042">
        <ele>1201</ele>
        <time>2009-07-12T07:32:27Z</time>
      </trkpt>
      <trkpt lat="44.97247" lon="3.74043">
        <ele>1202</ele>
        <time>2009-07-12T07:32:55Z</time>
      </trkpt>
      <trkpt lat="44.97249" lon="3.74046">
        <ele>1200</ele>
        <time>2009-07-12T07:33:36Z</time>
      </trkpt>
      <trkpt lat="44.9725" lon="3.74043">
        <ele>1200</ele>
        <time>2009-07-12T07:34:04Z</time>
      </trkpt>
      <trkpt lat="44.97253" lon="3.74042">
        <ele>1200</ele>
        <time>2009-07-12T07:34:21Z</time>
      </trkpt>
      <trkpt lat="44.97269" lon="3.74032">
        <ele>1198</ele>
        <time>2009-07-12T07:34:31Z</time>
      </trkpt>
      <trkpt lat="44.97274" lon="3.7403">
        <ele>1198</ele>
        <time>2009-07-12T07:34:32Z</time>
      </trkpt>
      <trkpt lat="44.9729" lon="3.74022">
        <ele>1196</ele>
        <time>2009-07-12T07:34:35Z</time>
      </trkpt>
      <trkpt lat="44.97301" lon="3.74014">
        <ele>1193</ele>
        <time>2009-07-12T07:34:37Z</time>
      </trkpt>
      <trkpt lat="44.97314" lon="3.74006">
        <ele>1193</ele>
        <time>2009-07-12T07:34:39Z</time>
      </trkpt>
      <trkpt lat="44.97336" lon="3.73998">
        <ele>1190</ele>
        <time>2009-07-12T07:34:42Z</time>
      </trkpt>
      <trkpt lat="44.97362" lon="3.73992">
        <ele>1188</ele>
        <time>2009-07-12T07:34:45Z</time>
      </trkpt>
      <trkpt lat="44.97419" lon="3.73969">
        <ele>1184</ele>
        <time>2009-07-12T07:34:51Z</time>
      </trkpt>
      <trkpt lat="44.97436" lon="3.73963">
        <ele>1181</ele>
        <time>2009-07-12T07:34:53Z</time>
      </trkpt>
      <trkpt lat="44.97478" lon="3.73943">
        <ele>1180</ele>
        <time>2009-07-12T07:34:58Z</time>
      </trkpt>
      <trkpt lat="44.97551" lon="3.7391">
        <ele>1177</ele>
        <time>2009-07-12T07:35:07Z</time>
      </trkpt>
      <trkpt lat="44.976" lon="3.7389">
        <ele>1175</ele>
        <time>2009-07-12T07:35:14Z</time>
      </trkpt>
      <trkpt lat="44.97622" lon="3.73882">
        <ele>1172</ele>
        <time>2009-07-12T07:35:17Z</time>
      </trkpt>
      <trkpt lat="44.9763" lon="3.7388">
        <ele>1172</ele>
        <time>2009-07-12T07:35:18Z</time>
      </trkpt>
      <trkpt lat="44.97705" lon="3.73858">
        <ele>1170</ele>
        <time>2009-07-12T07:35:29Z</time>
      </trkpt>
      <trkpt lat="44.97788" lon="3.73832">
        <ele>1168</ele>
        <time>2009-07-12T07:35:43Z</time>
      </trkpt>
      <trkpt lat="44.97909" lon="3.73793">
        <ele>1167</ele>
        <time>2009-07-12T07:36:02Z</time>
      </trkpt>
      <trkpt lat="44.9799" lon="3.7377">
        <ele>1167</ele>
        <time>2009-07-12T07:36:17Z</time>
      </trkpt>
      <trkpt lat="44.98011" lon="3.73765">
        <ele>1166</ele>
        <time>2009-07-12T07:36:22Z</time>
      </trkpt>
      <trkpt lat="44.98024" lon="3.73761">
        <ele>1166</ele>
        <time>2009-07-12T07:36:25Z</time>
      </trkpt>
      <trkpt lat="44.98046" lon="3.7375">
        <ele>1166</ele>
        <time>2009-07-12T07:36:30Z</time>
      </trkpt>
      <trkpt lat="44.98144" lon="3.73727">
        <ele>1162</ele>
        <time>2009-07-12T07:36:46Z</time>
      </trkpt>
      <trkpt lat="44.98279" lon="3.7372">
        <ele>1159</ele>
        <time>2009-07-12T07:37:05Z</time>
      </trkpt>
      <trkpt lat="44.98396" lon="3.73723">
        <ele>1156</ele>
        <time>2009-07-12T07:37:21Z</time>
      </trkpt>
      <trkpt lat="44.98531" lon="3.73749">
        <ele>1152</ele>
        <time>2009-07-12T07:37:39Z</time>
      </trkpt>
      <trkpt lat="44.98573" lon="3.73764">
        <ele>1151</ele>
        <time>2009-07-12T07:37:44Z</time>
      </trkpt>
      <trkpt lat="44.98649" lon="3.73794">
        <ele>1148</ele>
        <time>2009-07-12T07:37:53Z</time>
      </trkpt>
      <trkpt lat="44.98658" lon="3.73799">
        <ele>1148</ele>
        <time>2009-07-12T07:37:54Z</time>
      </trkpt>
      <trkpt lat="44.98684" lon="3.73818">
        <ele>1145</ele>
        <time>2009-07-12T07:37:57Z</time>
      </trkpt>
      <trkpt lat="44.98731" lon="3.73857">
        <ele>1141</ele>
        <time>2009-07-12T07:38:02Z</time>
      </trkpt>
      <trkpt lat="44.98741" lon="3.73864">
        <ele>1141</ele>
        <time>2009-07-12T07:38:03Z</time>
      </trkpt>
      <trkpt lat="44.98774" lon="3.73887">
        <ele>1141</ele>
        <time>2009-07-12T07:38:07Z</time>
      </trkpt>
      <trkpt lat="44.98794" lon="3.73904">
        <ele>1141</ele>
        <time>2009-07-12T07:38:11Z</time>
      </trkpt>
      <trkpt lat="44.98849" lon="3.74015">
        <ele>1139</ele>
        <time>2009-07-12T07:38:25Z</time>
      </trkpt>
      <trkpt lat="44.98872" lon="3.74055">
        <ele>1138</ele>
        <time>2009-07-12T07:38:30Z</time>
      </trkpt>
      <trkpt lat="44.98951" lon="3.74152">
        <ele>1135</ele>
        <time>2009-07-12T07:38:45Z</time>
      </trkpt>
      <trkpt lat="44.98979" lon="3.74183">
        <ele>1134</ele>
        <time>2009-07-12T07:38:52Z</time>
      </trkpt>
      <trkpt lat="44.98988" lon="3.74176">
        <ele>1134</ele>
        <time>2009-07-12T07:38:56Z</time>
      </trkpt>
      <trkpt lat="44.99014" lon="3.74124">
        <ele>1136</ele>
        <time>2009-07-12T07:39:13Z</time>
      </trkpt>
      <trkpt lat="44.99053" lon="3.74079">
        <ele>1137</ele>
        <time>2009-07-12T07:39:28Z</time>
      </trkpt>
      <trkpt lat="44.99086" lon="3.74012">
        <ele>1139</ele>
        <time>2009-07-12T07:39:46Z</time>
      </trkpt>
      <trkpt lat="44.99119" lon="3.73936">
        <ele>1142</ele>
        <time>2009-07-12T07:40:06Z</time>
      </trkpt>
      <trkpt lat="44.99154" lon="3.73875">
        <ele>1141</ele>
        <time>2009-07-12T07:40:22Z</time>
      </trkpt>
      <trkpt lat="44.99173" lon="3.73829">
        <ele>1140</ele>
        <time>2009-07-12T07:40:31Z</time>
      </trkpt>
      <trkpt lat="44.99182" lon="3.73798">
        <ele>1139</ele>
        <time>2009-07-12T07:40:37Z</time>
      </trkpt>
      <trkpt lat="44.99197" lon="3.73762">
        <ele>1138</ele>
        <time>2009-07-12T07:40:44Z</time>
      </trkpt>
      <trkpt lat="44.99204" lon="3.73696">
        <ele>1138</ele>
        <time>2009-07-12T07:40:56Z</time>
      </trkpt>
      <trkpt lat="44.99241" lon="3.7359">
        <ele>1139</ele>
        <time>2009-07-12T07:41:16Z</time>
      </trkpt>
      <trkpt lat="44.99253" lon="3.73558">
        <ele>1138</ele>
        <time>2009-07-12T07:41:22Z</time>
      </trkpt>
      <trkpt lat="44.99279" lon="3.73513">
        <ele>1137</ele>
        <time>2009-07-12T07:41:31Z</time>
      </trkpt>
      <trkpt lat="44.99293" lon="3.73476">
        <ele>1135</ele>
        <time>2009-07-12T07:41:37Z</time>
      </trkpt>
      <trkpt lat="44.99302" lon="3.73454">
        <ele>1133</ele>
        <time>2009-07-12T07:41:40Z</time>
      </trkpt>
      <trkpt lat="44.99308" lon="3.73439">
        <ele>1132</ele>
        <time>2009-07-12T07:41:42Z</time>
      </trkpt>
      <trkpt lat="44.99361" lon="3.7337">
        <ele>1130</ele>
        <time>2009-07-12T07:41:53Z</time>
      </trkpt>
      <trkpt lat="44.99362" lon="3.73339">
        <ele>1129</ele>
        <time>2009-07-12T07:41:58Z</time>
      </trkpt>
      <trkpt lat="44.9933" lon="3.73262">
        <ele>1130</ele>
        <time>2009-07-12T07:42:15Z</time>
      </trkpt>
      <trkpt lat="44.99324" lon="3.73227">
        <ele>1131</ele>
        <time>2009-07-12T07:42:22Z</time>
      </trkpt>
      <trkpt lat="44.99358" lon="3.73211">
        <ele>1133</ele>
        <time>2009-07-12T07:42:33Z</time>
      </trkpt>
      <trkpt lat="44.9941" lon="3.73184">
        <ele>1136</ele>
        <time>2009-07-12T07:42:53Z</time>
      </trkpt>
      <trkpt lat="44.99425" lon="3.7316">
        <ele>1137</ele>
        <time>2009-07-12T07:43:08Z</time>
      </trkpt>
      <trkpt lat="44.99424" lon="3.73159">
        <ele>1140</ele>
        <time>2009-07-12T07:44:08Z</time>
      </trkpt>
      <trkpt lat="44.99424" lon="3.73159">
        <ele>1138</ele>
        <time>2009-07-12T07:44:51Z</time>
      </trkpt>
      <trkpt lat="44.99433" lon="3.73143">
        <ele>1139</ele>
        <time>2009-07-12T07:44:59Z</time>
      </trkpt>
      <trkpt lat="44.99444" lon="3.73124">
        <ele>1141</ele>
        <time>2009-07-12T07:45:06Z</time>
      </trkpt>
      <trkpt lat="44.99466" lon="3.73089">
        <ele>1145</ele>
        <time>2009-07-12T07:45:21Z</time>
      </trkpt>
      <trkpt lat="44.99498" lon="3.73039">
        <ele>1147</ele>
        <time>2009-07-12T07:45:41Z</time>
      </trkpt>
      <trkpt lat="44.99514" lon="3.73011">
        <ele>1151</ele>
        <time>2009-07-12T07:45:52Z</time>
      </trkpt>
      <trkpt lat="44.99542" lon="3.72958">
        <ele>1153</ele>
        <time>2009-07-12T07:46:13Z</time>
      </trkpt>
      <trkpt lat="44.99543" lon="3.72955">
        <ele>1153</ele>
        <time>2009-07-12T07:46:14Z</time>
      </trkpt>
      <trkpt lat="44.99562" lon="3.72924">
        <ele>1157</ele>
        <time>2009-07-12T07:46:28Z</time>
      </trkpt>
      <trkpt lat="44.99584" lon="3.72916">
        <ele>1160</ele>
        <time>2009-07-12T07:46:39Z</time>
      </trkpt>
      <trkpt lat="44.9961" lon="3.72898">
        <ele>1163</ele>
        <time>2009-07-12T07:46:53Z</time>
      </trkpt>
      <trkpt lat="44.9963" lon="3.72876">
        <ele>1166</ele>
        <time>2009-07-12T07:47:06Z</time>
      </trkpt>
      <trkpt lat="44.99642" lon="3.72856">
        <ele>1169</ele>
        <time>2009-07-12T07:47:15Z</time>
      </trkpt>
      <trkpt lat="44.9966" lon="3.72811">
        <ele>1171</ele>
        <time>2009-07-12T07:47:33Z</time>
      </trkpt>
      <trkpt lat="44.99672" lon="3.72789">
        <ele>1174</ele>
        <time>2009-07-12T07:47:43Z</time>
      </trkpt>
      <trkpt lat="44.9969" lon="3.72746">
        <ele>1174</ele>
        <time>2009-07-12T07:48:00Z</time>
      </trkpt>
      <trkpt lat="44.99688" lon="3.72719">
        <ele>1177</ele>
        <time>2009-07-12T07:48:09Z</time>
      </trkpt>
      <trkpt lat="44.99681" lon="3.72661">
        <ele>1179</ele>
        <time>2009-07-12T07:48:28Z</time>
      </trkpt>
      <trkpt lat="44.99669" lon="3.72625">
        <ele>1182</ele>
        <time>2009-07-12T07:48:40Z</time>
      </trkpt>
      <trkpt lat="44.99671" lon="3.72578">
        <ele>1185</ele>
        <time>2009-07-12T07:48:55Z</time>
      </trkpt>
      <trkpt lat="44.99684" lon="3.72556">
        <ele>1188</ele>
        <time>2009-07-12T07:49:05Z</time>
      </trkpt>
      <trkpt lat="44.99685" lon="3.72554">
        <ele>1189</ele>
        <time>2009-07-12T07:49:06Z</time>
      </trkpt>
      <trkpt lat="44.99688" lon="3.72548">
        <ele>1190</ele>
        <time>2009-07-12T07:49:09Z</time>
      </trkpt>
      <trkpt lat="44.99701" lon="3.72534">
        <ele>1193</ele>
        <time>2009-07-12T07:49:19Z</time>
      </trkpt>
      <trkpt lat="44.99722" lon="3.7251">
        <ele>1196</ele>
        <time>2009-07-12T07:49:36Z</time>
      </trkpt>
      <trkpt lat="44.99729" lon="3.72484">
        <ele>1199</ele>
        <time>2009-07-12T07:49:48Z</time>
      </trkpt>
      <trkpt lat="44.9973" lon="3.72453">
        <ele>1202</ele>
        <time>2009-07-12T07:50:01Z</time>
      </trkpt>
      <trkpt lat="44.99721" lon="3.72401">
        <ele>1205</ele>
        <time>2009-07-12T07:50:21Z</time>
      </trkpt>
      <trkpt lat="44.99715" lon="3.7235">
        <ele>1209</ele>
        <time>2009-07-12T07:50:39Z</time>
      </trkpt>
      <trkpt lat="44.99715" lon="3.72316">
        <ele>1212</ele>
        <time>2009-07-12T07:50:53Z</time>
      </trkpt>
      <trkpt lat="44.99713" lon="3.72288">
        <ele>1215</ele>
        <time>2009-07-12T07:51:04Z</time>
      </trkpt>
      <trkpt lat="44.99709" lon="3.72261">
        <ele>1217</ele>
        <time>2009-07-12T07:51:13Z</time>
      </trkpt>
      <trkpt lat="44.9972" lon="3.72245">
        <ele>1217</ele>
        <time>2009-07-12T07:51:20Z</time>
      </trkpt>
      <trkpt lat="44.9974" lon="3.72218">
        <ele>1217</ele>
        <time>2009-07-12T07:51:32Z</time>
      </trkpt>
      <trkpt lat="44.99745" lon="3.7221">
        <ele>1217</ele>
        <time>2009-07-12T07:51:37Z</time>
      </trkpt>
      <trkpt lat="44.99749" lon="3.72211">
        <ele>1217</ele>
        <time>2009-07-12T07:51:39Z</time>
      </trkpt>
      <trkpt lat="44.99757" lon="3.72213">
        <ele>1217</ele>
        <time>2009-07-12T07:51:53Z</time>
      </trkpt>
      <trkpt lat="44.99756" lon="3.72213">
        <ele>1218</ele>
        <time>2009-07-12T07:52:43Z</time>
      </trkpt>
      <trkpt lat="44.99757" lon="3.72215">
        <ele>1216</ele>
        <time>2009-07-12T07:53:39Z</time>
      </trkpt>
      <trkpt lat="44.99756" lon="3.72215">
        <ele>1216</ele>
        <time>2009-07-12T07:54:27Z</time>
      </trkpt>
      <trkpt lat="44.99757" lon="3.72213">
        <ele>1216</ele>
        <time>2009-07-12T07:54:58Z</time>
      </trkpt>
      <trkpt lat="44.99756" lon="3.72215">
        <ele>1216</ele>
        <time>2009-07-12T07:55:28Z</time>
      </trkpt>
      <trkpt lat="44.99755" lon="3.72216">
        <ele>1216</ele>
        <time>2009-07-12T07:56:13Z</time>
      </trkpt>
      <trkpt lat="44.99758" lon="3.72221">
        <ele>1216</ele>
        <time>2009-07-12T07:56:19Z</time>
      </trkpt>
      <trkpt lat="44.9977" lon="3.72215">
        <ele>1216</ele>
        <time>2009-07-12T07:56:29Z</time>
      </trkpt>
      <trkpt lat="44.9977" lon="3.72208">
        <ele>1216</ele>
        <time>2009-07-12T07:56:31Z</time>
      </trkpt>
      <trkpt lat="44.99773" lon="3.72163">
        <ele>1216</ele>
        <time>2009-07-12T07:56:44Z</time>
      </trkpt>
      <trkpt lat="44.99789" lon="3.7211">
        <ele>1216</ele>
        <time>2009-07-12T07:56:58Z</time>
      </trkpt>
      <trkpt lat="44.99811" lon="3.72051">
        <ele>1216</ele>
        <time>2009-07-12T07:57:13Z</time>
      </trkpt>
      <trkpt lat="44.99836" lon="3.72005">
        <ele>1216</ele>
        <time>2009-07-12T07:57:26Z</time>
      </trkpt>
      <trkpt lat="44.99834" lon="3.7196">
        <ele>1216</ele>
        <time>2009-07-12T07:57:38Z</time>
      </trkpt>
      <trkpt lat="44.99807" lon="3.71929">
        <ele>1216</ele>
        <time>2009-07-12T07:57:49Z</time>
      </trkpt>
      <trkpt lat="44.99785" lon="3.71887">
        <ele>1216</ele>
        <time>2009-07-12T07:58:00Z</time>
      </trkpt>
      <trkpt lat="44.99763" lon="3.71838">
        <ele>1217</ele>
        <time>2009-07-12T07:58:12Z</time>
      </trkpt>
      <trkpt lat="44.99757" lon="3.71819">
        <ele>1216</ele>
        <time>2009-07-12T07:58:16Z</time>
      </trkpt>
      <trkpt lat="44.99754" lon="3.71802">
        <ele>1216</ele>
        <time>2009-07-12T07:58:19Z</time>
      </trkpt>
      <trkpt lat="44.99745" lon="3.71723">
        <ele>1216</ele>
        <time>2009-07-12T07:58:33Z</time>
      </trkpt>
      <trkpt lat="44.99716" lon="3.71674">
        <ele>1215</ele>
        <time>2009-07-12T07:58:46Z</time>
      </trkpt>
      <trkpt lat="44.99666" lon="3.71653">
        <ele>1215</ele>
        <time>2009-07-12T07:59:00Z</time>
      </trkpt>
      <trkpt lat="44.99655" lon="3.71648">
        <ele>1214</ele>
        <time>2009-07-12T07:59:03Z</time>
      </trkpt>
      <trkpt lat="44.99631" lon="3.71638">
        <ele>1213</ele>
        <time>2009-07-12T07:59:09Z</time>
      </trkpt>
      <trkpt lat="44.99608" lon="3.71633">
        <ele>1212</ele>
        <time>2009-07-12T07:59:14Z</time>
      </trkpt>
      <trkpt lat="44.99599" lon="3.7163">
        <ele>1212</ele>
        <time>2009-07-12T07:59:16Z</time>
      </trkpt>
      <trkpt lat="44.99585" lon="3.71615">
        <ele>1211</ele>
        <time>2009-07-12T07:59:20Z</time>
      </trkpt>
      <trkpt lat="44.99569" lon="3.71585">
        <ele>1207</ele>
        <time>2009-07-12T07:59:24Z</time>
      </trkpt>
      <trkpt lat="44.99524" lon="3.71467">
        <ele>1204</ele>
        <time>2009-07-12T07:59:36Z</time>
      </trkpt>
      <trkpt lat="44.99516" lon="3.71431">
        <ele>1202</ele>
        <time>2009-07-12T07:59:40Z</time>
      </trkpt>
      <trkpt lat="44.99506" lon="3.71393">
        <ele>1197</ele>
        <time>2009-07-12T07:59:44Z</time>
      </trkpt>
      <trkpt lat="44.99502" lon="3.71382">
        <ele>1195</ele>
        <time>2009-07-12T07:59:45Z</time>
      </trkpt>
      <trkpt lat="44.99494" lon="3.71343">
        <ele>1191</ele>
        <time>2009-07-12T07:59:48Z</time>
      </trkpt>
      <trkpt lat="44.99492" lon="3.71314">
        <ele>1187</ele>
        <time>2009-07-12T07:59:50Z</time>
      </trkpt>
      <trkpt lat="44.99486" lon="3.71287">
        <ele>1186</ele>
        <time>2009-07-12T07:59:52Z</time>
      </trkpt>
      <trkpt lat="44.99478" lon="3.71249">
        <ele>1181</ele>
        <time>2009-07-12T07:59:55Z</time>
      </trkpt>
      <trkpt lat="44.99472" lon="3.71225">
        <ele>1179</ele>
        <time>2009-07-12T07:59:57Z</time>
      </trkpt>
      <trkpt lat="44.99454" lon="3.71175">
        <ele>1176</ele>
        <time>2009-07-12T08:00:01Z</time>
      </trkpt>
      <trkpt lat="44.99438" lon="3.71116">
        <ele>1171</ele>
        <time>2009-07-12T08:00:05Z</time>
      </trkpt>
      <trkpt lat="44.99419" lon="3.71075">
        <ele>1169</ele>
        <time>2009-07-12T08:00:08Z</time>
      </trkpt>
      <trkpt lat="44.99405" lon="3.71052">
        <ele>1168</ele>
        <time>2009-07-12T08:00:10Z</time>
      </trkpt>
      <trkpt lat="44.99384" lon="3.71025">
        <ele>1166</ele>
        <time>2009-07-12T08:00:13Z</time>
      </trkpt>
      <trkpt lat="44.99332" lon="3.70939">
        <ele>1161</ele>
        <time>2009-07-12T08:00:24Z</time>
      </trkpt>
      <trkpt lat="44.99328" lon="3.7093">
        <ele>1161</ele>
        <time>2009-07-12T08:00:25Z</time>
      </trkpt>
      <trkpt lat="44.99305" lon="3.7088">
        <ele>1160</ele>
        <time>2009-07-12T08:00:32Z</time>
      </trkpt>
      <trkpt lat="44.99276" lon="3.70839">
        <ele>1157</ele>
        <time>2009-07-12T08:00:39Z</time>
      </trkpt>
      <trkpt lat="44.99232" lon="3.70781">
        <ele>1153</ele>
        <time>2009-07-12T08:00:50Z</time>
      </trkpt>
      <trkpt lat="44.99228" lon="3.70775">
        <ele>1153</ele>
        <time>2009-07-12T08:00:51Z</time>
      </trkpt>
      <trkpt lat="44.99217" lon="3.70762">
        <ele>1152</ele>
        <time>2009-07-12T08:00:53Z</time>
      </trkpt>
      <trkpt lat="44.99192" lon="3.70737">
        <ele>1148</ele>
        <time>2009-07-12T08:00:57Z</time>
      </trkpt>
      <trkpt lat="44.99177" lon="3.70724">
        <ele>1147</ele>
        <time>2009-07-12T08:00:59Z</time>
      </trkpt>
      <trkpt lat="44.99154" lon="3.70704">
        <ele>1142</ele>
        <time>2009-07-12T08:01:02Z</time>
      </trkpt>
      <trkpt lat="44.99109" lon="3.70653">
        <ele>1141</ele>
        <time>2009-07-12T08:01:09Z</time>
      </trkpt>
      <trkpt lat="44.99095" lon="3.70618">
        <ele>1137</ele>
        <time>2009-07-12T08:01:15Z</time>
      </trkpt>
      <trkpt lat="44.99091" lon="3.70602">
        <ele>1135</ele>
        <time>2009-07-12T08:01:18Z</time>
      </trkpt>
      <trkpt lat="44.99083" lon="3.70561">
        <ele>1131</ele>
        <time>2009-07-12T08:01:26Z</time>
      </trkpt>
      <trkpt lat="44.9908" lon="3.70534">
        <ele>1128</ele>
        <time>2009-07-12T08:01:29Z</time>
      </trkpt>
      <trkpt lat="44.99078" lon="3.70505">
        <ele>1124</ele>
        <time>2009-07-12T08:01:32Z</time>
      </trkpt>
      <trkpt lat="44.99075" lon="3.70486">
        <ele>1123</ele>
        <time>2009-07-12T08:01:34Z</time>
      </trkpt>
      <trkpt lat="44.99069" lon="3.70447">
        <ele>1119</ele>
        <time>2009-07-12T08:01:38Z</time>
      </trkpt>
      <trkpt lat="44.99067" lon="3.70436">
        <ele>1119</ele>
        <time>2009-07-12T08:01:39Z</time>
      </trkpt>
      <trkpt lat="44.99054" lon="3.70392">
        <ele>1116</ele>
        <time>2009-07-12T08:01:43Z</time>
      </trkpt>
      <trkpt lat="44.99044" lon="3.70362">
        <ele>1113</ele>
        <time>2009-07-12T08:01:46Z</time>
      </trkpt>
      <trkpt lat="44.99042" lon="3.70353">
        <ele>1113</ele>
        <time>2009-07-12T08:01:47Z</time>
      </trkpt>
      <trkpt lat="44.99044" lon="3.70305">
        <ele>1111</ele>
        <time>2009-07-12T08:01:52Z</time>
      </trkpt>
      <trkpt lat="44.99051" lon="3.70275">
        <ele>1108</ele>
        <time>2009-07-12T08:01:55Z</time>
      </trkpt>
      <trkpt lat="44.99049" lon="3.70237">
        <ele>1103</ele>
        <time>2009-07-12T08:01:59Z</time>
      </trkpt>
      <trkpt lat="44.99041" lon="3.70218">
        <ele>1101</ele>
        <time>2009-07-12T08:02:01Z</time>
      </trkpt>
      <trkpt lat="44.98999" lon="3.70131">
        <ele>1095</ele>
        <time>2009-07-12T08:02:09Z</time>
      </trkpt>
      <trkpt lat="44.98989" lon="3.70107">
        <ele>1094</ele>
        <time>2009-07-12T08:02:11Z</time>
      </trkpt>
      <trkpt lat="44.98965" lon="3.70059">
        <ele>1090</ele>
        <time>2009-07-12T08:02:15Z</time>
      </trkpt>
      <trkpt lat="44.98939" lon="3.69998">
        <ele>1089</ele>
        <time>2009-07-12T08:02:20Z</time>
      </trkpt>
      <trkpt lat="44.98922" lon="3.69969">
        <ele>1088</ele>
        <time>2009-07-12T08:02:23Z</time>
      </trkpt>
      <trkpt lat="44.98904" lon="3.69944">
        <ele>1086</ele>
        <time>2009-07-12T08:02:26Z</time>
      </trkpt>
      <trkpt lat="44.98887" lon="3.69911">
        <ele>1084</ele>
        <time>2009-07-12T08:02:30Z</time>
      </trkpt>
      <trkpt lat="44.98853" lon="3.69869">
        <ele>1079</ele>
        <time>2009-07-12T08:02:36Z</time>
      </trkpt>
      <trkpt lat="44.98826" lon="3.69842">
        <ele>1077</ele>
        <time>2009-07-12T08:02:40Z</time>
      </trkpt>
      <trkpt lat="44.98811" lon="3.69829">
        <ele>1076</ele>
        <time>2009-07-12T08:02:43Z</time>
      </trkpt>
      <trkpt lat="44.98785" lon="3.69813">
        <ele>1074</ele>
        <time>2009-07-12T08:02:54Z</time>
      </trkpt>
      <trkpt lat="44.98785" lon="3.69814">
        <ele>1074</ele>
        <time>2009-07-12T08:03:13Z</time>
      </trkpt>
      <trkpt lat="44.98778" lon="3.69788">
        <ele>1071</ele>
        <time>2009-07-12T08:03:20Z</time>
      </trkpt>
      <trkpt lat="44.98778" lon="3.69776">
        <ele>1070</ele>
        <time>2009-07-12T08:03:22Z</time>
      </trkpt>
      <trkpt lat="44.98778" lon="3.6975">
        <ele>1068</ele>
        <time>2009-07-12T08:03:25Z</time>
      </trkpt>
      <trkpt lat="44.9878" lon="3.6972">
        <ele>1065</ele>
        <time>2009-07-12T08:03:28Z</time>
      </trkpt>
      <trkpt lat="44.98781" lon="3.69685">
        <ele>1062</ele>
        <time>2009-07-12T08:03:31Z</time>
      </trkpt>
      <trkpt lat="44.98782" lon="3.69672">
        <ele>1062</ele>
        <time>2009-07-12T08:03:32Z</time>
      </trkpt>
      <trkpt lat="44.98783" lon="3.69632">
        <ele>1060</ele>
        <time>2009-07-12T08:03:35Z</time>
      </trkpt>
      <trkpt lat="44.98784" lon="3.6959">
        <ele>1057</ele>
        <time>2009-07-12T08:03:38Z</time>
      </trkpt>
      <trkpt lat="44.98776" lon="3.69486">
        <ele>1053</ele>
        <time>2009-07-12T08:03:48Z</time>
      </trkpt>
      <trkpt lat="44.98774" lon="3.69477">
        <ele>1054</ele>
        <time>2009-07-12T08:03:49Z</time>
      </trkpt>
      <trkpt lat="44.98764" lon="3.69443">
        <ele>1052</ele>
        <time>2009-07-12T08:03:54Z</time>
      </trkpt>
      <trkpt lat="44.98748" lon="3.6938">
        <ele>1049</ele>
        <time>2009-07-12T08:04:01Z</time>
      </trkpt>
      <trkpt lat="44.98746" lon="3.6935">
        <ele>1049</ele>
        <time>2009-07-12T08:04:04Z</time>
      </trkpt>
      <trkpt lat="44.98735" lon="3.69324">
        <ele>1046</ele>
        <time>2009-07-12T08:04:09Z</time>
      </trkpt>
      <trkpt lat="44.98732" lon="3.69314">
        <ele>1047</ele>
        <time>2009-07-12T08:04:11Z</time>
      </trkpt>
      <trkpt lat="44.98728" lon="3.69299">
        <ele>1047</ele>
        <time>2009-07-12T08:04:15Z</time>
      </trkpt>
      <trkpt lat="44.9873" lon="3.69293">
        <ele>1046</ele>
        <time>2009-07-12T08:04:28Z</time>
      </trkpt>
      <trkpt lat="44.98729" lon="3.69292">
        <ele>1046</ele>
        <time>2009-07-12T08:04:29Z</time>
      </trkpt>
      <trkpt lat="44.98723" lon="3.69249">
        <ele>1044</ele>
        <time>2009-07-12T08:04:42Z</time>
      </trkpt>
      <trkpt lat="44.98722" lon="3.69237">
        <ele>1043</ele>
        <time>2009-07-12T08:04:44Z</time>
      </trkpt>
      <trkpt lat="44.98719" lon="3.69211">
        <ele>1041</ele>
        <time>2009-07-12T08:04:48Z</time>
      </trkpt>
      <trkpt lat="44.98721" lon="3.6916">
        <ele>1041</ele>
        <time>2009-07-12T08:04:55Z</time>
      </trkpt>
      <trkpt lat="44.98728" lon="3.69091">
        <ele>1042</ele>
        <time>2009-07-12T08:05:08Z</time>
      </trkpt>
      <trkpt lat="44.98731" lon="3.69037">
        <ele>1040</ele>
        <time>2009-07-12T08:05:16Z</time>
      </trkpt>
      <trkpt lat="44.98731" lon="3.6901">
        <ele>1039</ele>
        <time>2009-07-12T08:05:20Z</time>
      </trkpt>
      <trkpt lat="44.9873" lon="3.68915">
        <ele>1035</ele>
        <time>2009-07-12T08:05:33Z</time>
      </trkpt>
      <trkpt lat="44.98731" lon="3.68887">
        <ele>1032</ele>
        <time>2009-07-12T08:05:36Z</time>
      </trkpt>
      <trkpt lat="44.98733" lon="3.68838">
        <ele>1030</ele>
        <time>2009-07-12T08:05:42Z</time>
      </trkpt>
      <trkpt lat="44.98726" lon="3.68789">
        <ele>1029</ele>
        <time>2009-07-12T08:05:50Z</time>
      </trkpt>
      <trkpt lat="44.98726" lon="3.68784">
        <ele>1029</ele>
        <time>2009-07-12T08:05:51Z</time>
      </trkpt>
      <trkpt lat="44.98735" lon="3.68737">
        <ele>1026</ele>
        <time>2009-07-12T08:05:59Z</time>
      </trkpt>
      <trkpt lat="44.98752" lon="3.68704">
        <ele>1021</ele>
        <time>2009-07-12T08:06:03Z</time>
      </trkpt>
      <trkpt lat="44.98758" lon="3.68697">
        <ele>1020</ele>
        <time>2009-07-12T08:06:04Z</time>
      </trkpt>
      <trkpt lat="44.98771" lon="3.68684">
        <ele>1018</ele>
        <time>2009-07-12T08:06:06Z</time>
      </trkpt>
      <trkpt lat="44.98781" lon="3.68668">
        <ele>1017</ele>
        <time>2009-07-12T08:06:08Z</time>
      </trkpt>
      <trkpt lat="44.98801" lon="3.68631">
        <ele>1014</ele>
        <time>2009-07-12T08:06:12Z</time>
      </trkpt>
      <trkpt lat="44.98825" lon="3.68605">
        <ele>1010</ele>
        <time>2009-07-12T08:06:16Z</time>
      </trkpt>
      <trkpt lat="44.9885" lon="3.68586">
        <ele>1007</ele>
        <time>2009-07-12T08:06:20Z</time>
      </trkpt>
      <trkpt lat="44.98856" lon="3.68582">
        <ele>1006</ele>
        <time>2009-07-12T08:06:21Z</time>
      </trkpt>
      <trkpt lat="44.98877" lon="3.68562">
        <ele>1001</ele>
        <time>2009-07-12T08:06:25Z</time>
      </trkpt>
      <trkpt lat="44.98887" lon="3.6855">
        <ele>997</ele>
        <time>2009-07-12T08:06:27Z</time>
      </trkpt>
      <trkpt lat="44.98897" lon="3.68538">
        <ele>996</ele>
        <time>2009-07-12T08:06:29Z</time>
      </trkpt>
      <trkpt lat="44.98916" lon="3.68523">
        <ele>990</ele>
        <time>2009-07-12T08:06:32Z</time>
      </trkpt>
      <trkpt lat="44.98945" lon="3.68527">
        <ele>986</ele>
        <time>2009-07-12T08:06:37Z</time>
      </trkpt>
      <trkpt lat="44.98969" lon="3.68521">
        <ele>984</ele>
        <time>2009-07-12T08:06:41Z</time>
      </trkpt>
      <trkpt lat="44.99015" lon="3.68487">
        <ele>976</ele>
        <time>2009-07-12T08:06:48Z</time>
      </trkpt>
      <trkpt lat="44.9904" lon="3.685">
        <ele>971</ele>
        <time>2009-07-12T08:06:53Z</time>
      </trkpt>
      <trkpt lat="44.99045" lon="3.68506">
        <ele>971</ele>
        <time>2009-07-12T08:06:54Z</time>
      </trkpt>
      <trkpt lat="44.99083" lon="3.68546">
        <ele>967</ele>
        <time>2009-07-12T08:07:01Z</time>
      </trkpt>
      <trkpt lat="44.9909" lon="3.68551">
        <ele>967</ele>
        <time>2009-07-12T08:07:02Z</time>
      </trkpt>
      <trkpt lat="44.99131" lon="3.68575">
        <ele>963</ele>
        <time>2009-07-12T08:07:08Z</time>
      </trkpt>
      <trkpt lat="44.99146" lon="3.68585">
        <ele>962</ele>
        <time>2009-07-12T08:07:10Z</time>
      </trkpt>
      <trkpt lat="44.99153" lon="3.68588">
        <ele>963</ele>
        <time>2009-07-12T08:07:11Z</time>
      </trkpt>
      <trkpt lat="44.99156" lon="3.68588">
        <ele>963</ele>
        <time>2009-07-12T08:07:17Z</time>
      </trkpt>
      <trkpt lat="44.99154" lon="3.68586">
        <ele>962</ele>
        <time>2009-07-12T08:07:48Z</time>
      </trkpt>
      <trkpt lat="44.99151" lon="3.68584">
        <ele>961</ele>
        <time>2009-07-12T08:08:29Z</time>
      </trkpt>
      <trkpt lat="44.99154" lon="3.68582">
        <ele>962</ele>
        <time>2009-07-12T08:09:26Z</time>
      </trkpt>
      <trkpt lat="44.99154" lon="3.68584">
        <ele>962</ele>
        <time>2009-07-12T08:09:45Z</time>
      </trkpt>
      <trkpt lat="44.99161" lon="3.68582">
        <ele>961</ele>
        <time>2009-07-12T08:09:50Z</time>
      </trkpt>
      <trkpt lat="44.99167" lon="3.68585">
        <ele>960</ele>
        <time>2009-07-12T08:09:53Z</time>
      </trkpt>
      <trkpt lat="44.99171" lon="3.68588">
        <ele>958</ele>
        <time>2009-07-12T08:09:55Z</time>
      </trkpt>
      <trkpt lat="44.99178" lon="3.68585">
        <ele>955</ele>
        <time>2009-07-12T08:09:58Z</time>
      </trkpt>
      <trkpt lat="44.99181" lon="3.68582">
        <ele>955</ele>
        <time>2009-07-12T08:09:59Z</time>
      </trkpt>
      <trkpt lat="44.99191" lon="3.68568">
        <ele>953</ele>
        <time>2009-07-12T08:10:02Z</time>
      </trkpt>
      <trkpt lat="44.99198" lon="3.68554">
        <ele>951</ele>
        <time>2009-07-12T08:10:05Z</time>
      </trkpt>
      <trkpt lat="44.99204" lon="3.68537">
        <ele>948</ele>
        <time>2009-07-12T08:10:08Z</time>
      </trkpt>
      <trkpt lat="44.99207" lon="3.68526">
        <ele>946</ele>
        <time>2009-07-12T08:10:10Z</time>
      </trkpt>
      <trkpt lat="44.99211" lon="3.68505">
        <ele>945</ele>
        <time>2009-07-12T08:10:14Z</time>
      </trkpt>
      <trkpt lat="44.99215" lon="3.68493">
        <ele>944</ele>
        <time>2009-07-12T08:10:16Z</time>
      </trkpt>
      <trkpt lat="44.99223" lon="3.68474">
        <ele>940</ele>
        <time>2009-07-12T08:10:19Z</time>
      </trkpt>
      <trkpt lat="44.99225" lon="3.68467">
        <ele>940</ele>
        <time>2009-07-12T08:10:20Z</time>
      </trkpt>
      <trkpt lat="44.99226" lon="3.68461">
        <ele>939</ele>
        <time>2009-07-12T08:10:21Z</time>
      </trkpt>
      <trkpt lat="44.9923" lon="3.68441">
        <ele>934</ele>
        <time>2009-07-12T08:10:25Z</time>
      </trkpt>
      <trkpt lat="44.99233" lon="3.68437">
        <ele>933</ele>
        <time>2009-07-12T08:10:27Z</time>
      </trkpt>
      <trkpt lat="44.99232" lon="3.6843">
        <ele>932</ele>
        <time>2009-07-12T08:10:30Z</time>
      </trkpt>
      <trkpt lat="44.99226" lon="3.68416">
        <ele>928</ele>
        <time>2009-07-12T08:10:33Z</time>
      </trkpt>
      <trkpt lat="44.99227" lon="3.684">
        <ele>924</ele>
        <time>2009-07-12T08:10:37Z</time>
      </trkpt>
      <trkpt lat="44.99228" lon="3.684">
        <ele>925</ele>
        <time>2009-07-12T08:10:38Z</time>
      </trkpt>
      <trkpt lat="44.99232" lon="3.68404">
        <ele>924</ele>
        <time>2009-07-12T08:10:40Z</time>
      </trkpt>
      <trkpt lat="44.99235" lon="3.68408">
        <ele>924</ele>
        <time>2009-07-12T08:10:42Z</time>
      </trkpt>
      <trkpt lat="44.99241" lon="3.68395">
        <ele>920</ele>
        <time>2009-07-12T08:10:50Z</time>
      </trkpt>
      <trkpt lat="44.99238" lon="3.68392">
        <ele>919</ele>
        <time>2009-07-12T08:10:52Z</time>
      </trkpt>
      <trkpt lat="44.99238" lon="3.68383">
        <ele>917</ele>
        <time>2009-07-12T08:11:02Z</time>
      </trkpt>
      <trkpt lat="44.99241" lon="3.68374">
        <ele>915</ele>
        <time>2009-07-12T08:11:14Z</time>
      </trkpt>
      <trkpt lat="44.99242" lon="3.6837">
        <ele>914</ele>
        <time>2009-07-12T08:11:25Z</time>
      </trkpt>
      <trkpt lat="44.99251" lon="3.68363">
        <ele>910</ele>
        <time>2009-07-12T08:11:30Z</time>
      </trkpt>
      <trkpt lat="44.99263" lon="3.68357">
        <ele>906</ele>
        <time>2009-07-12T08:11:35Z</time>
      </trkpt>
      <trkpt lat="44.99266" lon="3.68356">
        <ele>906</ele>
        <time>2009-07-12T08:11:36Z</time>
      </trkpt>
      <trkpt lat="44.99273" lon="3.68359">
        <ele>904</ele>
        <time>2009-07-12T08:11:39Z</time>
      </trkpt>
      <trkpt lat="44.99276" lon="3.68362">
        <ele>904</ele>
        <time>2009-07-12T08:11:40Z</time>
      </trkpt>
      <trkpt lat="44.99288" lon="3.68374">
        <ele>900</ele>
        <time>2009-07-12T08:11:46Z</time>
      </trkpt>
      <trkpt lat="44.99293" lon="3.68366">
        <ele>897</ele>
        <time>2009-07-12T08:11:51Z</time>
      </trkpt>
      <trkpt lat="44.99292" lon="3.68354">
        <ele>896</ele>
        <time>2009-07-12T08:11:53Z</time>
      </trkpt>
      <trkpt lat="44.99281" lon="3.68308">
        <ele>893</ele>
        <time>2009-07-12T08:12:02Z</time>
      </trkpt>
      <trkpt lat="44.99279" lon="3.68299">
        <ele>892</ele>
        <time>2009-07-12T08:12:04Z</time>
      </trkpt>
      <trkpt lat="44.99269" lon="3.68283">
        <ele>888</ele>
        <time>2009-07-12T08:12:09Z</time>
      </trkpt>
      <trkpt lat="44.9924" lon="3.68267">
        <ele>889</ele>
        <time>2009-07-12T08:12:21Z</time>
      </trkpt>
      <trkpt lat="44.99207" lon="3.68258">
        <ele>890</ele>
        <time>2009-07-12T08:12:34Z</time>
      </trkpt>
      <trkpt lat="44.99174" lon="3.68228">
        <ele>893</ele>
        <time>2009-07-12T08:12:48Z</time>
      </trkpt>
      <trkpt lat="44.99141" lon="3.68203">
        <ele>893</ele>
        <time>2009-07-12T08:13:01Z</time>
      </trkpt>
      <trkpt lat="44.99092" lon="3.68171">
        <ele>894</ele>
        <time>2009-07-12T08:13:18Z</time>
      </trkpt>
      <trkpt lat="44.99056" lon="3.68132">
        <ele>896</ele>
        <time>2009-07-12T08:13:33Z</time>
      </trkpt>
      <trkpt lat="44.99036" lon="3.68095">
        <ele>897</ele>
        <time>2009-07-12T08:13:46Z</time>
      </trkpt>
      <trkpt lat="44.99034" lon="3.68092">
        <ele>897</ele>
        <time>2009-07-12T08:13:48Z</time>
      </trkpt>
      <trkpt lat="44.99031" lon="3.68087">
        <ele>898</ele>
        <time>2009-07-12T08:14:06Z</time>
      </trkpt>
      <trkpt lat="44.99031" lon="3.68087">
        <ele>898</ele>
        <time>2009-07-12T08:14:51Z</time>
      </trkpt>
      <trkpt lat="44.9903" lon="3.68088">
        <ele>898</ele>
        <time>2009-07-12T08:15:21Z</time>
      </trkpt>
      <trkpt lat="44.99031" lon="3.68089">
        <ele>897</ele>
        <time>2009-07-12T08:16:56Z</time>
      </trkpt>
      <trkpt lat="44.99017" lon="3.68064">
        <ele>895</ele>
        <time>2009-07-12T08:17:15Z</time>
      </trkpt>
      <trkpt lat="44.98966" lon="3.67996">
        <ele>895</ele>
        <time>2009-07-12T08:17:33Z</time>
      </trkpt>
      <trkpt lat="44.9895" lon="3.67969">
        <ele>893</ele>
        <time>2009-07-12T08:17:38Z</time>
      </trkpt>
      <trkpt lat="44.98946" lon="3.67936">
        <ele>892</ele>
        <time>2009-07-12T08:17:44Z</time>
      </trkpt>
      <trkpt lat="44.98947" lon="3.67932">
        <ele>892</ele>
        <time>2009-07-12T08:17:45Z</time>
      </trkpt>
      <trkpt lat="44.98956" lon="3.67914">
        <ele>890</ele>
        <time>2009-07-12T08:17:50Z</time>
      </trkpt>
      <trkpt lat="44.98978" lon="3.67892">
        <ele>889</ele>
        <time>2009-07-12T08:17:56Z</time>
      </trkpt>
      <trkpt lat="44.98992" lon="3.67874">
        <ele>887</ele>
        <time>2009-07-12T08:18:00Z</time>
      </trkpt>
      <trkpt lat="44.99003" lon="3.67825">
        <ele>887</ele>
        <time>2009-07-12T08:18:11Z</time>
      </trkpt>
      <trkpt lat="44.98988" lon="3.67755">
        <ele>889</ele>
        <time>2009-07-12T08:18:28Z</time>
      </trkpt>
      <trkpt lat="44.98982" lon="3.67702">
        <ele>889</ele>
        <time>2009-07-12T08:18:43Z</time>
      </trkpt>
      <trkpt lat="44.98977" lon="3.67644">
        <ele>892</ele>
        <time>2009-07-12T08:19:00Z</time>
      </trkpt>
      <trkpt lat="44.98968" lon="3.67566">
        <ele>894</ele>
        <time>2009-07-12T08:19:20Z</time>
      </trkpt>
      <trkpt lat="44.98955" lon="3.67497">
        <ele>896</ele>
        <time>2009-07-12T08:19:37Z</time>
      </trkpt>
      <trkpt lat="44.98918" lon="3.67426">
        <ele>898</ele>
        <time>2009-07-12T08:19:59Z</time>
      </trkpt>
      <trkpt lat="44.98899" lon="3.67388">
        <ele>901</ele>
        <time>2009-07-12T08:20:12Z</time>
      </trkpt>
      <trkpt lat="44.98886" lon="3.67315">
        <ele>903</ele>
        <time>2009-07-12T08:20:31Z</time>
      </trkpt>
      <trkpt lat="44.98889" lon="3.67247">
        <ele>900</ele>
        <time>2009-07-12T08:20:46Z</time>
      </trkpt>
      <trkpt lat="44.98888" lon="3.67244">
        <ele>900</ele>
        <time>2009-07-12T08:21:01Z</time>
      </trkpt>
      <trkpt lat="44.98886" lon="3.67222">
        <ele>896</ele>
        <time>2009-07-12T08:21:09Z</time>
      </trkpt>
      <trkpt lat="44.98887" lon="3.67206">
        <ele>894</ele>
        <time>2009-07-12T08:21:13Z</time>
      </trkpt>
      <trkpt lat="44.9889" lon="3.67186">
        <ele>890</ele>
        <time>2009-07-12T08:21:18Z</time>
      </trkpt>
      <trkpt lat="44.98898" lon="3.67165">
        <ele>887</ele>
        <time>2009-07-12T08:21:23Z</time>
      </trkpt>
      <trkpt lat="44.98903" lon="3.67156">
        <ele>886</ele>
        <time>2009-07-12T08:21:25Z</time>
      </trkpt>
      <trkpt lat="44.98913" lon="3.67142">
        <ele>884</ele>
        <time>2009-07-12T08:21:29Z</time>
      </trkpt>
      <trkpt lat="44.98925" lon="3.67114">
        <ele>880</ele>
        <time>2009-07-12T08:21:36Z</time>
      </trkpt>
      <trkpt lat="44.98928" lon="3.671">
        <ele>878</ele>
        <time>2009-07-12T08:21:39Z</time>
      </trkpt>
      <trkpt lat="44.98934" lon="3.67086">
        <ele>875</ele>
        <time>2009-07-12T08:21:42Z</time>
      </trkpt>
      <trkpt lat="44.98941" lon="3.67055">
        <ele>872</ele>
        <time>2009-07-12T08:21:52Z</time>
      </trkpt>
      <trkpt lat="44.98941" lon="3.67053">
        <ele>872</ele>
        <time>2009-07-12T08:21:53Z</time>
      </trkpt>
      <trkpt lat="44.98935" lon="3.67047">
        <ele>871</ele>
        <time>2009-07-12T08:22:07Z</time>
      </trkpt>
      <trkpt lat="44.98931" lon="3.6705">
        <ele>871</ele>
        <time>2009-07-12T08:22:18Z</time>
      </trkpt>
      <trkpt lat="44.98928" lon="3.67053">
        <ele>871</ele>
        <time>2009-07-12T08:22:20Z</time>
      </trkpt>
      <trkpt lat="44.98912" lon="3.67052">
        <ele>876</ele>
        <time>2009-07-12T08:22:30Z</time>
      </trkpt>
      <trkpt lat="44.98904" lon="3.67052">
        <ele>877</ele>
        <time>2009-07-12T08:22:40Z</time>
      </trkpt>
      <trkpt lat="44.98902" lon="3.67052">
        <ele>877</ele>
        <time>2009-07-12T08:22:44Z</time>
      </trkpt>
      <trkpt lat="44.98896" lon="3.67052">
        <ele>877</ele>
        <time>2009-07-12T08:22:53Z</time>
      </trkpt>
      <trkpt lat="44.98883" lon="3.67052">
        <ele>878</ele>
        <time>2009-07-12T08:23:08Z</time>
      </trkpt>
      <trkpt lat="44.98882" lon="3.67052">
        <ele>879</ele>
        <time>2009-07-12T08:23:36Z</time>
      </trkpt>
      <trkpt lat="44.9888" lon="3.6705">
        <ele>879</ele>
        <time>2009-07-12T08:23:55Z</time>
      </trkpt>
      <trkpt lat="44.98866" lon="3.67032">
        <ele>882</ele>
        <time>2009-07-12T08:24:07Z</time>
      </trkpt>
      <trkpt lat="44.98855" lon="3.67021">
        <ele>884</ele>
        <time>2009-07-12T08:24:18Z</time>
      </trkpt>
      <trkpt lat="44.98849" lon="3.67016">
        <ele>886</ele>
        <time>2009-07-12T08:24:23Z</time>
      </trkpt>
      <trkpt lat="44.98848" lon="3.67007">
        <ele>886</ele>
        <time>2009-07-12T08:24:28Z</time>
      </trkpt>
      <trkpt lat="44.98833" lon="3.66984">
        <ele>888</ele>
        <time>2009-07-12T08:24:43Z</time>
      </trkpt>
      <trkpt lat="44.98816" lon="3.66956">
        <ele>891</ele>
        <time>2009-07-12T08:25:02Z</time>
      </trkpt>
      <trkpt lat="44.98814" lon="3.66945">
        <ele>894</ele>
        <time>2009-07-12T08:25:08Z</time>
      </trkpt>
      <trkpt lat="44.98816" lon="3.66939">
        <ele>894</ele>
        <time>2009-07-12T08:25:12Z</time>
      </trkpt>
      <trkpt lat="44.98832" lon="3.66927">
        <ele>898</ele>
        <time>2009-07-12T08:25:26Z</time>
      </trkpt>
      <trkpt lat="44.98842" lon="3.66904">
        <ele>900</ele>
        <time>2009-07-12T08:25:40Z</time>
      </trkpt>
      <trkpt lat="44.98841" lon="3.66872">
        <ele>902</ele>
        <time>2009-07-12T08:25:55Z</time>
      </trkpt>
      <trkpt lat="44.98844" lon="3.66837">
        <ele>904</ele>
        <time>2009-07-12T08:26:09Z</time>
      </trkpt>
      <trkpt lat="44.98833" lon="3.66803">
        <ele>907</ele>
        <time>2009-07-12T08:26:24Z</time>
      </trkpt>
      <trkpt lat="44.98813" lon="3.66778">
        <ele>909</ele>
        <time>2009-07-12T08:26:39Z</time>
      </trkpt>
      <trkpt lat="44.98809" lon="3.66771">
        <ele>910</ele>
        <time>2009-07-12T08:26:43Z</time>
      </trkpt>
      <trkpt lat="44.98805" lon="3.66765">
        <ele>911</ele>
        <time>2009-07-12T08:26:47Z</time>
      </trkpt>
      <trkpt lat="44.98801" lon="3.66758">
        <ele>913</ele>
        <time>2009-07-12T08:26:51Z</time>
      </trkpt>
      <trkpt lat="44.98784" lon="3.66732">
        <ele>915</ele>
        <time>2009-07-12T08:27:06Z</time>
      </trkpt>
      <trkpt lat="44.98781" lon="3.66722">
        <ele>917</ele>
        <time>2009-07-12T08:27:11Z</time>
      </trkpt>
      <trkpt lat="44.9878" lon="3.66708">
        <ele>920</ele>
        <time>2009-07-12T08:27:19Z</time>
      </trkpt>
      <trkpt lat="44.98785" lon="3.66678">
        <ele>923</ele>
        <time>2009-07-12T08:27:36Z</time>
      </trkpt>
      <trkpt lat="44.98792" lon="3.66656">
        <ele>926</ele>
        <time>2009-07-12T08:27:50Z</time>
      </trkpt>
      <trkpt lat="44.98787" lon="3.66631">
        <ele>927</ele>
        <time>2009-07-12T08:28:04Z</time>
      </trkpt>
      <trkpt lat="44.98783" lon="3.66622">
        <ele>928</ele>
        <time>2009-07-12T08:28:18Z</time>
      </trkpt>
      <trkpt lat="44.98783" lon="3.6662">
        <ele>928</ele>
        <time>2009-07-12T08:28:55Z</time>
      </trkpt>
      <trkpt lat="44.98782" lon="3.66619">
        <ele>928</ele>
        <time>2009-07-12T08:29:33Z</time>
      </trkpt>
      <trkpt lat="44.98783" lon="3.66618">
        <ele>928</ele>
        <time>2009-07-12T08:30:06Z</time>
      </trkpt>
      <trkpt lat="44.98784" lon="3.66616">
        <ele>929</ele>
        <time>2009-07-12T08:30:36Z</time>
      </trkpt>
      <trkpt lat="44.98772" lon="3.66584">
        <ele>929</ele>
        <time>2009-07-12T08:30:49Z</time>
      </trkpt>
      <trkpt lat="44.98762" lon="3.66528">
        <ele>930</ele>
        <time>2009-07-12T08:31:06Z</time>
      </trkpt>
      <trkpt lat="44.98729" lon="3.66469">
        <ele>931</ele>
        <time>2009-07-12T08:31:26Z</time>
      </trkpt>
      <trkpt lat="44.98702" lon="3.66452">
        <ele>931</ele>
        <time>2009-07-12T08:31:38Z</time>
      </trkpt>
      <trkpt lat="44.987" lon="3.6645">
        <ele>931</ele>
        <time>2009-07-12T08:32:00Z</time>
      </trkpt>
      <trkpt lat="44.98702" lon="3.6645">
        <ele>932</ele>
        <time>2009-07-12T08:32:46Z</time>
      </trkpt>
      <trkpt lat="44.987" lon="3.66449">
        <ele>931</ele>
        <time>2009-07-12T08:33:10Z</time>
      </trkpt>
      <trkpt lat="44.98672" lon="3.66426">
        <ele>933</ele>
        <time>2009-07-12T08:33:26Z</time>
      </trkpt>
      <trkpt lat="44.98634" lon="3.66411">
        <ele>935</ele>
        <time>2009-07-12T08:33:43Z</time>
      </trkpt>
      <trkpt lat="44.98609" lon="3.66397">
        <ele>937</ele>
        <time>2009-07-12T08:33:56Z</time>
      </trkpt>
      <trkpt lat="44.98601" lon="3.66395">
        <ele>938</ele>
        <time>2009-07-12T08:34:00Z</time>
      </trkpt>
      <trkpt lat="44.9859" lon="3.66386">
        <ele>942</ele>
        <time>2009-07-12T08:34:08Z</time>
      </trkpt>
      <trkpt lat="44.98589" lon="3.66384">
        <ele>944</ele>
        <time>2009-07-12T08:34:09Z</time>
      </trkpt>
      <trkpt lat="44.98578" lon="3.66372">
        <ele>946</ele>
        <time>2009-07-12T08:34:19Z</time>
      </trkpt>
      <trkpt lat="44.98576" lon="3.66348">
        <ele>948</ele>
        <time>2009-07-12T08:34:32Z</time>
      </trkpt>
      <trkpt lat="44.98571" lon="3.66317">
        <ele>951</ele>
        <time>2009-07-12T08:34:46Z</time>
      </trkpt>
      <trkpt lat="44.98567" lon="3.66295">
        <ele>953</ele>
        <time>2009-07-12T08:34:54Z</time>
      </trkpt>
      <trkpt lat="44.98565" lon="3.66283">
        <ele>951</ele>
        <time>2009-07-12T08:34:57Z</time>
      </trkpt>
      <trkpt lat="44.98563" lon="3.66247">
        <ele>949</ele>
        <time>2009-07-12T08:35:08Z</time>
      </trkpt>
      <trkpt lat="44.98577" lon="3.66228">
        <ele>949</ele>
        <time>2009-07-12T08:35:18Z</time>
      </trkpt>
      <trkpt lat="44.98601" lon="3.66191">
        <ele>948</ele>
        <time>2009-07-12T08:35:30Z</time>
      </trkpt>
      <trkpt lat="44.98615" lon="3.6617">
        <ele>947</ele>
        <time>2009-07-12T08:35:35Z</time>
      </trkpt>
      <trkpt lat="44.98623" lon="3.66156">
        <ele>946</ele>
        <time>2009-07-12T08:35:38Z</time>
      </trkpt>
      <trkpt lat="44.98635" lon="3.66092">
        <ele>948</ele>
        <time>2009-07-12T08:35:52Z</time>
      </trkpt>
      <trkpt lat="44.98634" lon="3.66038">
        <ele>949</ele>
        <time>2009-07-12T08:36:04Z</time>
      </trkpt>
      <trkpt lat="44.98639" lon="3.65949">
        <ele>949</ele>
        <time>2009-07-12T08:36:21Z</time>
      </trkpt>
      <trkpt lat="44.98637" lon="3.65897">
        <ele>947</ele>
        <time>2009-07-12T08:36:29Z</time>
      </trkpt>
      <trkpt lat="44.98619" lon="3.65861">
        <ele>947</ele>
        <time>2009-07-12T08:36:35Z</time>
      </trkpt>
      <trkpt lat="44.98563" lon="3.65824">
        <ele>948</ele>
        <time>2009-07-12T08:36:50Z</time>
      </trkpt>
      <trkpt lat="44.98516" lon="3.65783">
        <ele>948</ele>
        <time>2009-07-12T08:37:05Z</time>
      </trkpt>
      <trkpt lat="44.98501" lon="3.65766">
        <ele>949</ele>
        <time>2009-07-12T08:37:12Z</time>
      </trkpt>
      <trkpt lat="44.98505" lon="3.65777">
        <ele>949</ele>
        <time>2009-07-12T08:37:23Z</time>
      </trkpt>
      <trkpt lat="44.98502" lon="3.65774">
        <ele>949</ele>
        <time>2009-07-12T08:37:26Z</time>
      </trkpt>
      <trkpt lat="44.98502" lon="3.65763">
        <ele>950</ele>
        <time>2009-07-12T08:37:31Z</time>
      </trkpt>
      <trkpt lat="44.98499" lon="3.65729">
        <ele>952</ele>
        <time>2009-07-12T08:37:44Z</time>
      </trkpt>
      <trkpt lat="44.98503" lon="3.65682">
        <ele>952</ele>
        <time>2009-07-12T08:37:57Z</time>
      </trkpt>
      <trkpt lat="44.98507" lon="3.65667">
        <ele>952</ele>
        <time>2009-07-12T08:38:01Z</time>
      </trkpt>
      <trkpt lat="44.98502" lon="3.65607">
        <ele>951</ele>
        <time>2009-07-12T08:38:12Z</time>
      </trkpt>
      <trkpt lat="44.98504" lon="3.65524">
        <ele>951</ele>
        <time>2009-07-12T08:38:28Z</time>
      </trkpt>
      <trkpt lat="44.98507" lon="3.65496">
        <ele>947</ele>
        <time>2009-07-12T08:38:32Z</time>
      </trkpt>
      <trkpt lat="44.98507" lon="3.65487">
        <ele>947</ele>
        <time>2009-07-12T08:38:33Z</time>
      </trkpt>
      <trkpt lat="44.98518" lon="3.65434">
        <ele>947</ele>
        <time>2009-07-12T08:38:40Z</time>
      </trkpt>
      <trkpt lat="44.98526" lon="3.6541">
        <ele>947</ele>
        <time>2009-07-12T08:38:44Z</time>
      </trkpt>
      <trkpt lat="44.98536" lon="3.65392">
        <ele>947</ele>
        <time>2009-07-12T08:38:48Z</time>
      </trkpt>
      <trkpt lat="44.98548" lon="3.65372">
        <ele>948</ele>
        <time>2009-07-12T08:38:56Z</time>
      </trkpt>
      <trkpt lat="44.98553" lon="3.65355">
        <ele>946</ele>
        <time>2009-07-12T08:39:04Z</time>
      </trkpt>
      <trkpt lat="44.98575" lon="3.65325">
        <ele>944</ele>
        <time>2009-07-12T08:39:15Z</time>
      </trkpt>
      <trkpt lat="44.98595" lon="3.65296">
        <ele>940</ele>
        <time>2009-07-12T08:39:24Z</time>
      </trkpt>
      <trkpt lat="44.98599" lon="3.65292">
        <ele>940</ele>
        <time>2009-07-12T08:39:25Z</time>
      </trkpt>
      <trkpt lat="44.98612" lon="3.65275">
        <ele>937</ele>
        <time>2009-07-12T08:39:31Z</time>
      </trkpt>
      <trkpt lat="44.98619" lon="3.65268">
        <ele>936</ele>
        <time>2009-07-12T08:39:33Z</time>
      </trkpt>
      <trkpt lat="44.98639" lon="3.65235">
        <ele>934</ele>
        <time>2009-07-12T08:39:41Z</time>
      </trkpt>
      <trkpt lat="44.98622" lon="3.65189">
        <ele>933</ele>
        <time>2009-07-12T08:39:51Z</time>
      </trkpt>
      <trkpt lat="44.98605" lon="3.65143">
        <ele>934</ele>
        <time>2009-07-12T08:40:03Z</time>
      </trkpt>
      <trkpt lat="44.98601" lon="3.65104">
        <ele>937</ele>
        <time>2009-07-12T08:40:13Z</time>
      </trkpt>
      <trkpt lat="44.98603" lon="3.65063">
        <ele>938</ele>
        <time>2009-07-12T08:40:24Z</time>
      </trkpt>
      <trkpt lat="44.98613" lon="3.65005">
        <ele>940</ele>
        <time>2009-07-12T08:40:39Z</time>
      </trkpt>
      <trkpt lat="44.98619" lon="3.64959">
        <ele>941</ele>
        <time>2009-07-12T08:40:50Z</time>
      </trkpt>
      <trkpt lat="44.98624" lon="3.64922">
        <ele>944</ele>
        <time>2009-07-12T08:41:02Z</time>
      </trkpt>
      <trkpt lat="44.98622" lon="3.64894">
        <ele>946</ele>
        <time>2009-07-12T08:41:11Z</time>
      </trkpt>
      <trkpt lat="44.98621" lon="3.64886">
        <ele>948</ele>
        <time>2009-07-12T08:41:14Z</time>
      </trkpt>
      <trkpt lat="44.98619" lon="3.64849">
        <ele>951</ele>
        <time>2009-07-12T08:41:27Z</time>
      </trkpt>
      <trkpt lat="44.98625" lon="3.64832">
        <ele>952</ele>
        <time>2009-07-12T08:41:36Z</time>
      </trkpt>
      <trkpt lat="44.98627" lon="3.64823">
        <ele>951</ele>
        <time>2009-07-12T08:41:40Z</time>
      </trkpt>
      <trkpt lat="44.98623" lon="3.64802">
        <ele>949</ele>
        <time>2009-07-12T08:41:46Z</time>
      </trkpt>
      <trkpt lat="44.98621" lon="3.6479">
        <ele>948</ele>
        <time>2009-07-12T08:41:50Z</time>
      </trkpt>
      <trkpt lat="44.98619" lon="3.64787">
        <ele>948</ele>
        <time>2009-07-12T08:42:01Z</time>
      </trkpt>
      <trkpt lat="44.98612" lon="3.64783">
        <ele>948</ele>
        <time>2009-07-12T08:42:14Z</time>
      </trkpt>
      <trkpt lat="44.98611" lon="3.64784">
        <ele>948</ele>
        <time>2009-07-12T08:42:31Z</time>
      </trkpt>
      <trkpt lat="44.98615" lon="3.64787">
        <ele>948</ele>
        <time>2009-07-12T08:42:58Z</time>
      </trkpt>
      <trkpt lat="44.98616" lon="3.64787">
        <ele>948</ele>
        <time>2009-07-12T08:43:04Z</time>
      </trkpt>
      <trkpt lat="44.98611" lon="3.64778">
        <ele>948</ele>
        <time>2009-07-12T08:43:09Z</time>
      </trkpt>
      <trkpt lat="44.98588" lon="3.64756">
        <ele>951</ele>
        <time>2009-07-12T08:43:25Z</time>
      </trkpt>
      <trkpt lat="44.98585" lon="3.64755">
        <ele>951</ele>
        <time>2009-07-12T08:43:27Z</time>
      </trkpt>
      <trkpt lat="44.98575" lon="3.64742">
        <ele>955</ele>
        <time>2009-07-12T08:43:36Z</time>
      </trkpt>
      <trkpt lat="44.98574" lon="3.64742">
        <ele>956</ele>
        <time>2009-07-12T08:43:37Z</time>
      </trkpt>
      <trkpt lat="44.98567" lon="3.64737">
        <ele>958</ele>
        <time>2009-07-12T08:43:42Z</time>
      </trkpt>
      <trkpt lat="44.98561" lon="3.64728">
        <ele>959</ele>
        <time>2009-07-12T08:43:54Z</time>
      </trkpt>
      <trkpt lat="44.98562" lon="3.64729">
        <ele>958</ele>
        <time>2009-07-12T08:44:24Z</time>
      </trkpt>
      <trkpt lat="44.98563" lon="3.64732">
        <ele>958</ele>
        <time>2009-07-12T08:45:53Z</time>
      </trkpt>
      <trkpt lat="44.98563" lon="3.64732">
        <ele>958</ele>
        <time>2009-07-12T08:47:09Z</time>
      </trkpt>
      <trkpt lat="44.98563" lon="3.64732">
        <ele>958</ele>
        <time>2009-07-12T08:47:57Z</time>
      </trkpt>
      <trkpt lat="44.98564" lon="3.64738">
        <ele>958</ele>
        <time>2009-07-12T08:48:11Z</time>
      </trkpt>
      <trkpt lat="44.98565" lon="3.64739">
        <ele>958</ele>
        <time>2009-07-12T08:48:19Z</time>
      </trkpt>
      <trkpt lat="44.98574" lon="3.64746">
        <ele>956</ele>
        <time>2009-07-12T08:48:24Z</time>
      </trkpt>
      <trkpt lat="44.98593" lon="3.64762">
        <ele>952</ele>
        <time>2009-07-12T08:48:29Z</time>
      </trkpt>
      <trkpt lat="44.98594" lon="3.64765">
        <ele>952</ele>
        <time>2009-07-12T08:48:30Z</time>
      </trkpt>
      <trkpt lat="44.98598" lon="3.64764">
        <ele>951</ele>
        <time>2009-07-12T08:48:33Z</time>
      </trkpt>
      <trkpt lat="44.98599" lon="3.64769">
        <ele>951</ele>
        <time>2009-07-12T08:48:37Z</time>
      </trkpt>
      <trkpt lat="44.9859" lon="3.64788">
        <ele>948</ele>
        <time>2009-07-12T08:48:42Z</time>
      </trkpt>
      <trkpt lat="44.9856" lon="3.64779">
        <ele>945</ele>
        <time>2009-07-12T08:48:51Z</time>
      </trkpt>
      <trkpt lat="44.98536" lon="3.64754">
        <ele>944</ele>
        <time>2009-07-12T08:49:00Z</time>
      </trkpt>
      <trkpt lat="44.98521" lon="3.64743">
        <ele>941</ele>
        <time>2009-07-12T08:49:05Z</time>
      </trkpt>
      <trkpt lat="44.98518" lon="3.64741">
        <ele>940</ele>
        <time>2009-07-12T08:49:06Z</time>
      </trkpt>
      <trkpt lat="44.98507" lon="3.64735">
        <ele>937</ele>
        <time>2009-07-12T08:49:14Z</time>
      </trkpt>
      <trkpt lat="44.985" lon="3.6474">
        <ele>933</ele>
        <time>2009-07-12T08:49:17Z</time>
      </trkpt>
      <trkpt lat="44.9849" lon="3.64746">
        <ele>930</ele>
        <time>2009-07-12T08:49:20Z</time>
      </trkpt>
      <trkpt lat="44.98469" lon="3.64746">
        <ele>927</ele>
        <time>2009-07-12T08:49:25Z</time>
      </trkpt>
      <trkpt lat="44.98444" lon="3.6475">
        <ele>925</ele>
        <time>2009-07-12T08:49:33Z</time>
      </trkpt>
      <trkpt lat="44.98434" lon="3.64748">
        <ele>922</ele>
        <time>2009-07-12T08:49:38Z</time>
      </trkpt>
      <trkpt lat="44.9843" lon="3.64748">
        <ele>919</ele>
        <time>2009-07-12T08:49:40Z</time>
      </trkpt>
      <trkpt lat="44.98425" lon="3.64749">
        <ele>917</ele>
        <time>2009-07-12T08:49:43Z</time>
      </trkpt>
      <trkpt lat="44.98422" lon="3.6475">
        <ele>916</ele>
        <time>2009-07-12T08:49:46Z</time>
      </trkpt>
      <trkpt lat="44.98409" lon="3.6475">
        <ele>913</ele>
        <time>2009-07-12T08:49:52Z</time>
      </trkpt>
      <trkpt lat="44.98406" lon="3.64749">
        <ele>912</ele>
        <time>2009-07-12T08:49:53Z</time>
      </trkpt>
      <trkpt lat="44.98376" lon="3.6475">
        <ele>910</ele>
        <time>2009-07-12T08:50:01Z</time>
      </trkpt>
      <trkpt lat="44.98346" lon="3.64754">
        <ele>908</ele>
        <time>2009-07-12T08:50:10Z</time>
      </trkpt>
      <trkpt lat="44.98344" lon="3.64754">
        <ele>908</ele>
        <time>2009-07-12T08:50:11Z</time>
      </trkpt>
      <trkpt lat="44.98337" lon="3.64751">
        <ele>906</ele>
        <time>2009-07-12T08:50:26Z</time>
      </trkpt>
      <trkpt lat="44.98333" lon="3.64749">
        <ele>904</ele>
        <time>2009-07-12T08:50:46Z</time>
      </trkpt>
      <trkpt lat="44.9833" lon="3.64752">
        <ele>903</ele>
        <time>2009-07-12T08:50:50Z</time>
      </trkpt>
      <trkpt lat="44.98324" lon="3.64749">
        <ele>903</ele>
        <time>2009-07-12T08:51:02Z</time>
      </trkpt>
      <trkpt lat="44.98321" lon="3.64744">
        <ele>903</ele>
        <time>2009-07-12T08:51:06Z</time>
      </trkpt>
      <trkpt lat="44.98316" lon="3.64737">
        <ele>902</ele>
        <time>2009-07-12T08:51:17Z</time>
      </trkpt>
      <trkpt lat="44.9831" lon="3.64732">
        <ele>899</ele>
        <time>2009-07-12T08:51:41Z</time>
      </trkpt>
      <trkpt lat="44.98304" lon="3.64735">
        <ele>897</ele>
        <time>2009-07-12T08:51:52Z</time>
      </trkpt>
      <trkpt lat="44.98302" lon="3.64742">
        <ele>895</ele>
        <time>2009-07-12T08:52:06Z</time>
      </trkpt>
      <trkpt lat="44.98299" lon="3.64739">
        <ele>894</ele>
        <time>2009-07-12T08:52:13Z</time>
      </trkpt>
      <trkpt lat="44.98293" lon="3.6474">
        <ele>892</ele>
        <time>2009-07-12T08:52:25Z</time>
      </trkpt>
      <trkpt lat="44.98288" lon="3.6474">
        <ele>890</ele>
        <time>2009-07-12T08:52:36Z</time>
      </trkpt>
      <trkpt lat="44.98279" lon="3.64742">
        <ele>887</ele>
        <time>2009-07-12T08:52:45Z</time>
      </trkpt>
      <trkpt lat="44.98276" lon="3.64743">
        <ele>886</ele>
        <time>2009-07-12T08:52:48Z</time>
      </trkpt>
      <trkpt lat="44.98272" lon="3.64755">
        <ele>884</ele>
        <time>2009-07-12T08:52:59Z</time>
      </trkpt>
      <trkpt lat="44.98271" lon="3.64762">
        <ele>883</ele>
        <time>2009-07-12T08:53:11Z</time>
      </trkpt>
      <trkpt lat="44.98269" lon="3.64761">
        <ele>884</ele>
        <time>2009-07-12T08:53:18Z</time>
      </trkpt>
      <trkpt lat="44.98266" lon="3.6476">
        <ele>882</ele>
        <time>2009-07-12T08:53:20Z</time>
      </trkpt>
      <trkpt lat="44.9826" lon="3.64757">
        <ele>881</ele>
        <time>2009-07-12T08:53:22Z</time>
      </trkpt>
      <trkpt lat="44.98257" lon="3.64757">
        <ele>879</ele>
        <time>2009-07-12T08:53:23Z</time>
      </trkpt>
      <trkpt lat="44.98252" lon="3.64756">
        <ele>877</ele>
        <time>2009-07-12T08:53:25Z</time>
      </trkpt>
      <trkpt lat="44.98241" lon="3.64753">
        <ele>874</ele>
        <time>2009-07-12T08:53:30Z</time>
      </trkpt>
      <trkpt lat="44.98219" lon="3.64754">
        <ele>872</ele>
        <time>2009-07-12T08:53:38Z</time>
      </trkpt>
      <trkpt lat="44.98218" lon="3.64751">
        <ele>872</ele>
        <time>2009-07-12T08:53:55Z</time>
      </trkpt>
      <trkpt lat="44.98215" lon="3.64751">
        <ele>870</ele>
        <time>2009-07-12T08:54:20Z</time>
      </trkpt>
      <trkpt lat="44.98223" lon="3.64751">
        <ele>870</ele>
        <time>2009-07-12T08:54:51Z</time>
      </trkpt>
      <trkpt lat="44.98225" lon="3.6475">
        <ele>871</ele>
        <time>2009-07-12T08:55:04Z</time>
      </trkpt>
      <trkpt lat="44.9822" lon="3.64755">
        <ele>872</ele>
        <time>2009-07-12T08:57:09Z</time>
      </trkpt>
      <trkpt lat="44.98218" lon="3.64756">
        <ele>872</ele>
        <time>2009-07-12T08:58:51Z</time>
      </trkpt>
      <trkpt lat="44.98213" lon="3.64758">
        <ele>871</ele>
        <time>2009-07-12T08:58:54Z</time>
      </trkpt>
      <trkpt lat="44.98204" lon="3.64758">
        <ele>870</ele>
        <time>2009-07-12T08:58:58Z</time>
      </trkpt>
      <trkpt lat="44.982" lon="3.64766">
        <ele>868</ele>
        <time>2009-07-12T08:59:02Z</time>
      </trkpt>
      <trkpt lat="44.98197" lon="3.64781">
        <ele>864</ele>
        <time>2009-07-12T08:59:07Z</time>
      </trkpt>
      <trkpt lat="44.98196" lon="3.64784">
        <ele>864</ele>
        <time>2009-07-12T08:59:08Z</time>
      </trkpt>
      <trkpt lat="44.98183" lon="3.64776">
        <ele>861</ele>
        <time>2009-07-12T08:59:13Z</time>
      </trkpt>
      <trkpt lat="44.98169" lon="3.64766">
        <ele>856</ele>
        <time>2009-07-12T08:59:18Z</time>
      </trkpt>
      <trkpt lat="44.98167" lon="3.64763">
        <ele>856</ele>
        <time>2009-07-12T08:59:19Z</time>
      </trkpt>
      <trkpt lat="44.98165" lon="3.6476">
        <ele>856</ele>
        <time>2009-07-12T08:59:21Z</time>
      </trkpt>
      <trkpt lat="44.98162" lon="3.64759">
        <ele>855</ele>
        <time>2009-07-12T08:59:24Z</time>
      </trkpt>
      <trkpt lat="44.98152" lon="3.6476">
        <ele>852</ele>
        <time>2009-07-12T08:59:28Z</time>
      </trkpt>
      <trkpt lat="44.98145" lon="3.64765">
        <ele>849</ele>
        <time>2009-07-12T08:59:32Z</time>
      </trkpt>
      <trkpt lat="44.98139" lon="3.64766">
        <ele>849</ele>
        <time>2009-07-12T08:59:41Z</time>
      </trkpt>
      <trkpt lat="44.98136" lon="3.64762">
        <ele>849</ele>
        <time>2009-07-12T08:59:56Z</time>
      </trkpt>
      <trkpt lat="44.98135" lon="3.64761">
        <ele>849</ele>
        <time>2009-07-12T08:59:59Z</time>
      </trkpt>
      <trkpt lat="44.98132" lon="3.64755">
        <ele>848</ele>
        <time>2009-07-12T09:00:12Z</time>
      </trkpt>
      <trkpt lat="44.98132" lon="3.64758">
        <ele>848</ele>
        <time>2009-07-12T09:00:28Z</time>
      </trkpt>
      <trkpt lat="44.98131" lon="3.64759">
        <ele>848</ele>
        <time>2009-07-12T09:00:57Z</time>
      </trkpt>
      <trkpt lat="44.98128" lon="3.64756">
        <ele>848</ele>
        <time>2009-07-12T09:01:46Z</time>
      </trkpt>
      <trkpt lat="44.98132" lon="3.64756">
        <ele>846</ele>
        <time>2009-07-12T09:02:34Z</time>
      </trkpt>
      <trkpt lat="44.98131" lon="3.64757">
        <ele>846</ele>
        <time>2009-07-12T09:02:48Z</time>
      </trkpt>
      <trkpt lat="44.98131" lon="3.64743">
        <ele>846</ele>
        <time>2009-07-12T09:02:53Z</time>
      </trkpt>
      <trkpt lat="44.98124" lon="3.64748">
        <ele>843</ele>
        <time>2009-07-12T09:03:01Z</time>
      </trkpt>
      <trkpt lat="44.9812" lon="3.64754">
        <ele>841</ele>
        <time>2009-07-12T09:03:14Z</time>
      </trkpt>
      <trkpt lat="44.98116" lon="3.64763">
        <ele>839</ele>
        <time>2009-07-12T09:03:24Z</time>
      </trkpt>
      <trkpt lat="44.98113" lon="3.64767">
        <ele>837</ele>
        <time>2009-07-12T09:03:27Z</time>
      </trkpt>
      <trkpt lat="44.98112" lon="3.64769">
        <ele>836</ele>
        <time>2009-07-12T09:03:28Z</time>
      </trkpt>
      <trkpt lat="44.98109" lon="3.64775">
        <ele>835</ele>
        <time>2009-07-12T09:03:30Z</time>
      </trkpt>
      <trkpt lat="44.98103" lon="3.64772">
        <ele>834</ele>
        <time>2009-07-12T09:03:32Z</time>
      </trkpt>
      <trkpt lat="44.98089" lon="3.64767">
        <ele>830</ele>
        <time>2009-07-12T09:03:37Z</time>
      </trkpt>
      <trkpt lat="44.98074" lon="3.64773">
        <ele>828</ele>
        <time>2009-07-12T09:03:44Z</time>
      </trkpt>
      <trkpt lat="44.98066" lon="3.64779">
        <ele>826</ele>
        <time>2009-07-12T09:03:48Z</time>
      </trkpt>
      <trkpt lat="44.98051" lon="3.64795">
        <ele>823</ele>
        <time>2009-07-12T09:03:55Z</time>
      </trkpt>
      <trkpt lat="44.98049" lon="3.64798">
        <ele>822</ele>
        <time>2009-07-12T09:03:56Z</time>
      </trkpt>
      <trkpt lat="44.98038" lon="3.64812">
        <ele>818</ele>
        <time>2009-07-12T09:04:01Z</time>
      </trkpt>
      <trkpt lat="44.98022" lon="3.64827">
        <ele>814</ele>
        <time>2009-07-12T09:04:08Z</time>
      </trkpt>
      <trkpt lat="44.98011" lon="3.64839">
        <ele>810</ele>
        <time>2009-07-12T09:04:12Z</time>
      </trkpt>
      <trkpt lat="44.98004" lon="3.64843">
        <ele>809</ele>
        <time>2009-07-12T09:04:14Z</time>
      </trkpt>
      <trkpt lat="44.97976" lon="3.6486">
        <ele>807</ele>
        <time>2009-07-12T09:04:23Z</time>
      </trkpt>
      <trkpt lat="44.97966" lon="3.64864">
        <ele>805</ele>
        <time>2009-07-12T09:04:26Z</time>
      </trkpt>
      <trkpt lat="44.97945" lon="3.64877">
        <ele>800</ele>
        <time>2009-07-12T09:04:33Z</time>
      </trkpt>
      <trkpt lat="44.97934" lon="3.64879">
        <ele>801</ele>
        <time>2009-07-12T09:04:38Z</time>
      </trkpt>
      <trkpt lat="44.97925" lon="3.64879">
        <ele>801</ele>
        <time>2009-07-12T09:04:52Z</time>
      </trkpt>
      <trkpt lat="44.9792" lon="3.64881">
        <ele>799</ele>
        <time>2009-07-12T09:05:01Z</time>
      </trkpt>
      <trkpt lat="44.97915" lon="3.64887">
        <ele>796</ele>
        <time>2009-07-12T09:05:09Z</time>
      </trkpt>
      <trkpt lat="44.97916" lon="3.64889">
        <ele>796</ele>
        <time>2009-07-12T09:08:15Z</time>
      </trkpt>
      <trkpt lat="44.97905" lon="3.64893">
        <ele>793</ele>
        <time>2009-07-12T09:08:20Z</time>
      </trkpt>
      <trkpt lat="44.979" lon="3.64893">
        <ele>791</ele>
        <time>2009-07-12T09:08:22Z</time>
      </trkpt>
      <trkpt lat="44.97892" lon="3.64894">
        <ele>790</ele>
        <time>2009-07-12T09:08:25Z</time>
      </trkpt>
      <trkpt lat="44.97879" lon="3.64893">
        <ele>788</ele>
        <time>2009-07-12T09:08:36Z</time>
      </trkpt>
      <trkpt lat="44.97877" lon="3.64895">
        <ele>786</ele>
        <time>2009-07-12T09:08:40Z</time>
      </trkpt>
      <trkpt lat="44.97871" lon="3.64896">
        <ele>784</ele>
        <time>2009-07-12T09:08:44Z</time>
      </trkpt>
      <trkpt lat="44.9786" lon="3.64888">
        <ele>783</ele>
        <time>2009-07-12T09:08:52Z</time>
      </trkpt>
      <trkpt lat="44.97857" lon="3.64881">
        <ele>783</ele>
        <time>2009-07-12T09:09:02Z</time>
      </trkpt>
      <trkpt lat="44.97854" lon="3.64882">
        <ele>781</ele>
        <time>2009-07-12T09:09:11Z</time>
      </trkpt>
      <trkpt lat="44.97853" lon="3.64881">
        <ele>781</ele>
        <time>2009-07-12T09:09:14Z</time>
      </trkpt>
      <trkpt lat="44.97852" lon="3.64879">
        <ele>781</ele>
        <time>2009-07-12T09:09:16Z</time>
      </trkpt>
      <trkpt lat="44.97839" lon="3.64879">
        <ele>780</ele>
        <time>2009-07-12T09:09:26Z</time>
      </trkpt>
      <trkpt lat="44.97836" lon="3.64878">
        <ele>779</ele>
        <time>2009-07-12T09:09:42Z</time>
      </trkpt>
      <trkpt lat="44.97838" lon="3.6488">
        <ele>779</ele>
        <time>2009-07-12T09:09:59Z</time>
      </trkpt>
      <trkpt lat="44.97837" lon="3.64878">
        <ele>778</ele>
        <time>2009-07-12T09:10:33Z</time>
      </trkpt>
      <trkpt lat="44.97838" lon="3.64875">
        <ele>778</ele>
        <time>2009-07-12T09:11:06Z</time>
      </trkpt>
      <trkpt lat="44.97839" lon="3.64875">
        <ele>777</ele>
        <time>2009-07-12T09:11:39Z</time>
      </trkpt>
      <trkpt lat="44.97838" lon="3.64876">
        <ele>778</ele>
        <time>2009-07-12T09:11:53Z</time>
      </trkpt>
      <trkpt lat="44.97837" lon="3.64874">
        <ele>775</ele>
        <time>2009-07-12T09:12:24Z</time>
      </trkpt>
      <trkpt lat="44.97837" lon="3.64874">
        <ele>779</ele>
        <time>2009-07-12T09:12:25Z</time>
      </trkpt>
      <trkpt lat="44.97837" lon="3.64874">
        <ele>783</ele>
        <time>2009-07-12T09:12:26Z</time>
      </trkpt>
      <trkpt lat="44.97837" lon="3.64874">
        <ele>779</ele>
        <time>2009-07-12T09:12:27Z</time>
      </trkpt>
      <trkpt lat="44.97836" lon="3.64874">
        <ele>775</ele>
        <time>2009-07-12T09:12:37Z</time>
      </trkpt>
      <trkpt lat="44.97836" lon="3.64874">
        <ele>779</ele>
        <time>2009-07-12T09:12:38Z</time>
      </trkpt>
      <trkpt lat="44.97836" lon="3.64874">
        <ele>783</ele>
        <time>2009-07-12T09:12:39Z</time>
      </trkpt>
      <trkpt lat="44.97836" lon="3.64874">
        <ele>776</ele>
        <time>2009-07-12T09:12:40Z</time>
      </trkpt>
      <trkpt lat="44.97836" lon="3.64874">
        <ele>780</ele>
        <time>2009-07-12T09:12:43Z</time>
      </trkpt>
      <trkpt lat="44.97839" lon="3.64877">
        <ele>779</ele>
        <time>2009-07-12T09:13:31Z</time>
      </trkpt>
      <trkpt lat="44.97839" lon="3.64877">
        <ele>778</ele>
        <time>2009-07-12T09:13:39Z</time>
      </trkpt>
      <trkpt lat="44.97841" lon="3.64876">
        <ele>778</ele>
        <time>2009-07-12T09:15:40Z</time>
      </trkpt>
      <trkpt lat="44.97834" lon="3.64874">
        <ele>777</ele>
        <time>2009-07-12T09:16:23Z</time>
      </trkpt>
      <trkpt lat="44.97845" lon="3.64882">
        <ele>776</ele>
        <time>2009-07-12T09:17:53Z</time>
      </trkpt>
      <trkpt lat="44.97841" lon="3.64883">
        <ele>776</ele>
        <time>2009-07-12T09:19:53Z</time>
      </trkpt>
      <trkpt lat="44.9784" lon="3.64883">
        <ele>777</ele>
        <time>2009-07-12T09:23:15Z</time>
      </trkpt>
      <trkpt lat="44.9784" lon="3.64874">
        <ele>778</ele>
        <time>2009-07-12T09:23:54Z</time>
      </trkpt>
      <trkpt lat="44.97841" lon="3.64872">
        <ele>778</ele>
        <time>2009-07-12T09:23:56Z</time>
      </trkpt>
      <trkpt lat="44.9784" lon="3.64869">
        <ele>778</ele>
        <time>2009-07-12T09:23:58Z</time>
      </trkpt>
      <trkpt lat="44.97831" lon="3.64861">
        <ele>778</ele>
        <time>2009-07-12T09:24:10Z</time>
      </trkpt>
      <trkpt lat="44.97831" lon="3.64862">
        <ele>779</ele>
        <time>2009-07-12T09:24:11Z</time>
      </trkpt>
      <trkpt lat="44.97836" lon="3.64865">
        <ele>778</ele>
        <time>2009-07-12T09:24:22Z</time>
      </trkpt>
      <trkpt lat="44.97835" lon="3.6487">
        <ele>778</ele>
        <time>2009-07-12T09:24:28Z</time>
      </trkpt>
      <trkpt lat="44.97836" lon="3.64877">
        <ele>778</ele>
        <time>2009-07-12T09:24:44Z</time>
      </trkpt>
      <trkpt lat="44.97837" lon="3.64878">
        <ele>778</ele>
        <time>2009-07-12T09:24:46Z</time>
      </trkpt>
      <trkpt lat="44.97839" lon="3.64877">
        <ele>778</ele>
        <time>2009-07-12T09:24:50Z</time>
      </trkpt>
      <trkpt lat="44.97837" lon="3.64878">
        <ele>779</ele>
        <time>2009-07-12T09:24:57Z</time>
      </trkpt>
      <trkpt lat="44.97838" lon="3.6488">
        <ele>777</ele>
        <time>2009-07-12T09:25:11Z</time>
      </trkpt>
      <trkpt lat="44.9784" lon="3.64878">
        <ele>777</ele>
        <time>2009-07-12T09:25:22Z</time>
      </trkpt>
      <trkpt lat="44.97839" lon="3.64881">
        <ele>778</ele>
        <time>2009-07-12T09:25:26Z</time>
      </trkpt>
      <trkpt lat="44.9784" lon="3.64883">
        <ele>778</ele>
        <time>2009-07-12T09:25:41Z</time>
      </trkpt>
      <trkpt lat="44.97844" lon="3.64884">
        <ele>777</ele>
        <time>2009-07-12T09:26:08Z</time>
      </trkpt>
      <trkpt lat="44.9785" lon="3.6489">
        <ele>777</ele>
        <time>2009-07-12T09:26:12Z</time>
      </trkpt>
      <trkpt lat="44.97861" lon="3.64905">
        <ele>776</ele>
        <time>2009-07-12T09:26:17Z</time>
      </trkpt>
      <trkpt lat="44.97873" lon="3.64924">
        <ele>775</ele>
        <time>2009-07-12T09:26:21Z</time>
      </trkpt>
      <trkpt lat="44.9788" lon="3.64959">
        <ele>775</ele>
        <time>2009-07-12T09:26:26Z</time>
      </trkpt>
      <trkpt lat="44.97881" lon="3.65006">
        <ele>777</ele>
        <time>2009-07-12T09:26:38Z</time>
      </trkpt>
      <trkpt lat="44.97881" lon="3.65008">
        <ele>778</ele>
        <time>2009-07-12T09:26:39Z</time>
      </trkpt>
      <trkpt lat="44.97882" lon="3.65021">
        <ele>778</ele>
        <time>2009-07-12T09:26:45Z</time>
      </trkpt>
      <trkpt lat="44.97885" lon="3.65045">
        <ele>781</ele>
        <time>2009-07-12T09:26:58Z</time>
      </trkpt>
      <trkpt lat="44.97891" lon="3.65069">
        <ele>784</ele>
        <time>2009-07-12T09:27:12Z</time>
      </trkpt>
      <trkpt lat="44.97896" lon="3.65085">
        <ele>787</ele>
        <time>2009-07-12T09:27:21Z</time>
      </trkpt>
      <trkpt lat="44.97901" lon="3.65088">
        <ele>788</ele>
        <time>2009-07-12T09:27:25Z</time>
      </trkpt>
      <trkpt lat="44.97904" lon="3.65088">
        <ele>788</ele>
        <time>2009-07-12T09:27:27Z</time>
      </trkpt>
      <trkpt lat="44.97909" lon="3.65087">
        <ele>788</ele>
        <time>2009-07-12T09:27:31Z</time>
      </trkpt>
      <trkpt lat="44.97921" lon="3.65096">
        <ele>790</ele>
        <time>2009-07-12T09:27:41Z</time>
      </trkpt>
      <trkpt lat="44.97915" lon="3.6513">
        <ele>793</ele>
        <time>2009-07-12T09:27:58Z</time>
      </trkpt>
      <trkpt lat="44.97902" lon="3.6517">
        <ele>794</ele>
        <time>2009-07-12T09:28:13Z</time>
      </trkpt>
      <trkpt lat="44.97898" lon="3.65181">
        <ele>796</ele>
        <time>2009-07-12T09:28:17Z</time>
      </trkpt>
      <trkpt lat="44.97879" lon="3.65232">
        <ele>797</ele>
        <time>2009-07-12T09:28:35Z</time>
      </trkpt>
      <trkpt lat="44.97858" lon="3.65282">
        <ele>800</ele>
        <time>2009-07-12T09:28:52Z</time>
      </trkpt>
      <trkpt lat="44.97826" lon="3.65332">
        <ele>799</ele>
        <time>2009-07-12T09:29:12Z</time>
      </trkpt>
      <trkpt lat="44.97792" lon="3.65369">
        <ele>798</ele>
        <time>2009-07-12T09:29:26Z</time>
      </trkpt>
      <trkpt lat="44.97759" lon="3.65403">
        <ele>794</ele>
        <time>2009-07-12T09:29:34Z</time>
      </trkpt>
      <trkpt lat="44.97753" lon="3.65408">
        <ele>792</ele>
        <time>2009-07-12T09:29:35Z</time>
      </trkpt>
      <trkpt lat="44.97734" lon="3.65441">
        <ele>789</ele>
        <time>2009-07-12T09:29:39Z</time>
      </trkpt>
      <trkpt lat="44.97696" lon="3.65549">
        <ele>785</ele>
        <time>2009-07-12T09:29:50Z</time>
      </trkpt>
      <trkpt lat="44.97686" lon="3.65602">
        <ele>783</ele>
        <time>2009-07-12T09:30:01Z</time>
      </trkpt>
      <trkpt lat="44.97687" lon="3.65606">
        <ele>784</ele>
        <time>2009-07-12T09:30:03Z</time>
      </trkpt>
      <trkpt lat="44.97687" lon="3.65611">
        <ele>785</ele>
        <time>2009-07-12T09:30:05Z</time>
      </trkpt>
      <trkpt lat="44.97684" lon="3.65614">
        <ele>784</ele>
        <time>2009-07-12T09:30:07Z</time>
      </trkpt>
      <trkpt lat="44.97672" lon="3.65613">
        <ele>782</ele>
        <time>2009-07-12T09:30:11Z</time>
      </trkpt>
      <trkpt lat="44.97633" lon="3.65587">
        <ele>783</ele>
        <time>2009-07-12T09:30:25Z</time>
      </trkpt>
      <trkpt lat="44.97603" lon="3.6557">
        <ele>783</ele>
        <time>2009-07-12T09:30:39Z</time>
      </trkpt>
      <trkpt lat="44.97568" lon="3.65549">
        <ele>782</ele>
        <time>2009-07-12T09:30:51Z</time>
      </trkpt>
      <trkpt lat="44.97498" lon="3.65511">
        <ele>780</ele>
        <time>2009-07-12T09:31:09Z</time>
      </trkpt>
      <trkpt lat="44.97475" lon="3.65514">
        <ele>779</ele>
        <time>2009-07-12T09:31:14Z</time>
      </trkpt>
      <trkpt lat="44.97461" lon="3.65524">
        <ele>778</ele>
        <time>2009-07-12T09:31:17Z</time>
      </trkpt>
      <trkpt lat="44.97425" lon="3.65581">
        <ele>776</ele>
        <time>2009-07-12T09:31:27Z</time>
      </trkpt>
      <trkpt lat="44.97421" lon="3.65587">
        <ele>776</ele>
        <time>2009-07-12T09:31:28Z</time>
      </trkpt>
      <trkpt lat="44.97401" lon="3.656">
        <ele>775</ele>
        <time>2009-07-12T09:31:32Z</time>
      </trkpt>
      <trkpt lat="44.97355" lon="3.65606">
        <ele>771</ele>
        <time>2009-07-12T09:31:39Z</time>
      </trkpt>
      <trkpt lat="44.97281" lon="3.65613">
        <ele>769</ele>
        <time>2009-07-12T09:31:50Z</time>
      </trkpt>
      <trkpt lat="44.97254" lon="3.6561">
        <ele>768</ele>
        <time>2009-07-12T09:31:58Z</time>
      </trkpt>
      <trkpt lat="44.97243" lon="3.65577">
        <ele>765</ele>
        <time>2009-07-12T09:32:07Z</time>
      </trkpt>
      <trkpt lat="44.97238" lon="3.6555">
        <ele>762</ele>
        <time>2009-07-12T09:32:13Z</time>
      </trkpt>
      <trkpt lat="44.9723" lon="3.65507">
        <ele>759</ele>
        <time>2009-07-12T09:32:22Z</time>
      </trkpt>
      <trkpt lat="44.97229" lon="3.65504">
        <ele>759</ele>
        <time>2009-07-12T09:32:23Z</time>
      </trkpt>
      <trkpt lat="44.97228" lon="3.65497">
        <ele>757</ele>
        <time>2009-07-12T09:32:25Z</time>
      </trkpt>
      <trkpt lat="44.97224" lon="3.65487">
        <ele>756</ele>
        <time>2009-07-12T09:32:28Z</time>
      </trkpt>
      <trkpt lat="44.97215" lon="3.65459">
        <ele>753</ele>
        <time>2009-07-12T09:32:35Z</time>
      </trkpt>
      <trkpt lat="44.97212" lon="3.65438">
        <ele>751</ele>
        <time>2009-07-12T09:32:39Z</time>
      </trkpt>
      <trkpt lat="44.97209" lon="3.65407">
        <ele>750</ele>
        <time>2009-07-12T09:32:47Z</time>
      </trkpt>
      <trkpt lat="44.97207" lon="3.65395">
        <ele>747</ele>
        <time>2009-07-12T09:32:50Z</time>
      </trkpt>
      <trkpt lat="44.97205" lon="3.65387">
        <ele>746</ele>
        <time>2009-07-12T09:32:52Z</time>
      </trkpt>
      <trkpt lat="44.97198" lon="3.65404">
        <ele>744</ele>
        <time>2009-07-12T09:32:59Z</time>
      </trkpt>
      <trkpt lat="44.97197" lon="3.65413">
        <ele>744</ele>
        <time>2009-07-12T09:33:01Z</time>
      </trkpt>
      <trkpt lat="44.9719" lon="3.65419">
        <ele>743</ele>
        <time>2009-07-12T09:33:04Z</time>
      </trkpt>
      <trkpt lat="44.97185" lon="3.65406">
        <ele>741</ele>
        <time>2009-07-12T09:33:08Z</time>
      </trkpt>
      <trkpt lat="44.97182" lon="3.65391">
        <ele>738</ele>
        <time>2009-07-12T09:33:10Z</time>
      </trkpt>
      <trkpt lat="44.97179" lon="3.65375">
        <ele>737</ele>
        <time>2009-07-12T09:33:12Z</time>
      </trkpt>
      <trkpt lat="44.97172" lon="3.65326">
        <ele>733</ele>
        <time>2009-07-12T09:33:19Z</time>
      </trkpt>
      <trkpt lat="44.9717" lon="3.65307">
        <ele>731</ele>
        <time>2009-07-12T09:33:22Z</time>
      </trkpt>
      <trkpt lat="44.97168" lon="3.65274">
        <ele>728</ele>
        <time>2009-07-12T09:33:30Z</time>
      </trkpt>
      <trkpt lat="44.97165" lon="3.65277">
        <ele>728</ele>
        <time>2009-07-12T09:33:45Z</time>
      </trkpt>
      <trkpt lat="44.97162" lon="3.65289">
        <ele>727</ele>
        <time>2009-07-12T09:33:56Z</time>
      </trkpt>
      <trkpt lat="44.97162" lon="3.6529">
        <ele>728</ele>
        <time>2009-07-12T09:34:36Z</time>
      </trkpt>
      <trkpt lat="44.97162" lon="3.65301">
        <ele>727</ele>
        <time>2009-07-12T09:34:40Z</time>
      </trkpt>
      <trkpt lat="44.9715" lon="3.6534">
        <ele>724</ele>
        <time>2009-07-12T09:34:51Z</time>
      </trkpt>
      <trkpt lat="44.97136" lon="3.65362">
        <ele>716</ele>
        <time>2009-07-12T09:34:58Z</time>
      </trkpt>
      <trkpt lat="44.97123" lon="3.65372">
        <ele>712</ele>
        <time>2009-07-12T09:35:05Z</time>
      </trkpt>
      <trkpt lat="44.9712" lon="3.65376">
        <ele>711</ele>
        <time>2009-07-12T09:35:08Z</time>
      </trkpt>
      <trkpt lat="44.97117" lon="3.65377">
        <ele>710</ele>
        <time>2009-07-12T09:35:10Z</time>
      </trkpt>
      <trkpt lat="44.97113" lon="3.6538">
        <ele>708</ele>
        <time>2009-07-12T09:35:12Z</time>
      </trkpt>
      <trkpt lat="44.97103" lon="3.65392">
        <ele>703</ele>
        <time>2009-07-12T09:35:19Z</time>
      </trkpt>
      <trkpt lat="44.97095" lon="3.65401">
        <ele>699</ele>
        <time>2009-07-12T09:35:23Z</time>
      </trkpt>
      <trkpt lat="44.97091" lon="3.65406">
        <ele>698</ele>
        <time>2009-07-12T09:35:25Z</time>
      </trkpt>
      <trkpt lat="44.97087" lon="3.65418">
        <ele>695</ele>
        <time>2009-07-12T09:35:29Z</time>
      </trkpt>
      <trkpt lat="44.97083" lon="3.65436">
        <ele>694</ele>
        <time>2009-07-12T09:35:33Z</time>
      </trkpt>
      <trkpt lat="44.97077" lon="3.65437">
        <ele>692</ele>
        <time>2009-07-12T09:35:37Z</time>
      </trkpt>
      <trkpt lat="44.97077" lon="3.65434">
        <ele>692</ele>
        <time>2009-07-12T09:35:49Z</time>
      </trkpt>
      <trkpt lat="44.97077" lon="3.65433">
        <ele>693</ele>
        <time>2009-07-12T09:36:11Z</time>
      </trkpt>
      <trkpt lat="44.97075" lon="3.6543">
        <ele>691</ele>
        <time>2009-07-12T09:36:48Z</time>
      </trkpt>
      <trkpt lat="44.97075" lon="3.65405">
        <ele>690</ele>
        <time>2009-07-12T09:37:09Z</time>
      </trkpt>
      <trkpt lat="44.97075" lon="3.65391">
        <ele>689</ele>
        <time>2009-07-12T09:37:11Z</time>
      </trkpt>
      <trkpt lat="44.97074" lon="3.65368">
        <ele>687</ele>
        <time>2009-07-12T09:37:16Z</time>
      </trkpt>
      <trkpt lat="44.97073" lon="3.65343">
        <ele>684</ele>
        <time>2009-07-12T09:37:20Z</time>
      </trkpt>
      <trkpt lat="44.97071" lon="3.65336">
        <ele>685</ele>
        <time>2009-07-12T09:37:28Z</time>
      </trkpt>
      <trkpt lat="44.97071" lon="3.65336">
        <ele>685</ele>
        <time>2009-07-12T09:37:29Z</time>
      </trkpt>
      <trkpt lat="44.97067" lon="3.65358">
        <ele>683</ele>
        <time>2009-07-12T09:37:36Z</time>
      </trkpt>
      <trkpt lat="44.97062" lon="3.65352">
        <ele>681</ele>
        <time>2009-07-12T09:37:43Z</time>
      </trkpt>
      <trkpt lat="44.97055" lon="3.65343">
        <ele>678</ele>
        <time>2009-07-12T09:37:47Z</time>
      </trkpt>
      <trkpt lat="44.97048" lon="3.65342">
        <ele>674</ele>
        <time>2009-07-12T09:37:50Z</time>
      </trkpt>
      <trkpt lat="44.97046" lon="3.65343">
        <ele>674</ele>
        <time>2009-07-12T09:37:51Z</time>
      </trkpt>
      <trkpt lat="44.97037" lon="3.65348">
        <ele>670</ele>
        <time>2009-07-12T09:37:55Z</time>
      </trkpt>
      <trkpt lat="44.97034" lon="3.65349">
        <ele>668</ele>
        <time>2009-07-12T09:37:56Z</time>
      </trkpt>
      <trkpt lat="44.97026" lon="3.65342">
        <ele>665</ele>
        <time>2009-07-12T09:38:01Z</time>
      </trkpt>
      <trkpt lat="44.97024" lon="3.65335">
        <ele>662</ele>
        <time>2009-07-12T09:38:03Z</time>
      </trkpt>
      <trkpt lat="44.97022" lon="3.65326">
        <ele>660</ele>
        <time>2009-07-12T09:38:05Z</time>
      </trkpt>
      <trkpt lat="44.97014" lon="3.65321">
        <ele>659</ele>
        <time>2009-07-12T09:38:08Z</time>
      </trkpt>
      <trkpt lat="44.97008" lon="3.65311">
        <ele>657</ele>
        <time>2009-07-12T09:38:12Z</time>
      </trkpt>
      <trkpt lat="44.96999" lon="3.65312">
        <ele>652</ele>
        <time>2009-07-12T09:38:18Z</time>
      </trkpt>
      <trkpt lat="44.9699" lon="3.65321">
        <ele>649</ele>
        <time>2009-07-12T09:38:21Z</time>
      </trkpt>
      <trkpt lat="44.96982" lon="3.65331">
        <ele>646</ele>
        <time>2009-07-12T09:38:26Z</time>
      </trkpt>
      <trkpt lat="44.96981" lon="3.65334">
        <ele>646</ele>
        <time>2009-07-12T09:38:35Z</time>
      </trkpt>
      <trkpt lat="44.9698" lon="3.65332">
        <ele>646</ele>
        <time>2009-07-12T09:38:58Z</time>
      </trkpt>
      <trkpt lat="44.96978" lon="3.65331">
        <ele>646</ele>
        <time>2009-07-12T09:39:04Z</time>
      </trkpt>
      <trkpt lat="44.96973" lon="3.65325">
        <ele>646</ele>
        <time>2009-07-12T09:39:14Z</time>
      </trkpt>
      <trkpt lat="44.96973" lon="3.65323">
        <ele>646</ele>
        <time>2009-07-12T09:39:32Z</time>
      </trkpt>
      <trkpt lat="44.9698" lon="3.65271">
        <ele>643</ele>
        <time>2009-07-12T09:39:45Z</time>
      </trkpt>
      <trkpt lat="44.96982" lon="3.65255">
        <ele>642</ele>
        <time>2009-07-12T09:39:47Z</time>
      </trkpt>
      <trkpt lat="44.9699" lon="3.65222">
        <ele>640</ele>
        <time>2009-07-12T09:39:52Z</time>
      </trkpt>
      <trkpt lat="44.96998" lon="3.65176">
        <ele>639</ele>
        <time>2009-07-12T09:39:58Z</time>
      </trkpt>
      <trkpt lat="44.97001" lon="3.65159">
        <ele>637</ele>
        <time>2009-07-12T09:40:00Z</time>
      </trkpt>
      <trkpt lat="44.97006" lon="3.65063">
        <ele>634</ele>
        <time>2009-07-12T09:40:10Z</time>
      </trkpt>
      <trkpt lat="44.97007" lon="3.64977">
        <ele>632</ele>
        <time>2009-07-12T09:40:19Z</time>
      </trkpt>
      <trkpt lat="44.97007" lon="3.64958">
        <ele>632</ele>
        <time>2009-07-12T09:40:21Z</time>
      </trkpt>
      <trkpt lat="44.97006" lon="3.6494">
        <ele>632</ele>
        <time>2009-07-12T09:40:23Z</time>
      </trkpt>
      <trkpt lat="44.97002" lon="3.64912">
        <ele>630</ele>
        <time>2009-07-12T09:40:26Z</time>
      </trkpt>
      <trkpt lat="44.96988" lon="3.64876">
        <ele>630</ele>
        <time>2009-07-12T09:40:30Z</time>
      </trkpt>
      <trkpt lat="44.96945" lon="3.64823">
        <ele>627</ele>
        <time>2009-07-12T09:40:38Z</time>
      </trkpt>
      <trkpt lat="44.969" lon="3.64797">
        <ele>628</ele>
        <time>2009-07-12T09:40:45Z</time>
      </trkpt>
      <trkpt lat="44.96842" lon="3.64795">
        <ele>629</ele>
        <time>2009-07-12T09:40:57Z</time>
      </trkpt>
      <trkpt lat="44.96818" lon="3.64782">
        <ele>629</ele>
        <time>2009-07-12T09:41:10Z</time>
      </trkpt>
      <trkpt lat="44.96817" lon="3.64778">
        <ele>630</ele>
        <time>2009-07-12T09:41:24Z</time>
      </trkpt>
      <trkpt lat="44.96816" lon="3.64758">
        <ele>628</ele>
        <time>2009-07-12T09:41:46Z</time>
      </trkpt>
      <trkpt lat="44.96828" lon="3.64733">
        <ele>626</ele>
        <time>2009-07-12T09:41:51Z</time>
      </trkpt>
      <trkpt lat="44.96834" lon="3.64723">
        <ele>624</ele>
        <time>2009-07-12T09:41:53Z</time>
      </trkpt>
      <trkpt lat="44.96847" lon="3.64704">
        <ele>623</ele>
        <time>2009-07-12T09:42:02Z</time>
      </trkpt>
      <trkpt lat="44.96854" lon="3.64692">
        <ele>624</ele>
        <time>2009-07-12T09:42:14Z</time>
      </trkpt>
      <trkpt lat="44.96867" lon="3.64666">
        <ele>621</ele>
        <time>2009-07-12T09:42:21Z</time>
      </trkpt>
      <trkpt lat="44.96887" lon="3.64629">
        <ele>618</ele>
        <time>2009-07-12T09:42:27Z</time>
      </trkpt>
      <trkpt lat="44.96905" lon="3.64597">
        <ele>617</ele>
        <time>2009-07-12T09:42:31Z</time>
      </trkpt>
      <trkpt lat="44.9692" lon="3.64563">
        <ele>617</ele>
        <time>2009-07-12T09:42:35Z</time>
      </trkpt>
      <trkpt lat="44.96912" lon="3.6453">
        <ele>616</ele>
        <time>2009-07-12T09:42:40Z</time>
      </trkpt>
      <trkpt lat="44.96864" lon="3.64478">
        <ele>615</ele>
        <time>2009-07-12T09:42:53Z</time>
      </trkpt>
      <trkpt lat="44.96865" lon="3.6443">
        <ele>616</ele>
        <time>2009-07-12T09:43:03Z</time>
      </trkpt>
      <trkpt lat="44.96872" lon="3.64403">
        <ele>616</ele>
        <time>2009-07-12T09:43:12Z</time>
      </trkpt>
      <trkpt lat="44.96855" lon="3.64384">
        <ele>620</ele>
        <time>2009-07-12T09:43:25Z</time>
      </trkpt>
      <trkpt lat="44.96845" lon="3.64366">
        <ele>622</ele>
        <time>2009-07-12T09:43:39Z</time>
      </trkpt>
      <trkpt lat="44.96843" lon="3.64357">
        <ele>622</ele>
        <time>2009-07-12T09:43:54Z</time>
      </trkpt>
      <trkpt lat="44.96841" lon="3.64326">
        <ele>624</ele>
        <time>2009-07-12T09:44:09Z</time>
      </trkpt>
      <trkpt lat="44.96837" lon="3.6432">
        <ele>623</ele>
        <time>2009-07-12T09:44:55Z</time>
      </trkpt>
      <trkpt lat="44.96836" lon="3.64319">
        <ele>622</ele>
        <time>2009-07-12T09:45:41Z</time>
      </trkpt>
      <trkpt lat="44.9686" lon="3.64303">
        <ele>621</ele>
        <time>2009-07-12T09:45:52Z</time>
      </trkpt>
      <trkpt lat="44.96882" lon="3.64292">
        <ele>619</ele>
        <time>2009-07-12T09:45:57Z</time>
      </trkpt>
      <trkpt lat="44.96894" lon="3.64291">
        <ele>617</ele>
        <time>2009-07-12T09:46:00Z</time>
      </trkpt>
      <trkpt lat="44.96905" lon="3.64291">
        <ele>617</ele>
        <time>2009-07-12T09:46:07Z</time>
      </trkpt>
      <trkpt lat="44.96903" lon="3.64271">
        <ele>616</ele>
        <time>2009-07-12T09:46:13Z</time>
      </trkpt>
      <trkpt lat="44.96889" lon="3.64214">
        <ele>616</ele>
        <time>2009-07-12T09:46:27Z</time>
      </trkpt>
      <trkpt lat="44.96886" lon="3.64192">
        <ele>613</ele>
        <time>2009-07-12T09:46:34Z</time>
      </trkpt>
      <trkpt lat="44.96883" lon="3.64173">
        <ele>612</ele>
        <time>2009-07-12T09:46:38Z</time>
      </trkpt>
      <trkpt lat="44.96906" lon="3.64144">
        <ele>610</ele>
        <time>2009-07-12T09:46:45Z</time>
      </trkpt>
      <trkpt lat="44.96933" lon="3.64142">
        <ele>612</ele>
        <time>2009-07-12T09:46:54Z</time>
      </trkpt>
      <trkpt lat="44.96948" lon="3.64142">
        <ele>615</ele>
        <time>2009-07-12T09:47:04Z</time>
      </trkpt>
      <trkpt lat="44.96966" lon="3.64138">
        <ele>618</ele>
        <time>2009-07-12T09:47:15Z</time>
      </trkpt>
      <trkpt lat="44.96987" lon="3.64129">
        <ele>620</ele>
        <time>2009-07-12T09:47:29Z</time>
      </trkpt>
      <trkpt lat="44.96998" lon="3.64117">
        <ele>624</ele>
        <time>2009-07-12T09:47:39Z</time>
      </trkpt>
      <trkpt lat="44.96999" lon="3.64116">
        <ele>624</ele>
        <time>2009-07-12T09:47:40Z</time>
      </trkpt>
      <trkpt lat="44.97021" lon="3.64093">
        <ele>626</ele>
        <time>2009-07-12T09:47:58Z</time>
      </trkpt>
      <trkpt lat="44.97038" lon="3.64075">
        <ele>627</ele>
        <time>2009-07-12T09:48:15Z</time>
      </trkpt>
      <trkpt lat="44.97047" lon="3.64066">
        <ele>628</ele>
        <time>2009-07-12T09:49:16Z</time>
      </trkpt>
      <trkpt lat="44.97062" lon="3.64052">
        <ele>632</ele>
        <time>2009-07-12T09:49:29Z</time>
      </trkpt>
      <trkpt lat="44.97063" lon="3.64051">
        <ele>632</ele>
        <time>2009-07-12T09:49:30Z</time>
      </trkpt>
      <trkpt lat="44.97073" lon="3.64036">
        <ele>633</ele>
        <time>2009-07-12T09:49:42Z</time>
      </trkpt>
      <trkpt lat="44.97067" lon="3.64028">
        <ele>634</ele>
        <time>2009-07-12T09:49:47Z</time>
      </trkpt>
      <trkpt lat="44.97046" lon="3.64028">
        <ele>638</ele>
        <time>2009-07-12T09:50:01Z</time>
      </trkpt>
      <trkpt lat="44.97022" lon="3.64042">
        <ele>640</ele>
        <time>2009-07-12T09:50:16Z</time>
      </trkpt>
      <trkpt lat="44.96993" lon="3.6405">
        <ele>643</ele>
        <time>2009-07-12T09:50:34Z</time>
      </trkpt>
      <trkpt lat="44.96975" lon="3.64045">
        <ele>646</ele>
        <time>2009-07-12T09:50:45Z</time>
      </trkpt>
      <trkpt lat="44.96968" lon="3.64007">
        <ele>647</ele>
        <time>2009-07-12T09:51:00Z</time>
      </trkpt>
      <trkpt lat="44.96976" lon="3.63995">
        <ele>649</ele>
        <time>2009-07-12T09:51:07Z</time>
      </trkpt>
      <trkpt lat="44.96995" lon="3.63982">
        <ele>650</ele>
        <time>2009-07-12T09:51:23Z</time>
      </trkpt>
      <trkpt lat="44.97008" lon="3.63976">
        <ele>651</ele>
        <time>2009-07-12T09:51:34Z</time>
      </trkpt>
      <trkpt lat="44.97029" lon="3.63971">
        <ele>655</ele>
        <time>2009-07-12T09:51:49Z</time>
      </trkpt>
      <trkpt lat="44.97049" lon="3.63967">
        <ele>657</ele>
        <time>2009-07-12T09:52:04Z</time>
      </trkpt>
      <trkpt lat="44.97061" lon="3.63963">
        <ele>659</ele>
        <time>2009-07-12T09:52:14Z</time>
      </trkpt>
      <trkpt lat="44.97066" lon="3.63958">
        <ele>659</ele>
        <time>2009-07-12T09:52:18Z</time>
      </trkpt>
      <trkpt lat="44.97071" lon="3.63958">
        <ele>660</ele>
        <time>2009-07-12T09:52:24Z</time>
      </trkpt>
      <trkpt lat="44.97073" lon="3.63956">
        <ele>661</ele>
        <time>2009-07-12T09:52:26Z</time>
      </trkpt>
      <trkpt lat="44.97078" lon="3.63956">
        <ele>661</ele>
        <time>2009-07-12T09:52:30Z</time>
      </trkpt>
      <trkpt lat="44.97086" lon="3.63962">
        <ele>662</ele>
        <time>2009-07-12T09:52:38Z</time>
      </trkpt>
      <trkpt lat="44.97092" lon="3.63971">
        <ele>662</ele>
        <time>2009-07-12T09:52:43Z</time>
      </trkpt>
      <trkpt lat="44.97099" lon="3.63965">
        <ele>664</ele>
        <time>2009-07-12T09:52:49Z</time>
      </trkpt>
      <trkpt lat="44.971" lon="3.63965">
        <ele>664</ele>
        <time>2009-07-12T09:52:50Z</time>
      </trkpt>
      <trkpt lat="44.97106" lon="3.63961">
        <ele>666</ele>
        <time>2009-07-12T09:52:55Z</time>
      </trkpt>
      <trkpt lat="44.97115" lon="3.63952">
        <ele>667</ele>
        <time>2009-07-12T09:53:02Z</time>
      </trkpt>
      <trkpt lat="44.97129" lon="3.63948">
        <ele>670</ele>
        <time>2009-07-12T09:53:14Z</time>
      </trkpt>
      <trkpt lat="44.97134" lon="3.6396">
        <ele>670</ele>
        <time>2009-07-12T09:53:18Z</time>
      </trkpt>
      <trkpt lat="44.97153" lon="3.63933">
        <ele>672</ele>
        <time>2009-07-12T09:53:32Z</time>
      </trkpt>
      <trkpt lat="44.97165" lon="3.63924">
        <ele>676</ele>
        <time>2009-07-12T09:53:42Z</time>
      </trkpt>
      <trkpt lat="44.97185" lon="3.63917">
        <ele>679</ele>
        <time>2009-07-12T09:53:57Z</time>
      </trkpt>
      <trkpt lat="44.97208" lon="3.63914">
        <ele>682</ele>
        <time>2009-07-12T09:54:13Z</time>
      </trkpt>
      <trkpt lat="44.9723" lon="3.63919">
        <ele>684</ele>
        <time>2009-07-12T09:54:28Z</time>
      </trkpt>
      <trkpt lat="44.97253" lon="3.63923">
        <ele>687</ele>
        <time>2009-07-12T09:54:44Z</time>
      </trkpt>
      <trkpt lat="44.97268" lon="3.63925">
        <ele>690</ele>
        <time>2009-07-12T09:54:55Z</time>
      </trkpt>
      <trkpt lat="44.97285" lon="3.63929">
        <ele>693</ele>
        <time>2009-07-12T09:55:07Z</time>
      </trkpt>
      <trkpt lat="44.97303" lon="3.63935">
        <ele>696</ele>
        <time>2009-07-12T09:55:20Z</time>
      </trkpt>
      <trkpt lat="44.97316" lon="3.63957">
        <ele>698</ele>
        <time>2009-07-12T09:55:35Z</time>
      </trkpt>
      <trkpt lat="44.97329" lon="3.63971">
        <ele>700</ele>
        <time>2009-07-12T09:55:48Z</time>
      </trkpt>
      <trkpt lat="44.97335" lon="3.63967">
        <ele>701</ele>
        <time>2009-07-12T09:55:58Z</time>
      </trkpt>
      <trkpt lat="44.97334" lon="3.6397">
        <ele>701</ele>
        <time>2009-07-12T09:56:07Z</time>
      </trkpt>
      <trkpt lat="44.97327" lon="3.63954">
        <ele>704</ele>
        <time>2009-07-12T09:56:25Z</time>
      </trkpt>
      <trkpt lat="44.97328" lon="3.63953">
        <ele>704</ele>
        <time>2009-07-12T09:56:28Z</time>
      </trkpt>
      <trkpt lat="44.97329" lon="3.63941">
        <ele>705</ele>
        <time>2009-07-12T09:56:35Z</time>
      </trkpt>
      <trkpt lat="44.97326" lon="3.63921">
        <ele>709</ele>
        <time>2009-07-12T09:56:45Z</time>
      </trkpt>
      <trkpt lat="44.97325" lon="3.63905">
        <ele>712</ele>
        <time>2009-07-12T09:56:53Z</time>
      </trkpt>
      <trkpt lat="44.97323" lon="3.63896">
        <ele>713</ele>
        <time>2009-07-12T09:56:58Z</time>
      </trkpt>
      <trkpt lat="44.97311" lon="3.63876">
        <ele>716</ele>
        <time>2009-07-12T09:57:13Z</time>
      </trkpt>
      <trkpt lat="44.97307" lon="3.63872">
        <ele>718</ele>
        <time>2009-07-12T09:57:18Z</time>
      </trkpt>
      <trkpt lat="44.97297" lon="3.63869">
        <ele>720</ele>
        <time>2009-07-12T09:57:28Z</time>
      </trkpt>
      <trkpt lat="44.97295" lon="3.63862">
        <ele>721</ele>
        <time>2009-07-12T09:57:56Z</time>
      </trkpt>
      <trkpt lat="44.97293" lon="3.6386">
        <ele>722</ele>
        <time>2009-07-12T09:58:19Z</time>
      </trkpt>
      <trkpt lat="44.97288" lon="3.6385">
        <ele>725</ele>
        <time>2009-07-12T09:58:35Z</time>
      </trkpt>
      <trkpt lat="44.97284" lon="3.63846">
        <ele>728</ele>
        <time>2009-07-12T09:58:51Z</time>
      </trkpt>
      <trkpt lat="44.97282" lon="3.63841">
        <ele>729</ele>
        <time>2009-07-12T09:59:06Z</time>
      </trkpt>
      <trkpt lat="44.97279" lon="3.63829">
        <ele>732</ele>
        <time>2009-07-12T09:59:26Z</time>
      </trkpt>
      <trkpt lat="44.97279" lon="3.63828">
        <ele>733</ele>
        <time>2009-07-12T09:59:27Z</time>
      </trkpt>
      <trkpt lat="44.97273" lon="3.63819">
        <ele>736</ele>
        <time>2009-07-12T09:59:40Z</time>
      </trkpt>
      <trkpt lat="44.97272" lon="3.63819">
        <ele>736</ele>
        <time>2009-07-12T09:59:41Z</time>
      </trkpt>
      <trkpt lat="44.97265" lon="3.63819">
        <ele>738</ele>
        <time>2009-07-12T09:59:52Z</time>
      </trkpt>
      <trkpt lat="44.97255" lon="3.63811">
        <ele>738</ele>
        <time>2009-07-12T10:00:04Z</time>
      </trkpt>
      <trkpt lat="44.9725" lon="3.63804">
        <ele>741</ele>
        <time>2009-07-12T10:00:12Z</time>
      </trkpt>
      <trkpt lat="44.97242" lon="3.63797">
        <ele>743</ele>
        <time>2009-07-12T10:00:23Z</time>
      </trkpt>
      <trkpt lat="44.9723" lon="3.63785">
        <ele>745</ele>
        <time>2009-07-12T10:00:38Z</time>
      </trkpt>
      <trkpt lat="44.97223" lon="3.63781">
        <ele>746</ele>
        <time>2009-07-12T10:00:46Z</time>
      </trkpt>
      <trkpt lat="44.97208" lon="3.63786">
        <ele>749</ele>
        <time>2009-07-12T10:01:04Z</time>
      </trkpt>
      <trkpt lat="44.972" lon="3.63783">
        <ele>751</ele>
        <time>2009-07-12T10:01:15Z</time>
      </trkpt>
      <trkpt lat="44.97196" lon="3.63776">
        <ele>752</ele>
        <time>2009-07-12T10:01:19Z</time>
      </trkpt>
      <trkpt lat="44.97202" lon="3.6376">
        <ele>754</ele>
        <time>2009-07-12T10:01:28Z</time>
      </trkpt>
      <trkpt lat="44.97206" lon="3.63749">
        <ele>753</ele>
        <time>2009-07-12T10:01:33Z</time>
      </trkpt>
      <trkpt lat="44.97227" lon="3.63754">
        <ele>754</ele>
        <time>2009-07-12T10:01:47Z</time>
      </trkpt>
      <trkpt lat="44.97251" lon="3.63738">
        <ele>756</ele>
        <time>2009-07-12T10:02:04Z</time>
      </trkpt>
      <trkpt lat="44.97267" lon="3.63702">
        <ele>759</ele>
        <time>2009-07-12T10:02:20Z</time>
      </trkpt>
      <trkpt lat="44.97283" lon="3.63659">
        <ele>760</ele>
        <time>2009-07-12T10:02:42Z</time>
      </trkpt>
      <trkpt lat="44.97283" lon="3.63659">
        <ele>764</ele>
        <time>2009-07-12T10:02:58Z</time>
      </trkpt>
      <trkpt lat="44.97283" lon="3.63659">
        <ele>759</ele>
        <time>2009-07-12T10:02:59Z</time>
      </trkpt>
      <trkpt lat="44.97284" lon="3.6366">
        <ele>762</ele>
        <time>2009-07-12T10:03:10Z</time>
      </trkpt>
      <trkpt lat="44.97284" lon="3.6366">
        <ele>760</ele>
        <time>2009-07-12T10:03:13Z</time>
      </trkpt>
      <trkpt lat="44.97284" lon="3.6366">
        <ele>764</ele>
        <time>2009-07-12T10:03:14Z</time>
      </trkpt>
      <trkpt lat="44.97284" lon="3.6366">
        <ele>758</ele>
        <time>2009-07-12T10:03:15Z</time>
      </trkpt>
      <trkpt lat="44.97284" lon="3.6366">
        <ele>762</ele>
        <time>2009-07-12T10:03:16Z</time>
      </trkpt>
      <trkpt lat="44.97284" lon="3.6366">
        <ele>760</ele>
        <time>2009-07-12T10:03:19Z</time>
      </trkpt>
      <trkpt lat="44.97284" lon="3.6366">
        <ele>764</ele>
        <time>2009-07-12T10:03:21Z</time>
      </trkpt>
      <trkpt lat="44.97284" lon="3.6366">
        <ele>761</ele>
        <time>2009-07-12T10:03:22Z</time>
      </trkpt>
      <trkpt lat="44.97284" lon="3.6366">
        <ele>762</ele>
        <time>2009-07-12T10:03:26Z</time>
      </trkpt>
      <trkpt lat="44.97285" lon="3.63661">
        <ele>759</ele>
        <time>2009-07-12T10:03:33Z</time>
      </trkpt>
      <trkpt lat="44.97285" lon="3.63661">
        <ele>760</ele>
        <time>2009-07-12T10:03:34Z</time>
      </trkpt>
      <trkpt lat="44.97285" lon="3.63661">
        <ele>763</ele>
        <time>2009-07-12T10:03:35Z</time>
      </trkpt>
      <trkpt lat="44.97285" lon="3.63661">
        <ele>759</ele>
        <time>2009-07-12T10:03:36Z</time>
      </trkpt>
      <trkpt lat="44.97286" lon="3.63661">
        <ele>765</ele>
        <time>2009-07-12T10:03:38Z</time>
      </trkpt>
      <trkpt lat="44.97286" lon="3.63661">
        <ele>762</ele>
        <time>2009-07-12T10:03:39Z</time>
      </trkpt>
      <trkpt lat="44.97285" lon="3.63659">
        <ele>761</ele>
        <time>2009-07-12T10:04:51Z</time>
      </trkpt>
      <trkpt lat="44.97286" lon="3.63656">
        <ele>761</ele>
        <time>2009-07-12T10:05:27Z</time>
      </trkpt>
      <trkpt lat="44.97289" lon="3.63643">
        <ele>762</ele>
        <time>2009-07-12T10:06:58Z</time>
      </trkpt>
      <trkpt lat="44.97302" lon="3.63606">
        <ele>763</ele>
        <time>2009-07-12T10:07:11Z</time>
      </trkpt>
      <trkpt lat="44.97313" lon="3.63561">
        <ele>766</ele>
        <time>2009-07-12T10:07:26Z</time>
      </trkpt>
      <trkpt lat="44.97319" lon="3.63532">
        <ele>769</ele>
        <time>2009-07-12T10:07:35Z</time>
      </trkpt>
      <trkpt lat="44.97325" lon="3.63501">
        <ele>770</ele>
        <time>2009-07-12T10:07:51Z</time>
      </trkpt>
      <trkpt lat="44.97329" lon="3.63474">
        <ele>772</ele>
        <time>2009-07-12T10:08:06Z</time>
      </trkpt>
      <trkpt lat="44.97334" lon="3.63422">
        <ele>774</ele>
        <time>2009-07-12T10:08:27Z</time>
      </trkpt>
      <trkpt lat="44.97338" lon="3.63403">
        <ele>778</ele>
        <time>2009-07-12T10:08:35Z</time>
      </trkpt>
      <trkpt lat="44.97339" lon="3.63401">
        <ele>778</ele>
        <time>2009-07-12T10:08:36Z</time>
      </trkpt>
      <trkpt lat="44.97341" lon="3.63372">
        <ele>781</ele>
        <time>2009-07-12T10:08:49Z</time>
      </trkpt>
      <trkpt lat="44.97339" lon="3.63361">
        <ele>781</ele>
        <time>2009-07-12T10:08:54Z</time>
      </trkpt>
      <trkpt lat="44.97342" lon="3.6335">
        <ele>783</ele>
        <time>2009-07-12T10:09:00Z</time>
      </trkpt>
      <trkpt lat="44.97343" lon="3.63348">
        <ele>783</ele>
        <time>2009-07-12T10:09:01Z</time>
      </trkpt>
      <trkpt lat="44.97348" lon="3.63345">
        <ele>785</ele>
        <time>2009-07-12T10:09:05Z</time>
      </trkpt>
      <trkpt lat="44.97368" lon="3.63353">
        <ele>788</ele>
        <time>2009-07-12T10:09:20Z</time>
      </trkpt>
      <trkpt lat="44.97395" lon="3.6334">
        <ele>791</ele>
        <time>2009-07-12T10:09:39Z</time>
      </trkpt>
      <trkpt lat="44.97422" lon="3.63314">
        <ele>794</ele>
        <time>2009-07-12T10:09:57Z</time>
      </trkpt>
      <trkpt lat="44.97447" lon="3.63276">
        <ele>794</ele>
        <time>2009-07-12T10:10:14Z</time>
      </trkpt>
      <trkpt lat="44.9745" lon="3.63264">
        <ele>797</ele>
        <time>2009-07-12T10:10:18Z</time>
      </trkpt>
      <trkpt lat="44.97456" lon="3.63217">
        <ele>800</ele>
        <time>2009-07-12T10:10:38Z</time>
      </trkpt>
      <trkpt lat="44.97459" lon="3.63202">
        <ele>803</ele>
        <time>2009-07-12T10:10:45Z</time>
      </trkpt>
      <trkpt lat="44.97462" lon="3.63193">
        <ele>804</ele>
        <time>2009-07-12T10:10:49Z</time>
      </trkpt>
      <trkpt lat="44.97465" lon="3.63173">
        <ele>807</ele>
        <time>2009-07-12T10:10:58Z</time>
      </trkpt>
      <trkpt lat="44.9747" lon="3.63143">
        <ele>808</ele>
        <time>2009-07-12T10:11:12Z</time>
      </trkpt>
      <trkpt lat="44.97472" lon="3.63116">
        <ele>811</ele>
        <time>2009-07-12T10:11:24Z</time>
      </trkpt>
      <trkpt lat="44.97476" lon="3.63091">
        <ele>812</ele>
        <time>2009-07-12T10:11:35Z</time>
      </trkpt>
      <trkpt lat="44.97478" lon="3.63082">
        <ele>812</ele>
        <time>2009-07-12T10:11:47Z</time>
      </trkpt>
      <trkpt lat="44.97478" lon="3.63082">
        <ele>813</ele>
        <time>2009-07-12T10:12:03Z</time>
      </trkpt>
      <trkpt lat="44.97475" lon="3.63084">
        <ele>813</ele>
        <time>2009-07-12T10:12:21Z</time>
      </trkpt>
      <trkpt lat="44.97467" lon="3.63103">
        <ele>813</ele>
        <time>2009-07-12T10:12:45Z</time>
      </trkpt>
      <trkpt lat="44.97453" lon="3.63141">
        <ele>816</ele>
        <time>2009-07-12T10:13:01Z</time>
      </trkpt>
      <trkpt lat="44.97445" lon="3.63154">
        <ele>817</ele>
        <time>2009-07-12T10:13:08Z</time>
      </trkpt>
      <trkpt lat="44.97427" lon="3.63169">
        <ele>819</ele>
        <time>2009-07-12T10:13:19Z</time>
      </trkpt>
      <trkpt lat="44.97403" lon="3.63169">
        <ele>821</ele>
        <time>2009-07-12T10:13:34Z</time>
      </trkpt>
      <trkpt lat="44.97402" lon="3.6316">
        <ele>822</ele>
        <time>2009-07-12T10:13:39Z</time>
      </trkpt>
      <trkpt lat="44.97403" lon="3.63154">
        <ele>824</ele>
        <time>2009-07-12T10:13:42Z</time>
      </trkpt>
      <trkpt lat="44.97422" lon="3.63131">
        <ele>826</ele>
        <time>2009-07-12T10:13:58Z</time>
      </trkpt>
      <trkpt lat="44.97427" lon="3.63119">
        <ele>826</ele>
        <time>2009-07-12T10:14:04Z</time>
      </trkpt>
      <trkpt lat="44.97418" lon="3.63118">
        <ele>827</ele>
        <time>2009-07-12T10:14:13Z</time>
      </trkpt>
      <trkpt lat="44.97415" lon="3.63124">
        <ele>827</ele>
        <time>2009-07-12T10:14:16Z</time>
      </trkpt>
      <trkpt lat="44.97388" lon="3.63129">
        <ele>831</ele>
        <time>2009-07-12T10:14:32Z</time>
      </trkpt>
      <trkpt lat="44.97384" lon="3.63122">
        <ele>831</ele>
        <time>2009-07-12T10:14:35Z</time>
      </trkpt>
      <trkpt lat="44.97389" lon="3.63107">
        <ele>832</ele>
        <time>2009-07-12T10:14:42Z</time>
      </trkpt>
      <trkpt lat="44.9741" lon="3.63081">
        <ele>834</ele>
        <time>2009-07-12T10:14:56Z</time>
      </trkpt>
      <trkpt lat="44.97417" lon="3.63057">
        <ele>834</ele>
        <time>2009-07-12T10:15:06Z</time>
      </trkpt>
      <trkpt lat="44.97421" lon="3.63019">
        <ele>839</ele>
        <time>2009-07-12T10:15:23Z</time>
      </trkpt>
      <trkpt lat="44.97426" lon="3.62986">
        <ele>841</ele>
        <time>2009-07-12T10:15:39Z</time>
      </trkpt>
      <trkpt lat="44.97428" lon="3.62978">
        <ele>841</ele>
        <time>2009-07-12T10:15:43Z</time>
      </trkpt>
      <trkpt lat="44.9743" lon="3.6297">
        <ele>841</ele>
        <time>2009-07-12T10:15:47Z</time>
      </trkpt>
      <trkpt lat="44.97431" lon="3.62962">
        <ele>844</ele>
        <time>2009-07-12T10:15:51Z</time>
      </trkpt>
      <trkpt lat="44.97434" lon="3.62952">
        <ele>843</ele>
        <time>2009-07-12T10:15:55Z</time>
      </trkpt>
      <trkpt lat="44.97426" lon="3.62949">
        <ele>847</ele>
        <time>2009-07-12T10:16:02Z</time>
      </trkpt>
      <trkpt lat="44.97423" lon="3.62955">
        <ele>848</ele>
        <time>2009-07-12T10:16:05Z</time>
      </trkpt>
      <trkpt lat="44.97419" lon="3.62963">
        <ele>849</ele>
        <time>2009-07-12T10:16:10Z</time>
      </trkpt>
      <trkpt lat="44.97412" lon="3.62977">
        <ele>849</ele>
        <time>2009-07-12T10:16:17Z</time>
      </trkpt>
      <trkpt lat="44.97388" lon="3.62988">
        <ele>849</ele>
        <time>2009-07-12T10:16:31Z</time>
      </trkpt>
      <trkpt lat="44.9736" lon="3.62981">
        <ele>852</ele>
        <time>2009-07-12T10:16:46Z</time>
      </trkpt>
      <trkpt lat="44.97334" lon="3.6298">
        <ele>854</ele>
        <time>2009-07-12T10:17:01Z</time>
      </trkpt>
      <trkpt lat="44.97321" lon="3.62979">
        <ele>857</ele>
        <time>2009-07-12T10:17:09Z</time>
      </trkpt>
      <trkpt lat="44.9732" lon="3.6298">
        <ele>856</ele>
        <time>2009-07-12T10:17:25Z</time>
      </trkpt>
      <trkpt lat="44.97323" lon="3.6298">
        <ele>856</ele>
        <time>2009-07-12T10:18:42Z</time>
      </trkpt>
      <trkpt lat="44.97323" lon="3.6298">
        <ele>856</ele>
        <time>2009-07-12T10:19:09Z</time>
      </trkpt>
      <trkpt lat="44.97311" lon="3.6295">
        <ele>858</ele>
        <time>2009-07-12T10:19:25Z</time>
      </trkpt>
      <trkpt lat="44.97307" lon="3.62944">
        <ele>859</ele>
        <time>2009-07-12T10:19:29Z</time>
      </trkpt>
      <trkpt lat="44.97314" lon="3.62938">
        <ele>860</ele>
        <time>2009-07-12T10:19:37Z</time>
      </trkpt>
      <trkpt lat="44.97327" lon="3.62943">
        <ele>863</ele>
        <time>2009-07-12T10:19:46Z</time>
      </trkpt>
      <trkpt lat="44.97347" lon="3.62936">
        <ele>866</ele>
        <time>2009-07-12T10:20:01Z</time>
      </trkpt>
      <trkpt lat="44.97371" lon="3.62916">
        <ele>868</ele>
        <time>2009-07-12T10:20:19Z</time>
      </trkpt>
      <trkpt lat="44.97383" lon="3.62887">
        <ele>872</ele>
        <time>2009-07-12T10:20:34Z</time>
      </trkpt>
      <trkpt lat="44.97395" lon="3.62859">
        <ele>874</ele>
        <time>2009-07-12T10:20:49Z</time>
      </trkpt>
      <trkpt lat="44.97405" lon="3.62828">
        <ele>877</ele>
        <time>2009-07-12T10:21:04Z</time>
      </trkpt>
      <trkpt lat="44.97409" lon="3.62812">
        <ele>879</ele>
        <time>2009-07-12T10:21:12Z</time>
      </trkpt>
      <trkpt lat="44.97418" lon="3.62783">
        <ele>879</ele>
        <time>2009-07-12T10:21:26Z</time>
      </trkpt>
      <trkpt lat="44.97412" lon="3.62777">
        <ele>881</ele>
        <time>2009-07-12T10:21:31Z</time>
      </trkpt>
      <trkpt lat="44.97407" lon="3.62786">
        <ele>882</ele>
        <time>2009-07-12T10:21:36Z</time>
      </trkpt>
      <trkpt lat="44.97384" lon="3.62811">
        <ele>885</ele>
        <time>2009-07-12T10:21:51Z</time>
      </trkpt>
      <trkpt lat="44.97363" lon="3.62834">
        <ele>888</ele>
        <time>2009-07-12T10:22:04Z</time>
      </trkpt>
      <trkpt lat="44.97345" lon="3.62849">
        <ele>890</ele>
        <time>2009-07-12T10:22:16Z</time>
      </trkpt>
      <trkpt lat="44.9733" lon="3.6285">
        <ele>892</ele>
        <time>2009-07-12T10:22:25Z</time>
      </trkpt>
      <trkpt lat="44.97337" lon="3.62838">
        <ele>894</ele>
        <time>2009-07-12T10:22:35Z</time>
      </trkpt>
      <trkpt lat="44.9736" lon="3.62812">
        <ele>895</ele>
        <time>2009-07-12T10:22:51Z</time>
      </trkpt>
      <trkpt lat="44.97374" lon="3.62773">
        <ele>897</ele>
        <time>2009-07-12T10:23:05Z</time>
      </trkpt>
      <trkpt lat="44.9738" lon="3.62756">
        <ele>898</ele>
        <time>2009-07-12T10:23:11Z</time>
      </trkpt>
      <trkpt lat="44.97392" lon="3.6272">
        <ele>901</ele>
        <time>2009-07-12T10:23:24Z</time>
      </trkpt>
      <trkpt lat="44.97393" lon="3.62717">
        <ele>901</ele>
        <time>2009-07-12T10:23:25Z</time>
      </trkpt>
      <trkpt lat="44.97402" lon="3.627">
        <ele>902</ele>
        <time>2009-07-12T10:23:32Z</time>
      </trkpt>
      <trkpt lat="44.97392" lon="3.62694">
        <ele>904</ele>
        <time>2009-07-12T10:23:41Z</time>
      </trkpt>
      <trkpt lat="44.97375" lon="3.62723">
        <ele>905</ele>
        <time>2009-07-12T10:23:54Z</time>
      </trkpt>
      <trkpt lat="44.97356" lon="3.62753">
        <ele>907</ele>
        <time>2009-07-12T10:24:07Z</time>
      </trkpt>
      <trkpt lat="44.97328" lon="3.62777">
        <ele>909</ele>
        <time>2009-07-12T10:24:22Z</time>
      </trkpt>
      <trkpt lat="44.97298" lon="3.62771">
        <ele>911</ele>
        <time>2009-07-12T10:24:36Z</time>
      </trkpt>
      <trkpt lat="44.97286" lon="3.62731">
        <ele>914</ele>
        <time>2009-07-12T10:24:49Z</time>
      </trkpt>
      <trkpt lat="44.97281" lon="3.62689">
        <ele>918</ele>
        <time>2009-07-12T10:25:02Z</time>
      </trkpt>
      <trkpt lat="44.9728" lon="3.62679">
        <ele>919</ele>
        <time>2009-07-12T10:25:05Z</time>
      </trkpt>
      <trkpt lat="44.97265" lon="3.62634">
        <ele>921</ele>
        <time>2009-07-12T10:25:22Z</time>
      </trkpt>
      <trkpt lat="44.97257" lon="3.62627">
        <ele>921</ele>
        <time>2009-07-12T10:25:27Z</time>
      </trkpt>
      <trkpt lat="44.97266" lon="3.62621">
        <ele>922</ele>
        <time>2009-07-12T10:25:36Z</time>
      </trkpt>
      <trkpt lat="44.97284" lon="3.62637">
        <ele>925</ele>
        <time>2009-07-12T10:25:46Z</time>
      </trkpt>
      <trkpt lat="44.97309" lon="3.62651">
        <ele>928</ele>
        <time>2009-07-12T10:26:00Z</time>
      </trkpt>
      <trkpt lat="44.97323" lon="3.62621">
        <ele>930</ele>
        <time>2009-07-12T10:26:13Z</time>
      </trkpt>
      <trkpt lat="44.97327" lon="3.62606">
        <ele>933</ele>
        <time>2009-07-12T10:26:19Z</time>
      </trkpt>
      <trkpt lat="44.97333" lon="3.62577">
        <ele>935</ele>
        <time>2009-07-12T10:26:30Z</time>
      </trkpt>
      <trkpt lat="44.97335" lon="3.62572">
        <ele>935</ele>
        <time>2009-07-12T10:26:32Z</time>
      </trkpt>
      <trkpt lat="44.97341" lon="3.62539">
        <ele>939</ele>
        <time>2009-07-12T10:26:44Z</time>
      </trkpt>
      <trkpt lat="44.97358" lon="3.62494">
        <ele>941</ele>
        <time>2009-07-12T10:27:02Z</time>
      </trkpt>
      <trkpt lat="44.97373" lon="3.62458">
        <ele>944</ele>
        <time>2009-07-12T10:27:17Z</time>
      </trkpt>
      <trkpt lat="44.97381" lon="3.62439">
        <ele>945</ele>
        <time>2009-07-12T10:27:25Z</time>
      </trkpt>
      <trkpt lat="44.97389" lon="3.6242">
        <ele>948</ele>
        <time>2009-07-12T10:27:33Z</time>
      </trkpt>
      <trkpt lat="44.974" lon="3.62392">
        <ele>951</ele>
        <time>2009-07-12T10:27:45Z</time>
      </trkpt>
      <trkpt lat="44.97404" lon="3.62356">
        <ele>953</ele>
        <time>2009-07-12T10:27:58Z</time>
      </trkpt>
      <trkpt lat="44.97406" lon="3.62338">
        <ele>955</ele>
        <time>2009-07-12T10:28:06Z</time>
      </trkpt>
      <trkpt lat="44.97399" lon="3.62336">
        <ele>957</ele>
        <time>2009-07-12T10:28:13Z</time>
      </trkpt>
      <trkpt lat="44.97394" lon="3.62348">
        <ele>958</ele>
        <time>2009-07-12T10:28:18Z</time>
      </trkpt>
      <trkpt lat="44.97374" lon="3.62371">
        <ele>961</ele>
        <time>2009-07-12T10:28:30Z</time>
      </trkpt>
      <trkpt lat="44.97343" lon="3.62403">
        <ele>964</ele>
        <time>2009-07-12T10:28:47Z</time>
      </trkpt>
      <trkpt lat="44.97313" lon="3.62421">
        <ele>967</ele>
        <time>2009-07-12T10:29:02Z</time>
      </trkpt>
      <trkpt lat="44.97307" lon="3.62418">
        <ele>969</ele>
        <time>2009-07-12T10:29:05Z</time>
      </trkpt>
      <trkpt lat="44.9729" lon="3.62384">
        <ele>969</ele>
        <time>2009-07-12T10:29:20Z</time>
      </trkpt>
      <trkpt lat="44.97296" lon="3.62349">
        <ele>969</ele>
        <time>2009-07-12T10:29:32Z</time>
      </trkpt>
      <trkpt lat="44.97298" lon="3.62342">
        <ele>972</ele>
        <time>2009-07-12T10:29:35Z</time>
      </trkpt>
      <trkpt lat="44.97301" lon="3.62335">
        <ele>974</ele>
        <time>2009-07-12T10:29:38Z</time>
      </trkpt>
      <trkpt lat="44.97324" lon="3.62306">
        <ele>977</ele>
        <time>2009-07-12T10:29:54Z</time>
      </trkpt>
      <trkpt lat="44.97333" lon="3.62275">
        <ele>981</ele>
        <time>2009-07-12T10:30:06Z</time>
      </trkpt>
      <trkpt lat="44.97336" lon="3.62248">
        <ele>983</ele>
        <time>2009-07-12T10:30:17Z</time>
      </trkpt>
      <trkpt lat="44.97338" lon="3.62237">
        <ele>984</ele>
        <time>2009-07-12T10:30:21Z</time>
      </trkpt>
      <trkpt lat="44.97341" lon="3.62212">
        <ele>986</ele>
        <time>2009-07-12T10:30:31Z</time>
      </trkpt>
      <trkpt lat="44.97344" lon="3.62179">
        <ele>989</ele>
        <time>2009-07-12T10:30:45Z</time>
      </trkpt>
      <trkpt lat="44.97349" lon="3.62135">
        <ele>992</ele>
        <time>2009-07-12T10:31:04Z</time>
      </trkpt>
      <trkpt lat="44.97352" lon="3.62115">
        <ele>995</ele>
        <time>2009-07-12T10:31:13Z</time>
      </trkpt>
      <trkpt lat="44.97356" lon="3.62093">
        <ele>998</ele>
        <time>2009-07-12T10:31:23Z</time>
      </trkpt>
      <trkpt lat="44.97366" lon="3.62057">
        <ele>1000</ele>
        <time>2009-07-12T10:31:40Z</time>
      </trkpt>
      <trkpt lat="44.97369" lon="3.62049">
        <ele>1002</ele>
        <time>2009-07-12T10:31:44Z</time>
      </trkpt>
      <trkpt lat="44.97376" lon="3.62025">
        <ele>1005</ele>
        <time>2009-07-12T10:31:56Z</time>
      </trkpt>
      <trkpt lat="44.97378" lon="3.61984">
        <ele>1008</ele>
        <time>2009-07-12T10:32:15Z</time>
      </trkpt>
      <trkpt lat="44.97378" lon="3.61982">
        <ele>1009</ele>
        <time>2009-07-12T10:32:16Z</time>
      </trkpt>
      <trkpt lat="44.97379" lon="3.61965">
        <ele>1011</ele>
        <time>2009-07-12T10:32:25Z</time>
      </trkpt>
      <trkpt lat="44.97381" lon="3.61954">
        <ele>1013</ele>
        <time>2009-07-12T10:32:31Z</time>
      </trkpt>
      <trkpt lat="44.9739" lon="3.61922">
        <ele>1015</ele>
        <time>2009-07-12T10:32:50Z</time>
      </trkpt>
      <trkpt lat="44.97388" lon="3.61923">
        <ele>1015</ele>
        <time>2009-07-12T10:33:20Z</time>
      </trkpt>
      <trkpt lat="44.97393" lon="3.61918">
        <ele>1017</ele>
        <time>2009-07-12T10:34:09Z</time>
      </trkpt>
      <trkpt lat="44.97383" lon="3.61924">
        <ele>1018</ele>
        <time>2009-07-12T10:34:44Z</time>
      </trkpt>
      <trkpt lat="44.97375" lon="3.61927">
        <ele>1016</ele>
        <time>2009-07-12T10:35:42Z</time>
      </trkpt>
      <trkpt lat="44.97377" lon="3.61929">
        <ele>1015</ele>
        <time>2009-07-12T10:36:33Z</time>
      </trkpt>
      <trkpt lat="44.97377" lon="3.6193">
        <ele>1016</ele>
        <time>2009-07-12T10:37:15Z</time>
      </trkpt>
      <trkpt lat="44.97379" lon="3.6193">
        <ele>1016</ele>
        <time>2009-07-12T10:38:17Z</time>
      </trkpt>
      <trkpt lat="44.97379" lon="3.61926">
        <ele>1016</ele>
        <time>2009-07-12T10:38:58Z</time>
      </trkpt>
      <trkpt lat="44.97389" lon="3.61922">
        <ele>1017</ele>
        <time>2009-07-12T10:40:30Z</time>
      </trkpt>
      <trkpt lat="44.97384" lon="3.61924">
        <ele>1017</ele>
        <time>2009-07-12T10:40:59Z</time>
      </trkpt>
      <trkpt lat="44.97386" lon="3.61924">
        <ele>1016</ele>
        <time>2009-07-12T10:41:15Z</time>
      </trkpt>
      <trkpt lat="44.97386" lon="3.61922">
        <ele>1016</ele>
        <time>2009-07-12T10:41:34Z</time>
      </trkpt>
      <trkpt lat="44.97384" lon="3.61915">
        <ele>1017</ele>
        <time>2009-07-12T10:41:39Z</time>
      </trkpt>
      <trkpt lat="44.9737" lon="3.61884">
        <ele>1018</ele>
        <time>2009-07-12T10:41:54Z</time>
      </trkpt>
      <trkpt lat="44.97352" lon="3.61809">
        <ele>1019</ele>
        <time>2009-07-12T10:42:14Z</time>
      </trkpt>
      <trkpt lat="44.97324" lon="3.61735">
        <ele>1021</ele>
        <time>2009-07-12T10:42:33Z</time>
      </trkpt>
      <trkpt lat="44.97294" lon="3.61694">
        <ele>1024</ele>
        <time>2009-07-12T10:42:48Z</time>
      </trkpt>
      <trkpt lat="44.97288" lon="3.61665">
        <ele>1022</ele>
        <time>2009-07-12T10:42:54Z</time>
      </trkpt>
      <trkpt lat="44.97277" lon="3.61635">
        <ele>1021</ele>
        <time>2009-07-12T10:42:59Z</time>
      </trkpt>
      <trkpt lat="44.97258" lon="3.61612">
        <ele>1021</ele>
        <time>2009-07-12T10:43:04Z</time>
      </trkpt>
      <trkpt lat="44.97242" lon="3.61606">
        <ele>1021</ele>
        <time>2009-07-12T10:43:08Z</time>
      </trkpt>
      <trkpt lat="44.97198" lon="3.61589">
        <ele>1022</ele>
        <time>2009-07-12T10:43:20Z</time>
      </trkpt>
      <trkpt lat="44.97177" lon="3.61586">
        <ele>1021</ele>
        <time>2009-07-12T10:43:25Z</time>
      </trkpt>
      <trkpt lat="44.97173" lon="3.61586">
        <ele>1021</ele>
        <time>2009-07-12T10:43:26Z</time>
      </trkpt>
      <trkpt lat="44.97156" lon="3.61582">
        <ele>1021</ele>
        <time>2009-07-12T10:43:30Z</time>
      </trkpt>
      <trkpt lat="44.97118" lon="3.61568">
        <ele>1020</ele>
        <time>2009-07-12T10:43:38Z</time>
      </trkpt>
      <trkpt lat="44.97108" lon="3.61565">
        <ele>1021</ele>
        <time>2009-07-12T10:43:40Z</time>
      </trkpt>
      <trkpt lat="44.97098" lon="3.61563">
        <ele>1021</ele>
        <time>2009-07-12T10:43:42Z</time>
      </trkpt>
      <trkpt lat="44.97074" lon="3.61564">
        <ele>1021</ele>
        <time>2009-07-12T10:43:47Z</time>
      </trkpt>
      <trkpt lat="44.97054" lon="3.61577">
        <ele>1021</ele>
        <time>2009-07-12T10:43:52Z</time>
      </trkpt>
      <trkpt lat="44.97031" lon="3.616">
        <ele>1025</ele>
        <time>2009-07-12T10:44:00Z</time>
      </trkpt>
      <trkpt lat="44.97011" lon="3.61602">
        <ele>1028</ele>
        <time>2009-07-12T10:44:06Z</time>
      </trkpt>
      <trkpt lat="44.96993" lon="3.61603">
        <ele>1030</ele>
        <time>2009-07-12T10:44:11Z</time>
      </trkpt>
      <trkpt lat="44.96935" lon="3.61609">
        <ele>1031</ele>
        <time>2009-07-12T10:44:28Z</time>
      </trkpt>
      <trkpt lat="44.96903" lon="3.61605">
        <ele>1031</ele>
        <time>2009-07-12T10:44:36Z</time>
      </trkpt>
      <trkpt lat="44.96877" lon="3.61604">
        <ele>1031</ele>
        <time>2009-07-12T10:44:42Z</time>
      </trkpt>
      <trkpt lat="44.9685" lon="3.61604">
        <ele>1032</ele>
        <time>2009-07-12T10:44:48Z</time>
      </trkpt>
      <trkpt lat="44.96823" lon="3.616">
        <ele>1032</ele>
        <time>2009-07-12T10:44:54Z</time>
      </trkpt>
      <trkpt lat="44.96801" lon="3.61604">
        <ele>1031</ele>
        <time>2009-07-12T10:44:59Z</time>
      </trkpt>
      <trkpt lat="44.96767" lon="3.61615">
        <ele>1032</ele>
        <time>2009-07-12T10:45:07Z</time>
      </trkpt>
      <trkpt lat="44.96739" lon="3.61623">
        <ele>1033</ele>
        <time>2009-07-12T10:45:14Z</time>
      </trkpt>
      <trkpt lat="44.96713" lon="3.6161">
        <ele>1033</ele>
        <time>2009-07-12T10:45:21Z</time>
      </trkpt>
      <trkpt lat="44.96694" lon="3.61595">
        <ele>1034</ele>
        <time>2009-07-12T10:45:26Z</time>
      </trkpt>
      <trkpt lat="44.96681" lon="3.6159">
        <ele>1035</ele>
        <time>2009-07-12T10:45:29Z</time>
      </trkpt>
      <trkpt lat="44.96637" lon="3.61574">
        <ele>1039</ele>
        <time>2009-07-12T10:45:40Z</time>
      </trkpt>
      <trkpt lat="44.96606" lon="3.61567">
        <ele>1043</ele>
        <time>2009-07-12T10:45:53Z</time>
      </trkpt>
      <trkpt lat="44.96604" lon="3.61567">
        <ele>1043</ele>
        <time>2009-07-12T10:45:54Z</time>
      </trkpt>
      <trkpt lat="44.96562" lon="3.61549">
        <ele>1045</ele>
        <time>2009-07-12T10:46:11Z</time>
      </trkpt>
      <trkpt lat="44.96536" lon="3.6153">
        <ele>1045</ele>
        <time>2009-07-12T10:46:23Z</time>
      </trkpt>
      <trkpt lat="44.96526" lon="3.61524">
        <ele>1047</ele>
        <time>2009-07-12T10:46:27Z</time>
      </trkpt>
      <trkpt lat="44.96472" lon="3.615">
        <ele>1047</ele>
        <time>2009-07-12T10:46:44Z</time>
      </trkpt>
      <trkpt lat="44.96427" lon="3.61476">
        <ele>1048</ele>
        <time>2009-07-12T10:46:58Z</time>
      </trkpt>
      <trkpt lat="44.9638" lon="3.61442">
        <ele>1050</ele>
        <time>2009-07-12T10:47:15Z</time>
      </trkpt>
      <trkpt lat="44.96376" lon="3.6144">
        <ele>1050</ele>
        <time>2009-07-12T10:47:16Z</time>
      </trkpt>
      <trkpt lat="44.96361" lon="3.61438">
        <ele>1053</ele>
        <time>2009-07-12T10:47:21Z</time>
      </trkpt>
      <trkpt lat="44.96291" lon="3.61438">
        <ele>1055</ele>
        <time>2009-07-12T10:47:42Z</time>
      </trkpt>
      <trkpt lat="44.96241" lon="3.61432">
        <ele>1055</ele>
        <time>2009-07-12T10:47:56Z</time>
      </trkpt>
      <trkpt lat="44.96192" lon="3.61392">
        <ele>1054</ele>
        <time>2009-07-12T10:48:11Z</time>
      </trkpt>
      <trkpt lat="44.9615" lon="3.61356">
        <ele>1053</ele>
        <time>2009-07-12T10:48:23Z</time>
      </trkpt>
      <trkpt lat="44.96137" lon="3.61344">
        <ele>1053</ele>
        <time>2009-07-12T10:48:27Z</time>
      </trkpt>
      <trkpt lat="44.96118" lon="3.61326">
        <ele>1054</ele>
        <time>2009-07-12T10:48:32Z</time>
      </trkpt>
      <trkpt lat="44.96085" lon="3.61308">
        <ele>1049</ele>
        <time>2009-07-12T10:48:38Z</time>
      </trkpt>
      <trkpt lat="44.9607" lon="3.61301">
        <ele>1047</ele>
        <time>2009-07-12T10:48:40Z</time>
      </trkpt>
      <trkpt lat="44.96048" lon="3.61294">
        <ele>1051</ele>
        <time>2009-07-12T10:48:44Z</time>
      </trkpt>
      <trkpt lat="44.9602" lon="3.61262">
        <ele>1053</ele>
        <time>2009-07-12T10:48:55Z</time>
      </trkpt>
      <trkpt lat="44.96012" lon="3.61229">
        <ele>1056</ele>
        <time>2009-07-12T10:49:03Z</time>
      </trkpt>
      <trkpt lat="44.95985" lon="3.61179">
        <ele>1058</ele>
        <time>2009-07-12T10:49:19Z</time>
      </trkpt>
      <trkpt lat="44.95941" lon="3.61149">
        <ele>1058</ele>
        <time>2009-07-12T10:49:31Z</time>
      </trkpt>
      <trkpt lat="44.95888" lon="3.6111">
        <ele>1059</ele>
        <time>2009-07-12T10:49:46Z</time>
      </trkpt>
      <trkpt lat="44.95869" lon="3.61071">
        <ele>1059</ele>
        <time>2009-07-12T10:49:55Z</time>
      </trkpt>
      <trkpt lat="44.95838" lon="3.60979">
        <ele>1061</ele>
        <time>2009-07-12T10:50:14Z</time>
      </trkpt>
      <trkpt lat="44.95814" lon="3.60941">
        <ele>1062</ele>
        <time>2009-07-12T10:50:23Z</time>
      </trkpt>
      <trkpt lat="44.9575" lon="3.60856">
        <ele>1066</ele>
        <time>2009-07-12T10:50:45Z</time>
      </trkpt>
      <trkpt lat="44.95682" lon="3.60783">
        <ele>1068</ele>
        <time>2009-07-12T10:51:08Z</time>
      </trkpt>
      <trkpt lat="44.95662" lon="3.60762">
        <ele>1069</ele>
        <time>2009-07-12T10:51:21Z</time>
      </trkpt>
      <trkpt lat="44.95662" lon="3.60763">
        <ele>1070</ele>
        <time>2009-07-12T10:52:53Z</time>
      </trkpt>
      <trkpt lat="44.95662" lon="3.60763">
        <ele>1066</ele>
        <time>2009-07-12T10:52:58Z</time>
      </trkpt>
      <trkpt lat="44.95662" lon="3.60763">
        <ele>1066</ele>
        <time>2009-07-12T10:52:59Z</time>
      </trkpt>
      <trkpt lat="44.95662" lon="3.60763">
        <ele>1072</ele>
        <time>2009-07-12T10:53:01Z</time>
      </trkpt>
      <trkpt lat="44.95662" lon="3.60763">
        <ele>1068</ele>
        <time>2009-07-12T10:53:03Z</time>
      </trkpt>
      <trkpt lat="44.95662" lon="3.60763">
        <ele>1072</ele>
        <time>2009-07-12T10:53:04Z</time>
      </trkpt>
      <trkpt lat="44.95662" lon="3.60763">
        <ele>1067</ele>
        <time>2009-07-12T10:53:07Z</time>
      </trkpt>
      <trkpt lat="44.95662" lon="3.60763">
        <ele>1071</ele>
        <time>2009-07-12T10:53:08Z</time>
      </trkpt>
      <trkpt lat="44.95662" lon="3.60763">
        <ele>1069</ele>
        <time>2009-07-12T10:53:11Z</time>
      </trkpt>
      <trkpt lat="44.95662" lon="3.60763">
        <ele>1072</ele>
        <time>2009-07-12T10:53:15Z</time>
      </trkpt>
      <trkpt lat="44.95662" lon="3.60763">
        <ele>1069</ele>
        <time>2009-07-12T10:53:17Z</time>
      </trkpt>
      <trkpt lat="44.95662" lon="3.60763">
        <ele>1070</ele>
        <time>2009-07-12T10:53:21Z</time>
      </trkpt>
      <trkpt lat="44.95662" lon="3.60763">
        <ele>1067</ele>
        <time>2009-07-12T10:53:23Z</time>
      </trkpt>
      <trkpt lat="44.95662" lon="3.60763">
        <ele>1070</ele>
        <time>2009-07-12T10:53:24Z</time>
      </trkpt>
      <trkpt lat="44.95662" lon="3.60763">
        <ele>1066</ele>
        <time>2009-07-12T10:53:56Z</time>
      </trkpt>
      <trkpt lat="44.95662" lon="3.60763">
        <ele>1072</ele>
        <time>2009-07-12T10:53:57Z</time>
      </trkpt>
      <trkpt lat="44.95662" lon="3.60763">
        <ele>1069</ele>
        <time>2009-07-12T10:53:59Z</time>
      </trkpt>
      <trkpt lat="44.95662" lon="3.60763">
        <ele>1072</ele>
        <time>2009-07-12T10:54:00Z</time>
      </trkpt>
      <trkpt lat="44.95662" lon="3.60763">
        <ele>1069</ele>
        <time>2009-07-12T10:54:01Z</time>
      </trkpt>
      <trkpt lat="44.95662" lon="3.60763">
        <ele>1073</ele>
        <time>2009-07-12T10:54:09Z</time>
      </trkpt>
      <trkpt lat="44.95662" lon="3.60763">
        <ele>1068</ele>
        <time>2009-07-12T10:54:10Z</time>
      </trkpt>
      <trkpt lat="44.95662" lon="3.60763">
        <ele>1073</ele>
        <time>2009-07-12T10:54:11Z</time>
      </trkpt>
      <trkpt lat="44.95662" lon="3.60763">
        <ele>1068</ele>
        <time>2009-07-12T10:54:12Z</time>
      </trkpt>
      <trkpt lat="44.95662" lon="3.60763">
        <ele>1073</ele>
        <time>2009-07-12T10:54:13Z</time>
      </trkpt>
      <trkpt lat="44.95662" lon="3.60763">
        <ele>1069</ele>
        <time>2009-07-12T10:54:15Z</time>
      </trkpt>
    </trkseg>
  </trk>
</gpx>